<?xml version="1.0" encoding="UTF-8" standalone="no" ?>
<gpx xmlns="http://www.topografix.com/GPX/1/1" xmlns:xsi="http://www.w3.org/2001/XMLSchema-instance" xsi:schemaLocation="http://www.topografix.com/GPX/1/1 http://www.topografix.com/GPX/1/1/gpx.xsd" version="1.1" creator="VisuGPX - https://www.visugpx.com">
  <metadata>
    <name>Tracé</name>
  </metadata>
  <trk>
    <name><![CDATA[Tracé]]></name>
    <trkseg>
      <trkpt lat="45.37888" lon="5.64595">
        <ele>459</ele>
        <time>2011-01-23T08:29:55Z</time>
      </trkpt>
      <trkpt lat="45.37903" lon="5.64595">
        <ele>464</ele>
        <time>2011-01-23T08:30:06Z</time>
      </trkpt>
      <trkpt lat="45.37918" lon="5.64596">
        <ele>458</ele>
        <time>2011-01-23T08:30:13Z</time>
      </trkpt>
      <trkpt lat="45.37945" lon="5.64611">
        <ele>458</ele>
        <time>2011-01-23T08:30:22Z</time>
      </trkpt>
      <trkpt lat="45.37969" lon="5.64619">
        <ele>458</ele>
        <time>2011-01-23T08:30:29Z</time>
      </trkpt>
      <trkpt lat="45.37992" lon="5.64626">
        <ele>457</ele>
        <time>2011-01-23T08:30:34Z</time>
      </trkpt>
      <trkpt lat="45.38029" lon="5.64624">
        <ele>457</ele>
        <time>2011-01-23T08:30:42Z</time>
      </trkpt>
      <trkpt lat="45.38072" lon="5.64603">
        <ele>457</ele>
        <time>2011-01-23T08:30:52Z</time>
      </trkpt>
      <trkpt lat="45.38111" lon="5.64566">
        <ele>456</ele>
        <time>2011-01-23T08:31:01Z</time>
      </trkpt>
      <trkpt lat="45.38156" lon="5.64513">
        <ele>454</ele>
        <time>2011-01-23T08:31:11Z</time>
      </trkpt>
      <trkpt lat="45.38171" lon="5.64497">
        <ele>454</ele>
        <time>2011-01-23T08:31:14Z</time>
      </trkpt>
      <trkpt lat="45.38192" lon="5.64481">
        <ele>454</ele>
        <time>2011-01-23T08:31:18Z</time>
      </trkpt>
      <trkpt lat="45.38216" lon="5.64475">
        <ele>453</ele>
        <time>2011-01-23T08:31:22Z</time>
      </trkpt>
      <trkpt lat="45.38232" lon="5.64476">
        <ele>453</ele>
        <time>2011-01-23T08:31:25Z</time>
      </trkpt>
      <trkpt lat="45.38262" lon="5.64494">
        <ele>452</ele>
        <time>2011-01-23T08:31:31Z</time>
      </trkpt>
      <trkpt lat="45.38308" lon="5.64522">
        <ele>452</ele>
        <time>2011-01-23T08:31:40Z</time>
      </trkpt>
      <trkpt lat="45.38352" lon="5.64533">
        <ele>451</ele>
        <time>2011-01-23T08:31:48Z</time>
      </trkpt>
      <trkpt lat="45.38394" lon="5.64538">
        <ele>450</ele>
        <time>2011-01-23T08:31:56Z</time>
      </trkpt>
      <trkpt lat="45.38436" lon="5.64544">
        <ele>449</ele>
        <time>2011-01-23T08:32:04Z</time>
      </trkpt>
      <trkpt lat="45.38477" lon="5.64547">
        <ele>446</ele>
        <time>2011-01-23T08:32:11Z</time>
      </trkpt>
      <trkpt lat="45.38498" lon="5.64552">
        <ele>445</ele>
        <time>2011-01-23T08:32:14Z</time>
      </trkpt>
      <trkpt lat="45.38524" lon="5.64573">
        <ele>441</ele>
        <time>2011-01-23T08:32:18Z</time>
      </trkpt>
      <trkpt lat="45.38528" lon="5.64581">
        <ele>441</ele>
        <time>2011-01-23T08:32:19Z</time>
      </trkpt>
      <trkpt lat="45.38542" lon="5.64606">
        <ele>442</ele>
        <time>2011-01-23T08:32:22Z</time>
      </trkpt>
      <trkpt lat="45.38556" lon="5.64643">
        <ele>441</ele>
        <time>2011-01-23T08:32:27Z</time>
      </trkpt>
      <trkpt lat="45.38564" lon="5.64657">
        <ele>443</ele>
        <time>2011-01-23T08:32:30Z</time>
      </trkpt>
      <trkpt lat="45.38588" lon="5.64524">
        <ele>440</ele>
        <time>2011-01-23T08:33:38Z</time>
      </trkpt>
      <trkpt lat="45.38608" lon="5.64501">
        <ele>441</ele>
        <time>2011-01-23T08:33:45Z</time>
      </trkpt>
      <trkpt lat="45.3865" lon="5.64498">
        <ele>442</ele>
        <time>2011-01-23T08:33:55Z</time>
      </trkpt>
      <trkpt lat="45.38695" lon="5.64487">
        <ele>443</ele>
        <time>2011-01-23T08:34:05Z</time>
      </trkpt>
      <trkpt lat="45.38737" lon="5.64475">
        <ele>444</ele>
        <time>2011-01-23T08:34:14Z</time>
      </trkpt>
      <trkpt lat="45.38757" lon="5.64471">
        <ele>444</ele>
        <time>2011-01-23T08:34:18Z</time>
      </trkpt>
      <trkpt lat="45.38798" lon="5.64448">
        <ele>446</ele>
        <time>2011-01-23T08:34:27Z</time>
      </trkpt>
      <trkpt lat="45.38827" lon="5.64434">
        <ele>447</ele>
        <time>2011-01-23T08:34:34Z</time>
      </trkpt>
      <trkpt lat="45.3884" lon="5.64427">
        <ele>449</ele>
        <time>2011-01-23T08:34:39Z</time>
      </trkpt>
      <trkpt lat="45.38843" lon="5.64426">
        <ele>448</ele>
        <time>2011-01-23T08:34:46Z</time>
      </trkpt>
      <trkpt lat="45.38844" lon="5.64425">
        <ele>450</ele>
        <time>2011-01-23T08:36:17Z</time>
      </trkpt>
      <trkpt lat="45.38856" lon="5.64416">
        <ele>450</ele>
        <time>2011-01-23T08:36:24Z</time>
      </trkpt>
      <trkpt lat="45.3887" lon="5.64405">
        <ele>452</ele>
        <time>2011-01-23T08:36:31Z</time>
      </trkpt>
      <trkpt lat="45.38885" lon="5.64391">
        <ele>452</ele>
        <time>2011-01-23T08:36:37Z</time>
      </trkpt>
      <trkpt lat="45.38898" lon="5.64373">
        <ele>454</ele>
        <time>2011-01-23T08:36:44Z</time>
      </trkpt>
      <trkpt lat="45.38908" lon="5.64358">
        <ele>456</ele>
        <time>2011-01-23T08:36:51Z</time>
      </trkpt>
      <trkpt lat="45.38914" lon="5.64343">
        <ele>457</ele>
        <time>2011-01-23T08:36:57Z</time>
      </trkpt>
      <trkpt lat="45.38924" lon="5.64324">
        <ele>459</ele>
        <time>2011-01-23T08:37:05Z</time>
      </trkpt>
      <trkpt lat="45.38938" lon="5.64308">
        <ele>461</ele>
        <time>2011-01-23T08:37:13Z</time>
      </trkpt>
      <trkpt lat="45.38949" lon="5.64308">
        <ele>462</ele>
        <time>2011-01-23T08:37:19Z</time>
      </trkpt>
      <trkpt lat="45.38959" lon="5.64294">
        <ele>464</ele>
        <time>2011-01-23T08:37:26Z</time>
      </trkpt>
      <trkpt lat="45.3896" lon="5.64299">
        <ele>463</ele>
        <time>2011-01-23T08:37:54Z</time>
      </trkpt>
      <trkpt lat="45.38975" lon="5.64317">
        <ele>462</ele>
        <time>2011-01-23T08:38:00Z</time>
      </trkpt>
      <trkpt lat="45.38987" lon="5.64332">
        <ele>462</ele>
        <time>2011-01-23T08:38:04Z</time>
      </trkpt>
      <trkpt lat="45.39005" lon="5.64359">
        <ele>462</ele>
        <time>2011-01-23T08:38:11Z</time>
      </trkpt>
      <trkpt lat="45.39017" lon="5.64384">
        <ele>464</ele>
        <time>2011-01-23T08:38:17Z</time>
      </trkpt>
      <trkpt lat="45.39025" lon="5.64419">
        <ele>464</ele>
        <time>2011-01-23T08:38:24Z</time>
      </trkpt>
      <trkpt lat="45.39022" lon="5.64459">
        <ele>466</ele>
        <time>2011-01-23T08:38:36Z</time>
      </trkpt>
      <trkpt lat="45.39022" lon="5.64459">
        <ele>465</ele>
        <time>2011-01-23T08:38:38Z</time>
      </trkpt>
      <trkpt lat="45.3903" lon="5.6448">
        <ele>464</ele>
        <time>2011-01-23T08:38:44Z</time>
      </trkpt>
      <trkpt lat="45.39039" lon="5.64513">
        <ele>460</ele>
        <time>2011-01-23T08:38:48Z</time>
      </trkpt>
      <trkpt lat="45.39068" lon="5.64586">
        <ele>458</ele>
        <time>2011-01-23T08:38:57Z</time>
      </trkpt>
      <trkpt lat="45.3909" lon="5.64634">
        <ele>459</ele>
        <time>2011-01-23T08:39:05Z</time>
      </trkpt>
      <trkpt lat="45.39092" lon="5.64639">
        <ele>459</ele>
        <time>2011-01-23T08:39:06Z</time>
      </trkpt>
      <trkpt lat="45.39114" lon="5.6468">
        <ele>459</ele>
        <time>2011-01-23T08:39:15Z</time>
      </trkpt>
      <trkpt lat="45.39124" lon="5.64699">
        <ele>461</ele>
        <time>2011-01-23T08:39:21Z</time>
      </trkpt>
      <trkpt lat="45.39124" lon="5.647">
        <ele>461</ele>
        <time>2011-01-23T08:39:22Z</time>
      </trkpt>
      <trkpt lat="45.39126" lon="5.64705">
        <ele>462</ele>
        <time>2011-01-23T08:39:25Z</time>
      </trkpt>
      <trkpt lat="45.39123" lon="5.64725">
        <ele>461</ele>
        <time>2011-01-23T08:39:33Z</time>
      </trkpt>
      <trkpt lat="45.39124" lon="5.64728">
        <ele>461</ele>
        <time>2011-01-23T08:39:34Z</time>
      </trkpt>
      <trkpt lat="45.39136" lon="5.6473">
        <ele>462</ele>
        <time>2011-01-23T08:39:39Z</time>
      </trkpt>
      <trkpt lat="45.39137" lon="5.64715">
        <ele>462</ele>
        <time>2011-01-23T08:39:42Z</time>
      </trkpt>
      <trkpt lat="45.3914" lon="5.64685">
        <ele>462</ele>
        <time>2011-01-23T08:39:48Z</time>
      </trkpt>
      <trkpt lat="45.39141" lon="5.64681">
        <ele>463</ele>
        <time>2011-01-23T08:39:49Z</time>
      </trkpt>
      <trkpt lat="45.39148" lon="5.64672">
        <ele>464</ele>
        <time>2011-01-23T08:39:54Z</time>
      </trkpt>
      <trkpt lat="45.39151" lon="5.64664">
        <ele>464</ele>
        <time>2011-01-23T08:39:59Z</time>
      </trkpt>
      <trkpt lat="45.3916" lon="5.64648">
        <ele>466</ele>
        <time>2011-01-23T08:40:08Z</time>
      </trkpt>
      <trkpt lat="45.39165" lon="5.64638">
        <ele>467</ele>
        <time>2011-01-23T08:40:15Z</time>
      </trkpt>
      <trkpt lat="45.39175" lon="5.64615">
        <ele>469</ele>
        <time>2011-01-23T08:40:24Z</time>
      </trkpt>
      <trkpt lat="45.39181" lon="5.64602">
        <ele>470</ele>
        <time>2011-01-23T08:40:30Z</time>
      </trkpt>
      <trkpt lat="45.39188" lon="5.64583">
        <ele>472</ele>
        <time>2011-01-23T08:40:38Z</time>
      </trkpt>
      <trkpt lat="45.39198" lon="5.64571">
        <ele>473</ele>
        <time>2011-01-23T08:40:46Z</time>
      </trkpt>
      <trkpt lat="45.39209" lon="5.64558">
        <ele>474</ele>
        <time>2011-01-23T08:40:55Z</time>
      </trkpt>
      <trkpt lat="45.39225" lon="5.64546">
        <ele>475</ele>
        <time>2011-01-23T08:41:05Z</time>
      </trkpt>
      <trkpt lat="45.39239" lon="5.64544">
        <ele>476</ele>
        <time>2011-01-23T08:41:13Z</time>
      </trkpt>
      <trkpt lat="45.39251" lon="5.64546">
        <ele>477</ele>
        <time>2011-01-23T08:41:20Z</time>
      </trkpt>
      <trkpt lat="45.3927" lon="5.64557">
        <ele>479</ele>
        <time>2011-01-23T08:41:31Z</time>
      </trkpt>
      <trkpt lat="45.39287" lon="5.64581">
        <ele>480</ele>
        <time>2011-01-23T08:41:46Z</time>
      </trkpt>
      <trkpt lat="45.39308" lon="5.64611">
        <ele>483</ele>
        <time>2011-01-23T08:42:06Z</time>
      </trkpt>
      <trkpt lat="45.39324" lon="5.64632">
        <ele>486</ele>
        <time>2011-01-23T08:42:22Z</time>
      </trkpt>
      <trkpt lat="45.39327" lon="5.64639">
        <ele>487</ele>
        <time>2011-01-23T08:42:27Z</time>
      </trkpt>
      <trkpt lat="45.39335" lon="5.64649">
        <ele>488</ele>
        <time>2011-01-23T08:42:35Z</time>
      </trkpt>
      <trkpt lat="45.39348" lon="5.64663">
        <ele>489</ele>
        <time>2011-01-23T08:42:43Z</time>
      </trkpt>
      <trkpt lat="45.39353" lon="5.64668">
        <ele>489</ele>
        <time>2011-01-23T08:42:47Z</time>
      </trkpt>
      <trkpt lat="45.3937" lon="5.64679">
        <ele>491</ele>
        <time>2011-01-23T08:42:59Z</time>
      </trkpt>
      <trkpt lat="45.39387" lon="5.64693">
        <ele>493</ele>
        <time>2011-01-23T08:43:14Z</time>
      </trkpt>
      <trkpt lat="45.39407" lon="5.64704">
        <ele>495</ele>
        <time>2011-01-23T08:43:29Z</time>
      </trkpt>
      <trkpt lat="45.39433" lon="5.64724">
        <ele>498</ele>
        <time>2011-01-23T08:43:51Z</time>
      </trkpt>
      <trkpt lat="45.3945" lon="5.64735">
        <ele>500</ele>
        <time>2011-01-23T08:44:05Z</time>
      </trkpt>
      <trkpt lat="45.39455" lon="5.64741">
        <ele>500</ele>
        <time>2011-01-23T08:44:10Z</time>
      </trkpt>
      <trkpt lat="45.39465" lon="5.64752">
        <ele>502</ele>
        <time>2011-01-23T08:44:19Z</time>
      </trkpt>
      <trkpt lat="45.39477" lon="5.64758">
        <ele>503</ele>
        <time>2011-01-23T08:44:27Z</time>
      </trkpt>
      <trkpt lat="45.39485" lon="5.64772">
        <ele>504</ele>
        <time>2011-01-23T08:44:36Z</time>
      </trkpt>
      <trkpt lat="45.39496" lon="5.64778">
        <ele>505</ele>
        <time>2011-01-23T08:44:43Z</time>
      </trkpt>
      <trkpt lat="45.39508" lon="5.64784">
        <ele>506</ele>
        <time>2011-01-23T08:44:51Z</time>
      </trkpt>
      <trkpt lat="45.39534" lon="5.64849">
        <ele>510</ele>
        <time>2011-01-23T08:45:27Z</time>
      </trkpt>
      <trkpt lat="45.39542" lon="5.64864">
        <ele>512</ele>
        <time>2011-01-23T08:45:38Z</time>
      </trkpt>
      <trkpt lat="45.39545" lon="5.64868">
        <ele>512</ele>
        <time>2011-01-23T08:45:42Z</time>
      </trkpt>
      <trkpt lat="45.3956" lon="5.64873">
        <ele>514</ele>
        <time>2011-01-23T08:45:52Z</time>
      </trkpt>
      <trkpt lat="45.39564" lon="5.64876">
        <ele>514</ele>
        <time>2011-01-23T08:45:55Z</time>
      </trkpt>
      <trkpt lat="45.39578" lon="5.64876">
        <ele>516</ele>
        <time>2011-01-23T08:46:04Z</time>
      </trkpt>
      <trkpt lat="45.39591" lon="5.64874">
        <ele>517</ele>
        <time>2011-01-23T08:46:14Z</time>
      </trkpt>
      <trkpt lat="45.39598" lon="5.64869">
        <ele>518</ele>
        <time>2011-01-23T08:46:21Z</time>
      </trkpt>
      <trkpt lat="45.396" lon="5.64865">
        <ele>518</ele>
        <time>2011-01-23T08:46:28Z</time>
      </trkpt>
      <trkpt lat="45.396" lon="5.64865">
        <ele>518</ele>
        <time>2011-01-23T08:46:58Z</time>
      </trkpt>
      <trkpt lat="45.39596" lon="5.64851">
        <ele>519</ele>
        <time>2011-01-23T08:47:04Z</time>
      </trkpt>
      <trkpt lat="45.3959" lon="5.64845">
        <ele>520</ele>
        <time>2011-01-23T08:47:07Z</time>
      </trkpt>
      <trkpt lat="45.39582" lon="5.64834">
        <ele>521</ele>
        <time>2011-01-23T08:47:13Z</time>
      </trkpt>
      <trkpt lat="45.39572" lon="5.64818">
        <ele>523</ele>
        <time>2011-01-23T08:47:22Z</time>
      </trkpt>
      <trkpt lat="45.39563" lon="5.64805">
        <ele>524</ele>
        <time>2011-01-23T08:47:30Z</time>
      </trkpt>
      <trkpt lat="45.39555" lon="5.6479">
        <ele>526</ele>
        <time>2011-01-23T08:47:38Z</time>
      </trkpt>
      <trkpt lat="45.39542" lon="5.64761">
        <ele>529</ele>
        <time>2011-01-23T08:47:52Z</time>
      </trkpt>
      <trkpt lat="45.39534" lon="5.64739">
        <ele>533</ele>
        <time>2011-01-23T08:48:04Z</time>
      </trkpt>
      <trkpt lat="45.3952" lon="5.64715">
        <ele>534</ele>
        <time>2011-01-23T08:48:19Z</time>
      </trkpt>
      <trkpt lat="45.395" lon="5.64695">
        <ele>536</ele>
        <time>2011-01-23T08:48:37Z</time>
      </trkpt>
      <trkpt lat="45.39485" lon="5.6468">
        <ele>538</ele>
        <time>2011-01-23T08:48:51Z</time>
      </trkpt>
      <trkpt lat="45.39476" lon="5.64669">
        <ele>541</ele>
        <time>2011-01-23T08:49:00Z</time>
      </trkpt>
      <trkpt lat="45.39461" lon="5.64652">
        <ele>542</ele>
        <time>2011-01-23T08:49:15Z</time>
      </trkpt>
      <trkpt lat="45.39451" lon="5.64637">
        <ele>544</ele>
        <time>2011-01-23T08:49:25Z</time>
      </trkpt>
      <trkpt lat="45.39443" lon="5.64625">
        <ele>545</ele>
        <time>2011-01-23T08:49:33Z</time>
      </trkpt>
      <trkpt lat="45.39434" lon="5.64601">
        <ele>548</ele>
        <time>2011-01-23T08:49:46Z</time>
      </trkpt>
      <trkpt lat="45.3943" lon="5.64588">
        <ele>549</ele>
        <time>2011-01-23T08:49:55Z</time>
      </trkpt>
      <trkpt lat="45.39427" lon="5.64581">
        <ele>550</ele>
        <time>2011-01-23T08:50:02Z</time>
      </trkpt>
      <trkpt lat="45.39431" lon="5.64575">
        <ele>550</ele>
        <time>2011-01-23T08:50:08Z</time>
      </trkpt>
      <trkpt lat="45.3943" lon="5.64574">
        <ele>550</ele>
        <time>2011-01-23T08:50:19Z</time>
      </trkpt>
      <trkpt lat="45.3943" lon="5.64574">
        <ele>550</ele>
        <time>2011-01-23T08:50:27Z</time>
      </trkpt>
      <trkpt lat="45.39424" lon="5.64562">
        <ele>550</ele>
        <time>2011-01-23T08:50:34Z</time>
      </trkpt>
      <trkpt lat="45.39421" lon="5.64543">
        <ele>552</ele>
        <time>2011-01-23T08:50:42Z</time>
      </trkpt>
      <trkpt lat="45.39418" lon="5.64527">
        <ele>554</ele>
        <time>2011-01-23T08:50:50Z</time>
      </trkpt>
      <trkpt lat="45.39414" lon="5.64514">
        <ele>556</ele>
        <time>2011-01-23T08:50:57Z</time>
      </trkpt>
      <trkpt lat="45.39414" lon="5.6451">
        <ele>556</ele>
        <time>2011-01-23T08:50:59Z</time>
      </trkpt>
      <trkpt lat="45.3941" lon="5.64485">
        <ele>559</ele>
        <time>2011-01-23T08:51:11Z</time>
      </trkpt>
      <trkpt lat="45.39406" lon="5.64465">
        <ele>561</ele>
        <time>2011-01-23T08:51:20Z</time>
      </trkpt>
      <trkpt lat="45.39405" lon="5.64449">
        <ele>562</ele>
        <time>2011-01-23T08:51:29Z</time>
      </trkpt>
      <trkpt lat="45.39402" lon="5.64429">
        <ele>564</ele>
        <time>2011-01-23T08:51:39Z</time>
      </trkpt>
      <trkpt lat="45.39401" lon="5.64411">
        <ele>564</ele>
        <time>2011-01-23T08:51:47Z</time>
      </trkpt>
      <trkpt lat="45.39402" lon="5.64409">
        <ele>565</ele>
        <time>2011-01-23T08:51:48Z</time>
      </trkpt>
      <trkpt lat="45.394" lon="5.64386">
        <ele>566</ele>
        <time>2011-01-23T08:51:58Z</time>
      </trkpt>
      <trkpt lat="45.39398" lon="5.64369">
        <ele>569</ele>
        <time>2011-01-23T08:52:07Z</time>
      </trkpt>
      <trkpt lat="45.39396" lon="5.64346">
        <ele>570</ele>
        <time>2011-01-23T08:52:18Z</time>
      </trkpt>
      <trkpt lat="45.39396" lon="5.64331">
        <ele>571</ele>
        <time>2011-01-23T08:52:27Z</time>
      </trkpt>
      <trkpt lat="45.39398" lon="5.64317">
        <ele>572</ele>
        <time>2011-01-23T08:52:35Z</time>
      </trkpt>
      <trkpt lat="45.39401" lon="5.64303">
        <ele>573</ele>
        <time>2011-01-23T08:52:43Z</time>
      </trkpt>
      <trkpt lat="45.39402" lon="5.64292">
        <ele>574</ele>
        <time>2011-01-23T08:52:50Z</time>
      </trkpt>
      <trkpt lat="45.39401" lon="5.64282">
        <ele>575</ele>
        <time>2011-01-23T08:52:56Z</time>
      </trkpt>
      <trkpt lat="45.39396" lon="5.64276">
        <ele>576</ele>
        <time>2011-01-23T08:53:02Z</time>
      </trkpt>
      <trkpt lat="45.39387" lon="5.64267">
        <ele>578</ele>
        <time>2011-01-23T08:53:11Z</time>
      </trkpt>
      <trkpt lat="45.39376" lon="5.6426">
        <ele>579</ele>
        <time>2011-01-23T08:53:19Z</time>
      </trkpt>
      <trkpt lat="45.39374" lon="5.64258">
        <ele>580</ele>
        <time>2011-01-23T08:53:21Z</time>
      </trkpt>
      <trkpt lat="45.39372" lon="5.64257">
        <ele>580</ele>
        <time>2011-01-23T08:53:23Z</time>
      </trkpt>
      <trkpt lat="45.39365" lon="5.64249">
        <ele>581</ele>
        <time>2011-01-23T08:53:31Z</time>
      </trkpt>
      <trkpt lat="45.3936" lon="5.64239">
        <ele>582</ele>
        <time>2011-01-23T08:53:38Z</time>
      </trkpt>
      <trkpt lat="45.39366" lon="5.64239">
        <ele>584</ele>
        <time>2011-01-23T08:53:46Z</time>
      </trkpt>
      <trkpt lat="45.39372" lon="5.64243">
        <ele>585</ele>
        <time>2011-01-23T08:53:52Z</time>
      </trkpt>
      <trkpt lat="45.39383" lon="5.64247">
        <ele>587</ele>
        <time>2011-01-23T08:54:01Z</time>
      </trkpt>
      <trkpt lat="45.39391" lon="5.64249">
        <ele>588</ele>
        <time>2011-01-23T08:54:07Z</time>
      </trkpt>
      <trkpt lat="45.39399" lon="5.64248">
        <ele>589</ele>
        <time>2011-01-23T08:54:15Z</time>
      </trkpt>
      <trkpt lat="45.39408" lon="5.64247">
        <ele>591</ele>
        <time>2011-01-23T08:54:24Z</time>
      </trkpt>
      <trkpt lat="45.39415" lon="5.64243">
        <ele>593</ele>
        <time>2011-01-23T08:54:32Z</time>
      </trkpt>
      <trkpt lat="45.39422" lon="5.64241">
        <ele>594</ele>
        <time>2011-01-23T08:54:38Z</time>
      </trkpt>
      <trkpt lat="45.39426" lon="5.6424">
        <ele>594</ele>
        <time>2011-01-23T08:54:41Z</time>
      </trkpt>
      <trkpt lat="45.39435" lon="5.64242">
        <ele>596</ele>
        <time>2011-01-23T08:54:49Z</time>
      </trkpt>
      <trkpt lat="45.39444" lon="5.64245">
        <ele>598</ele>
        <time>2011-01-23T08:54:57Z</time>
      </trkpt>
      <trkpt lat="45.39453" lon="5.6425">
        <ele>599</ele>
        <time>2011-01-23T08:55:04Z</time>
      </trkpt>
      <trkpt lat="45.39455" lon="5.6425">
        <ele>599</ele>
        <time>2011-01-23T08:55:05Z</time>
      </trkpt>
      <trkpt lat="45.39459" lon="5.64249">
        <ele>600</ele>
        <time>2011-01-23T08:55:08Z</time>
      </trkpt>
      <trkpt lat="45.39469" lon="5.64248">
        <ele>601</ele>
        <time>2011-01-23T08:55:18Z</time>
      </trkpt>
      <trkpt lat="45.39473" lon="5.64244">
        <ele>601</ele>
        <time>2011-01-23T08:55:22Z</time>
      </trkpt>
      <trkpt lat="45.39474" lon="5.6424">
        <ele>602</ele>
        <time>2011-01-23T08:55:26Z</time>
      </trkpt>
      <trkpt lat="45.39471" lon="5.64227">
        <ele>603</ele>
        <time>2011-01-23T08:55:35Z</time>
      </trkpt>
      <trkpt lat="45.39469" lon="5.64219">
        <ele>604</ele>
        <time>2011-01-23T08:55:40Z</time>
      </trkpt>
      <trkpt lat="45.39463" lon="5.64214">
        <ele>605</ele>
        <time>2011-01-23T08:55:48Z</time>
      </trkpt>
      <trkpt lat="45.39457" lon="5.64206">
        <ele>607</ele>
        <time>2011-01-23T08:55:56Z</time>
      </trkpt>
      <trkpt lat="45.3945" lon="5.642">
        <ele>608</ele>
        <time>2011-01-23T08:56:04Z</time>
      </trkpt>
      <trkpt lat="45.39448" lon="5.64199">
        <ele>609</ele>
        <time>2011-01-23T08:56:06Z</time>
      </trkpt>
      <trkpt lat="45.39442" lon="5.64196">
        <ele>609</ele>
        <time>2011-01-23T08:56:10Z</time>
      </trkpt>
      <trkpt lat="45.39431" lon="5.64193">
        <ele>611</ele>
        <time>2011-01-23T08:56:18Z</time>
      </trkpt>
      <trkpt lat="45.39424" lon="5.64189">
        <ele>612</ele>
        <time>2011-01-23T08:56:26Z</time>
      </trkpt>
      <trkpt lat="45.39414" lon="5.64184">
        <ele>614</ele>
        <time>2011-01-23T08:56:34Z</time>
      </trkpt>
      <trkpt lat="45.39411" lon="5.6418">
        <ele>614</ele>
        <time>2011-01-23T08:56:37Z</time>
      </trkpt>
      <trkpt lat="45.3941" lon="5.64178">
        <ele>615</ele>
        <time>2011-01-23T08:56:39Z</time>
      </trkpt>
      <trkpt lat="45.39399" lon="5.64161">
        <ele>616</ele>
        <time>2011-01-23T08:56:50Z</time>
      </trkpt>
      <trkpt lat="45.39395" lon="5.64149">
        <ele>618</ele>
        <time>2011-01-23T08:56:59Z</time>
      </trkpt>
      <trkpt lat="45.39394" lon="5.64137">
        <ele>619</ele>
        <time>2011-01-23T08:57:07Z</time>
      </trkpt>
      <trkpt lat="45.39393" lon="5.64128">
        <ele>620</ele>
        <time>2011-01-23T08:57:14Z</time>
      </trkpt>
      <trkpt lat="45.39391" lon="5.64114">
        <ele>622</ele>
        <time>2011-01-23T08:57:23Z</time>
      </trkpt>
      <trkpt lat="45.39393" lon="5.64102">
        <ele>623</ele>
        <time>2011-01-23T08:57:31Z</time>
      </trkpt>
      <trkpt lat="45.39394" lon="5.64085">
        <ele>624</ele>
        <time>2011-01-23T08:57:41Z</time>
      </trkpt>
      <trkpt lat="45.39395" lon="5.64075">
        <ele>626</ele>
        <time>2011-01-23T08:57:47Z</time>
      </trkpt>
      <trkpt lat="45.39394" lon="5.6407">
        <ele>626</ele>
        <time>2011-01-23T08:57:51Z</time>
      </trkpt>
      <trkpt lat="45.39395" lon="5.64058">
        <ele>627</ele>
        <time>2011-01-23T08:57:59Z</time>
      </trkpt>
      <trkpt lat="45.39395" lon="5.64057">
        <ele>627</ele>
        <time>2011-01-23T08:58:00Z</time>
      </trkpt>
      <trkpt lat="45.39395" lon="5.64053">
        <ele>628</ele>
        <time>2011-01-23T08:58:03Z</time>
      </trkpt>
      <trkpt lat="45.39396" lon="5.64038">
        <ele>629</ele>
        <time>2011-01-23T08:58:13Z</time>
      </trkpt>
      <trkpt lat="45.39397" lon="5.64026">
        <ele>631</ele>
        <time>2011-01-23T08:58:22Z</time>
      </trkpt>
      <trkpt lat="45.394" lon="5.64014">
        <ele>632</ele>
        <time>2011-01-23T08:58:29Z</time>
      </trkpt>
      <trkpt lat="45.394" lon="5.63995">
        <ele>633</ele>
        <time>2011-01-23T08:58:40Z</time>
      </trkpt>
      <trkpt lat="45.39397" lon="5.63985">
        <ele>634</ele>
        <time>2011-01-23T08:58:46Z</time>
      </trkpt>
      <trkpt lat="45.39392" lon="5.63971">
        <ele>635</ele>
        <time>2011-01-23T08:58:55Z</time>
      </trkpt>
      <trkpt lat="45.39385" lon="5.63963">
        <ele>635</ele>
        <time>2011-01-23T08:59:02Z</time>
      </trkpt>
      <trkpt lat="45.39383" lon="5.63963">
        <ele>635</ele>
        <time>2011-01-23T08:59:04Z</time>
      </trkpt>
      <trkpt lat="45.3937" lon="5.63958">
        <ele>636</ele>
        <time>2011-01-23T08:59:14Z</time>
      </trkpt>
      <trkpt lat="45.39361" lon="5.63958">
        <ele>638</ele>
        <time>2011-01-23T08:59:22Z</time>
      </trkpt>
      <trkpt lat="45.39347" lon="5.63963">
        <ele>639</ele>
        <time>2011-01-23T08:59:32Z</time>
      </trkpt>
      <trkpt lat="45.39335" lon="5.63963">
        <ele>641</ele>
        <time>2011-01-23T08:59:41Z</time>
      </trkpt>
      <trkpt lat="45.39326" lon="5.6396">
        <ele>642</ele>
        <time>2011-01-23T08:59:49Z</time>
      </trkpt>
      <trkpt lat="45.39325" lon="5.63959">
        <ele>642</ele>
        <time>2011-01-23T08:59:50Z</time>
      </trkpt>
      <trkpt lat="45.39322" lon="5.63951">
        <ele>643</ele>
        <time>2011-01-23T08:59:55Z</time>
      </trkpt>
      <trkpt lat="45.39322" lon="5.63943">
        <ele>644</ele>
        <time>2011-01-23T09:00:02Z</time>
      </trkpt>
      <trkpt lat="45.39328" lon="5.63946">
        <ele>643</ele>
        <time>2011-01-23T09:01:36Z</time>
      </trkpt>
      <trkpt lat="45.39333" lon="5.63943">
        <ele>643</ele>
        <time>2011-01-23T09:01:52Z</time>
      </trkpt>
      <trkpt lat="45.39336" lon="5.63942">
        <ele>646</ele>
        <time>2011-01-23T09:04:42Z</time>
      </trkpt>
      <trkpt lat="45.39338" lon="5.6394">
        <ele>647</ele>
        <time>2011-01-23T09:04:56Z</time>
      </trkpt>
      <trkpt lat="45.39336" lon="5.63934">
        <ele>647</ele>
        <time>2011-01-23T09:05:10Z</time>
      </trkpt>
      <trkpt lat="45.39336" lon="5.63927">
        <ele>648</ele>
        <time>2011-01-23T09:05:32Z</time>
      </trkpt>
      <trkpt lat="45.39343" lon="5.63918">
        <ele>650</ele>
        <time>2011-01-23T09:05:47Z</time>
      </trkpt>
      <trkpt lat="45.39345" lon="5.63913">
        <ele>650</ele>
        <time>2011-01-23T09:05:58Z</time>
      </trkpt>
      <trkpt lat="45.39346" lon="5.63909">
        <ele>650</ele>
        <time>2011-01-23T09:06:19Z</time>
      </trkpt>
      <trkpt lat="45.3935" lon="5.63907">
        <ele>650</ele>
        <time>2011-01-23T09:06:25Z</time>
      </trkpt>
      <trkpt lat="45.39352" lon="5.639">
        <ele>650</ele>
        <time>2011-01-23T09:06:41Z</time>
      </trkpt>
      <trkpt lat="45.39356" lon="5.63899">
        <ele>651</ele>
        <time>2011-01-23T09:06:46Z</time>
      </trkpt>
      <trkpt lat="45.39369" lon="5.63896">
        <ele>650</ele>
        <time>2011-01-23T09:06:54Z</time>
      </trkpt>
      <trkpt lat="45.39379" lon="5.63901">
        <ele>651</ele>
        <time>2011-01-23T09:06:59Z</time>
      </trkpt>
      <trkpt lat="45.39401" lon="5.63916">
        <ele>651</ele>
        <time>2011-01-23T09:07:09Z</time>
      </trkpt>
      <trkpt lat="45.39412" lon="5.63923">
        <ele>651</ele>
        <time>2011-01-23T09:07:16Z</time>
      </trkpt>
      <trkpt lat="45.39424" lon="5.63929">
        <ele>653</ele>
        <time>2011-01-23T09:07:23Z</time>
      </trkpt>
      <trkpt lat="45.39443" lon="5.6394">
        <ele>655</ele>
        <time>2011-01-23T09:07:34Z</time>
      </trkpt>
      <trkpt lat="45.39451" lon="5.63944">
        <ele>657</ele>
        <time>2011-01-23T09:07:50Z</time>
      </trkpt>
      <trkpt lat="45.39464" lon="5.63948">
        <ele>659</ele>
        <time>2011-01-23T09:08:27Z</time>
      </trkpt>
      <trkpt lat="45.39472" lon="5.63956">
        <ele>661</ele>
        <time>2011-01-23T09:20:43Z</time>
      </trkpt>
      <trkpt lat="45.39475" lon="5.63963">
        <ele>662</ele>
        <time>2011-01-23T09:20:51Z</time>
      </trkpt>
      <trkpt lat="45.39485" lon="5.63971">
        <ele>663</ele>
        <time>2011-01-23T09:21:02Z</time>
      </trkpt>
      <trkpt lat="45.39493" lon="5.63978">
        <ele>666</ele>
        <time>2011-01-23T09:21:12Z</time>
      </trkpt>
      <trkpt lat="45.39493" lon="5.6398">
        <ele>666</ele>
        <time>2011-01-23T09:21:21Z</time>
      </trkpt>
      <trkpt lat="45.39499" lon="5.63987">
        <ele>667</ele>
        <time>2011-01-23T09:21:44Z</time>
      </trkpt>
      <trkpt lat="45.39509" lon="5.63996">
        <ele>671</ele>
        <time>2011-01-23T09:22:01Z</time>
      </trkpt>
      <trkpt lat="45.39516" lon="5.63998">
        <ele>672</ele>
        <time>2011-01-23T09:22:16Z</time>
      </trkpt>
      <trkpt lat="45.39525" lon="5.63998">
        <ele>674</ele>
        <time>2011-01-23T09:22:30Z</time>
      </trkpt>
      <trkpt lat="45.39526" lon="5.63998">
        <ele>675</ele>
        <time>2011-01-23T09:22:43Z</time>
      </trkpt>
      <trkpt lat="45.39534" lon="5.63996">
        <ele>678</ele>
        <time>2011-01-23T09:23:05Z</time>
      </trkpt>
      <trkpt lat="45.39547" lon="5.63997">
        <ele>680</ele>
        <time>2011-01-23T09:23:16Z</time>
      </trkpt>
      <trkpt lat="45.39555" lon="5.63997">
        <ele>682</ele>
        <time>2011-01-23T09:23:28Z</time>
      </trkpt>
      <trkpt lat="45.39562" lon="5.63999">
        <ele>684</ele>
        <time>2011-01-23T09:23:45Z</time>
      </trkpt>
      <trkpt lat="45.39573" lon="5.64001">
        <ele>686</ele>
        <time>2011-01-23T09:24:16Z</time>
      </trkpt>
      <trkpt lat="45.39584" lon="5.64005">
        <ele>688</ele>
        <time>2011-01-23T09:24:31Z</time>
      </trkpt>
      <trkpt lat="45.39587" lon="5.63997">
        <ele>689</ele>
        <time>2011-01-23T09:24:41Z</time>
      </trkpt>
      <trkpt lat="45.39583" lon="5.63995">
        <ele>690</ele>
        <time>2011-01-23T09:24:51Z</time>
      </trkpt>
      <trkpt lat="45.39579" lon="5.63994">
        <ele>692</ele>
        <time>2011-01-23T09:25:02Z</time>
      </trkpt>
      <trkpt lat="45.39571" lon="5.63989">
        <ele>694</ele>
        <time>2011-01-23T09:25:15Z</time>
      </trkpt>
      <trkpt lat="45.39565" lon="5.63984">
        <ele>695</ele>
        <time>2011-01-23T09:25:25Z</time>
      </trkpt>
      <trkpt lat="45.39559" lon="5.63973">
        <ele>698</ele>
        <time>2011-01-23T09:25:55Z</time>
      </trkpt>
      <trkpt lat="45.39555" lon="5.63966">
        <ele>700</ele>
        <time>2011-01-23T09:26:10Z</time>
      </trkpt>
      <trkpt lat="45.3955" lon="5.6396">
        <ele>701</ele>
        <time>2011-01-23T09:26:50Z</time>
      </trkpt>
      <trkpt lat="45.39543" lon="5.6395">
        <ele>704</ele>
        <time>2011-01-23T09:27:06Z</time>
      </trkpt>
      <trkpt lat="45.3954" lon="5.63935">
        <ele>707</ele>
        <time>2011-01-23T09:27:23Z</time>
      </trkpt>
      <trkpt lat="45.39536" lon="5.63927">
        <ele>708</ele>
        <time>2011-01-23T09:27:33Z</time>
      </trkpt>
      <trkpt lat="45.39534" lon="5.63919">
        <ele>709</ele>
        <time>2011-01-23T09:27:57Z</time>
      </trkpt>
      <trkpt lat="45.39536" lon="5.63905">
        <ele>710</ele>
        <time>2011-01-23T09:28:10Z</time>
      </trkpt>
      <trkpt lat="45.39533" lon="5.63891">
        <ele>711</ele>
        <time>2011-01-23T09:28:24Z</time>
      </trkpt>
      <trkpt lat="45.39532" lon="5.6388">
        <ele>712</ele>
        <time>2011-01-23T09:28:32Z</time>
      </trkpt>
      <trkpt lat="45.39527" lon="5.63861">
        <ele>713</ele>
        <time>2011-01-23T09:28:42Z</time>
      </trkpt>
      <trkpt lat="45.39524" lon="5.63846">
        <ele>715</ele>
        <time>2011-01-23T09:28:48Z</time>
      </trkpt>
      <trkpt lat="45.39521" lon="5.63831">
        <ele>716</ele>
        <time>2011-01-23T09:28:55Z</time>
      </trkpt>
      <trkpt lat="45.39516" lon="5.6382">
        <ele>717</ele>
        <time>2011-01-23T09:29:03Z</time>
      </trkpt>
      <trkpt lat="45.3951" lon="5.63812">
        <ele>718</ele>
        <time>2011-01-23T09:29:10Z</time>
      </trkpt>
      <trkpt lat="45.39499" lon="5.63798">
        <ele>719</ele>
        <time>2011-01-23T09:29:18Z</time>
      </trkpt>
      <trkpt lat="45.39493" lon="5.63792">
        <ele>720</ele>
        <time>2011-01-23T09:29:24Z</time>
      </trkpt>
      <trkpt lat="45.39491" lon="5.63789">
        <ele>720</ele>
        <time>2011-01-23T09:29:36Z</time>
      </trkpt>
      <trkpt lat="45.39488" lon="5.63783">
        <ele>720</ele>
        <time>2011-01-23T09:29:59Z</time>
      </trkpt>
      <trkpt lat="45.39481" lon="5.63773">
        <ele>721</ele>
        <time>2011-01-23T09:30:09Z</time>
      </trkpt>
      <trkpt lat="45.39481" lon="5.63771">
        <ele>721</ele>
        <time>2011-01-23T09:30:11Z</time>
      </trkpt>
      <trkpt lat="45.39477" lon="5.63755">
        <ele>722</ele>
        <time>2011-01-23T09:30:19Z</time>
      </trkpt>
      <trkpt lat="45.39474" lon="5.63741">
        <ele>723</ele>
        <time>2011-01-23T09:30:26Z</time>
      </trkpt>
      <trkpt lat="45.3947" lon="5.63731">
        <ele>724</ele>
        <time>2011-01-23T09:30:33Z</time>
      </trkpt>
      <trkpt lat="45.39465" lon="5.6372">
        <ele>725</ele>
        <time>2011-01-23T09:30:40Z</time>
      </trkpt>
      <trkpt lat="45.39454" lon="5.63708">
        <ele>727</ele>
        <time>2011-01-23T09:30:49Z</time>
      </trkpt>
      <trkpt lat="45.39446" lon="5.63699">
        <ele>728</ele>
        <time>2011-01-23T09:30:56Z</time>
      </trkpt>
      <trkpt lat="45.39444" lon="5.6369">
        <ele>729</ele>
        <time>2011-01-23T09:31:02Z</time>
      </trkpt>
      <trkpt lat="45.39435" lon="5.63676">
        <ele>730</ele>
        <time>2011-01-23T09:31:10Z</time>
      </trkpt>
      <trkpt lat="45.39431" lon="5.63667">
        <ele>731</ele>
        <time>2011-01-23T09:31:16Z</time>
      </trkpt>
      <trkpt lat="45.39425" lon="5.63653">
        <ele>732</ele>
        <time>2011-01-23T09:31:28Z</time>
      </trkpt>
      <trkpt lat="45.39422" lon="5.6365">
        <ele>733</ele>
        <time>2011-01-23T09:31:31Z</time>
      </trkpt>
      <trkpt lat="45.39416" lon="5.63634">
        <ele>735</ele>
        <time>2011-01-23T09:31:39Z</time>
      </trkpt>
      <trkpt lat="45.39409" lon="5.63624">
        <ele>736</ele>
        <time>2011-01-23T09:31:48Z</time>
      </trkpt>
      <trkpt lat="45.39407" lon="5.63616">
        <ele>736</ele>
        <time>2011-01-23T09:32:00Z</time>
      </trkpt>
      <trkpt lat="45.39404" lon="5.63605">
        <ele>738</ele>
        <time>2011-01-23T09:32:11Z</time>
      </trkpt>
      <trkpt lat="45.39398" lon="5.63596">
        <ele>738</ele>
        <time>2011-01-23T09:32:20Z</time>
      </trkpt>
      <trkpt lat="45.39398" lon="5.63591">
        <ele>739</ele>
        <time>2011-01-23T09:32:28Z</time>
      </trkpt>
      <trkpt lat="45.39398" lon="5.63588">
        <ele>739</ele>
        <time>2011-01-23T09:32:46Z</time>
      </trkpt>
      <trkpt lat="45.39393" lon="5.63576">
        <ele>740</ele>
        <time>2011-01-23T09:32:59Z</time>
      </trkpt>
      <trkpt lat="45.39387" lon="5.63564">
        <ele>742</ele>
        <time>2011-01-23T09:33:11Z</time>
      </trkpt>
      <trkpt lat="45.39382" lon="5.63546">
        <ele>743</ele>
        <time>2011-01-23T09:33:24Z</time>
      </trkpt>
      <trkpt lat="45.39374" lon="5.63532">
        <ele>744</ele>
        <time>2011-01-23T09:33:34Z</time>
      </trkpt>
      <trkpt lat="45.39366" lon="5.63525">
        <ele>746</ele>
        <time>2011-01-23T09:33:44Z</time>
      </trkpt>
      <trkpt lat="45.39362" lon="5.63513">
        <ele>747</ele>
        <time>2011-01-23T09:33:55Z</time>
      </trkpt>
      <trkpt lat="45.39355" lon="5.63503">
        <ele>748</ele>
        <time>2011-01-23T09:34:06Z</time>
      </trkpt>
      <trkpt lat="45.39351" lon="5.63496">
        <ele>749</ele>
        <time>2011-01-23T09:34:15Z</time>
      </trkpt>
      <trkpt lat="45.39341" lon="5.63483">
        <ele>750</ele>
        <time>2011-01-23T09:34:27Z</time>
      </trkpt>
      <trkpt lat="45.39333" lon="5.63471">
        <ele>752</ele>
        <time>2011-01-23T09:34:39Z</time>
      </trkpt>
      <trkpt lat="45.39327" lon="5.63459">
        <ele>754</ele>
        <time>2011-01-23T09:34:51Z</time>
      </trkpt>
      <trkpt lat="45.39323" lon="5.63439">
        <ele>755</ele>
        <time>2011-01-23T09:35:02Z</time>
      </trkpt>
      <trkpt lat="45.39319" lon="5.63426">
        <ele>756</ele>
        <time>2011-01-23T09:35:14Z</time>
      </trkpt>
      <trkpt lat="45.39318" lon="5.63412">
        <ele>758</ele>
        <time>2011-01-23T09:35:26Z</time>
      </trkpt>
      <trkpt lat="45.39317" lon="5.634">
        <ele>759</ele>
        <time>2011-01-23T09:35:36Z</time>
      </trkpt>
      <trkpt lat="45.39317" lon="5.6339">
        <ele>760</ele>
        <time>2011-01-23T09:35:43Z</time>
      </trkpt>
      <trkpt lat="45.39317" lon="5.63387">
        <ele>760</ele>
        <time>2011-01-23T09:35:45Z</time>
      </trkpt>
      <trkpt lat="45.39317" lon="5.63374">
        <ele>762</ele>
        <time>2011-01-23T09:35:55Z</time>
      </trkpt>
      <trkpt lat="45.39318" lon="5.63367">
        <ele>763</ele>
        <time>2011-01-23T09:36:04Z</time>
      </trkpt>
      <trkpt lat="45.39322" lon="5.63354">
        <ele>764</ele>
        <time>2011-01-23T09:36:22Z</time>
      </trkpt>
      <trkpt lat="45.39325" lon="5.63343">
        <ele>765</ele>
        <time>2011-01-23T09:36:33Z</time>
      </trkpt>
      <trkpt lat="45.39325" lon="5.63342">
        <ele>764</ele>
        <time>2011-01-23T09:36:49Z</time>
      </trkpt>
      <trkpt lat="45.39325" lon="5.63344">
        <ele>764</ele>
        <time>2011-01-23T09:41:33Z</time>
      </trkpt>
      <trkpt lat="45.39334" lon="5.63334">
        <ele>765</ele>
        <time>2011-01-23T09:41:43Z</time>
      </trkpt>
      <trkpt lat="45.39345" lon="5.6333">
        <ele>766</ele>
        <time>2011-01-23T09:41:52Z</time>
      </trkpt>
      <trkpt lat="45.3936" lon="5.63327">
        <ele>769</ele>
        <time>2011-01-23T09:42:02Z</time>
      </trkpt>
      <trkpt lat="45.39364" lon="5.63326">
        <ele>770</ele>
        <time>2011-01-23T09:42:05Z</time>
      </trkpt>
      <trkpt lat="45.39373" lon="5.63327">
        <ele>771</ele>
        <time>2011-01-23T09:42:12Z</time>
      </trkpt>
      <trkpt lat="45.39386" lon="5.63327">
        <ele>772</ele>
        <time>2011-01-23T09:42:21Z</time>
      </trkpt>
      <trkpt lat="45.39387" lon="5.63327">
        <ele>772</ele>
        <time>2011-01-23T09:42:22Z</time>
      </trkpt>
      <trkpt lat="45.39386" lon="5.63329">
        <ele>769</ele>
        <time>2011-01-23T09:52:31Z</time>
      </trkpt>
      <trkpt lat="45.39388" lon="5.63341">
        <ele>770</ele>
        <time>2011-01-23T09:52:38Z</time>
      </trkpt>
      <trkpt lat="45.39401" lon="5.63354">
        <ele>773</ele>
        <time>2011-01-23T09:52:47Z</time>
      </trkpt>
      <trkpt lat="45.39408" lon="5.63369">
        <ele>774</ele>
        <time>2011-01-23T09:53:30Z</time>
      </trkpt>
      <trkpt lat="45.39413" lon="5.63378">
        <ele>775</ele>
        <time>2011-01-23T09:53:34Z</time>
      </trkpt>
      <trkpt lat="45.3942" lon="5.63394">
        <ele>777</ele>
        <time>2011-01-23T09:53:43Z</time>
      </trkpt>
      <trkpt lat="45.3942" lon="5.63396">
        <ele>777</ele>
        <time>2011-01-23T09:53:44Z</time>
      </trkpt>
      <trkpt lat="45.39422" lon="5.63399">
        <ele>777</ele>
        <time>2011-01-23T09:53:46Z</time>
      </trkpt>
      <trkpt lat="45.39426" lon="5.63412">
        <ele>778</ele>
        <time>2011-01-23T09:53:54Z</time>
      </trkpt>
      <trkpt lat="45.39428" lon="5.63419">
        <ele>778</ele>
        <time>2011-01-23T09:53:58Z</time>
      </trkpt>
      <trkpt lat="45.39433" lon="5.63425">
        <ele>779</ele>
        <time>2011-01-23T09:54:05Z</time>
      </trkpt>
      <trkpt lat="45.3944" lon="5.63427">
        <ele>781</ele>
        <time>2011-01-23T09:54:12Z</time>
      </trkpt>
      <trkpt lat="45.39444" lon="5.63423">
        <ele>782</ele>
        <time>2011-01-23T09:54:21Z</time>
      </trkpt>
      <trkpt lat="45.39444" lon="5.63423">
        <ele>782</ele>
        <time>2011-01-23T09:54:36Z</time>
      </trkpt>
      <trkpt lat="45.39451" lon="5.63425">
        <ele>783</ele>
        <time>2011-01-23T09:54:42Z</time>
      </trkpt>
      <trkpt lat="45.3946" lon="5.63431">
        <ele>784</ele>
        <time>2011-01-23T09:54:50Z</time>
      </trkpt>
      <trkpt lat="45.39468" lon="5.63439">
        <ele>786</ele>
        <time>2011-01-23T09:54:58Z</time>
      </trkpt>
      <trkpt lat="45.39472" lon="5.63444">
        <ele>788</ele>
        <time>2011-01-23T09:55:02Z</time>
      </trkpt>
      <trkpt lat="45.39483" lon="5.63456">
        <ele>789</ele>
        <time>2011-01-23T09:55:10Z</time>
      </trkpt>
      <trkpt lat="45.39493" lon="5.63466">
        <ele>790</ele>
        <time>2011-01-23T09:55:19Z</time>
      </trkpt>
      <trkpt lat="45.39499" lon="5.63476">
        <ele>791</ele>
        <time>2011-01-23T09:55:29Z</time>
      </trkpt>
      <trkpt lat="45.39499" lon="5.63476">
        <ele>791</ele>
        <time>2011-01-23T09:55:30Z</time>
      </trkpt>
      <trkpt lat="45.39517" lon="5.63492">
        <ele>794</ele>
        <time>2011-01-23T09:55:50Z</time>
      </trkpt>
      <trkpt lat="45.39518" lon="5.63492">
        <ele>794</ele>
        <time>2011-01-23T09:55:51Z</time>
      </trkpt>
      <trkpt lat="45.39533" lon="5.63506">
        <ele>795</ele>
        <time>2011-01-23T09:56:05Z</time>
      </trkpt>
      <trkpt lat="45.3954" lon="5.63517">
        <ele>795</ele>
        <time>2011-01-23T09:56:14Z</time>
      </trkpt>
      <trkpt lat="45.39542" lon="5.63519">
        <ele>795</ele>
        <time>2011-01-23T09:56:16Z</time>
      </trkpt>
      <trkpt lat="45.39558" lon="5.63534">
        <ele>797</ele>
        <time>2011-01-23T09:56:34Z</time>
      </trkpt>
      <trkpt lat="45.39562" lon="5.63537">
        <ele>798</ele>
        <time>2011-01-23T09:56:39Z</time>
      </trkpt>
      <trkpt lat="45.39576" lon="5.63549">
        <ele>801</ele>
        <time>2011-01-23T09:57:22Z</time>
      </trkpt>
      <trkpt lat="45.39587" lon="5.63551">
        <ele>803</ele>
        <time>2011-01-23T09:57:48Z</time>
      </trkpt>
      <trkpt lat="45.39617" lon="5.6356">
        <ele>805</ele>
        <time>2011-01-23T09:59:35Z</time>
      </trkpt>
      <trkpt lat="45.39623" lon="5.63569">
        <ele>806</ele>
        <time>2011-01-23T09:59:58Z</time>
      </trkpt>
      <trkpt lat="45.39628" lon="5.63574">
        <ele>806</ele>
        <time>2011-01-23T10:00:02Z</time>
      </trkpt>
      <trkpt lat="45.39633" lon="5.63579">
        <ele>805</ele>
        <time>2011-01-23T10:00:07Z</time>
      </trkpt>
      <trkpt lat="45.3965" lon="5.63598">
        <ele>805</ele>
        <time>2011-01-23T10:00:16Z</time>
      </trkpt>
      <trkpt lat="45.39668" lon="5.63618">
        <ele>806</ele>
        <time>2011-01-23T10:00:24Z</time>
      </trkpt>
      <trkpt lat="45.39683" lon="5.63641">
        <ele>806</ele>
        <time>2011-01-23T10:00:33Z</time>
      </trkpt>
      <trkpt lat="45.39693" lon="5.6366">
        <ele>805</ele>
        <time>2011-01-23T10:00:40Z</time>
      </trkpt>
      <trkpt lat="45.397" lon="5.63677">
        <ele>805</ele>
        <time>2011-01-23T10:00:46Z</time>
      </trkpt>
      <trkpt lat="45.39712" lon="5.63694">
        <ele>803</ele>
        <time>2011-01-23T10:00:52Z</time>
      </trkpt>
      <trkpt lat="45.39727" lon="5.6372">
        <ele>802</ele>
        <time>2011-01-23T10:00:59Z</time>
      </trkpt>
      <trkpt lat="45.39737" lon="5.63739">
        <ele>802</ele>
        <time>2011-01-23T10:01:05Z</time>
      </trkpt>
      <trkpt lat="45.39744" lon="5.63755">
        <ele>798</ele>
        <time>2011-01-23T10:01:08Z</time>
      </trkpt>
      <trkpt lat="45.39751" lon="5.63766">
        <ele>797</ele>
        <time>2011-01-23T10:01:10Z</time>
      </trkpt>
      <trkpt lat="45.39755" lon="5.63771">
        <ele>796</ele>
        <time>2011-01-23T10:01:11Z</time>
      </trkpt>
      <trkpt lat="45.39763" lon="5.63786">
        <ele>794</ele>
        <time>2011-01-23T10:01:14Z</time>
      </trkpt>
      <trkpt lat="45.39773" lon="5.63801">
        <ele>792</ele>
        <time>2011-01-23T10:01:19Z</time>
      </trkpt>
      <trkpt lat="45.39773" lon="5.63801">
        <ele>792</ele>
        <time>2011-01-23T10:01:24Z</time>
      </trkpt>
      <trkpt lat="45.39773" lon="5.638">
        <ele>792</ele>
        <time>2011-01-23T10:01:53Z</time>
      </trkpt>
      <trkpt lat="45.39781" lon="5.63808">
        <ele>790</ele>
        <time>2011-01-23T10:01:57Z</time>
      </trkpt>
      <trkpt lat="45.39808" lon="5.63831">
        <ele>786</ele>
        <time>2011-01-23T10:02:04Z</time>
      </trkpt>
      <trkpt lat="45.39842" lon="5.63854">
        <ele>785</ele>
        <time>2011-01-23T10:02:13Z</time>
      </trkpt>
      <trkpt lat="45.39851" lon="5.63861">
        <ele>784</ele>
        <time>2011-01-23T10:02:15Z</time>
      </trkpt>
      <trkpt lat="45.3987" lon="5.63871">
        <ele>783</ele>
        <time>2011-01-23T10:02:20Z</time>
      </trkpt>
      <trkpt lat="45.39886" lon="5.6388">
        <ele>782</ele>
        <time>2011-01-23T10:02:26Z</time>
      </trkpt>
      <trkpt lat="45.39902" lon="5.63884">
        <ele>782</ele>
        <time>2011-01-23T10:02:34Z</time>
      </trkpt>
      <trkpt lat="45.3991" lon="5.63885">
        <ele>782</ele>
        <time>2011-01-23T10:02:40Z</time>
      </trkpt>
      <trkpt lat="45.39921" lon="5.63889">
        <ele>780</ele>
        <time>2011-01-23T10:02:58Z</time>
      </trkpt>
      <trkpt lat="45.39939" lon="5.63898">
        <ele>782</ele>
        <time>2011-01-23T10:03:04Z</time>
      </trkpt>
      <trkpt lat="45.3995" lon="5.6391">
        <ele>782</ele>
        <time>2011-01-23T10:03:10Z</time>
      </trkpt>
      <trkpt lat="45.39965" lon="5.63933">
        <ele>780</ele>
        <time>2011-01-23T10:03:16Z</time>
      </trkpt>
      <trkpt lat="45.3998" lon="5.63962">
        <ele>779</ele>
        <time>2011-01-23T10:03:22Z</time>
      </trkpt>
      <trkpt lat="45.39985" lon="5.63981">
        <ele>780</ele>
        <time>2011-01-23T10:04:51Z</time>
      </trkpt>
      <trkpt lat="45.39987" lon="5.64004">
        <ele>777</ele>
        <time>2011-01-23T10:04:57Z</time>
      </trkpt>
      <trkpt lat="45.39997" lon="5.64028">
        <ele>776</ele>
        <time>2011-01-23T10:05:04Z</time>
      </trkpt>
      <trkpt lat="45.40003" lon="5.64035">
        <ele>774</ele>
        <time>2011-01-23T10:05:07Z</time>
      </trkpt>
      <trkpt lat="45.40014" lon="5.64046">
        <ele>774</ele>
        <time>2011-01-23T10:05:15Z</time>
      </trkpt>
      <trkpt lat="45.40033" lon="5.64064">
        <ele>776</ele>
        <time>2011-01-23T10:05:32Z</time>
      </trkpt>
      <trkpt lat="45.40042" lon="5.64076">
        <ele>776</ele>
        <time>2011-01-23T10:05:40Z</time>
      </trkpt>
      <trkpt lat="45.40046" lon="5.6409">
        <ele>774</ele>
        <time>2011-01-23T10:06:25Z</time>
      </trkpt>
      <trkpt lat="45.40048" lon="5.64094">
        <ele>774</ele>
        <time>2011-01-23T10:06:31Z</time>
      </trkpt>
      <trkpt lat="45.40059" lon="5.64098">
        <ele>774</ele>
        <time>2011-01-23T10:06:47Z</time>
      </trkpt>
      <trkpt lat="45.40074" lon="5.64101">
        <ele>774</ele>
        <time>2011-01-23T10:06:57Z</time>
      </trkpt>
      <trkpt lat="45.40076" lon="5.64102">
        <ele>775</ele>
        <time>2011-01-23T10:06:59Z</time>
      </trkpt>
      <trkpt lat="45.4009" lon="5.64107">
        <ele>776</ele>
        <time>2011-01-23T10:07:07Z</time>
      </trkpt>
      <trkpt lat="45.40093" lon="5.64108">
        <ele>776</ele>
        <time>2011-01-23T10:07:09Z</time>
      </trkpt>
      <trkpt lat="45.40108" lon="5.64114">
        <ele>777</ele>
        <time>2011-01-23T10:07:18Z</time>
      </trkpt>
      <trkpt lat="45.40119" lon="5.6413">
        <ele>777</ele>
        <time>2011-01-23T10:07:27Z</time>
      </trkpt>
      <trkpt lat="45.40128" lon="5.64148">
        <ele>778</ele>
        <time>2011-01-23T10:07:35Z</time>
      </trkpt>
      <trkpt lat="45.40144" lon="5.64177">
        <ele>779</ele>
        <time>2011-01-23T10:07:50Z</time>
      </trkpt>
      <trkpt lat="45.40156" lon="5.64199">
        <ele>780</ele>
        <time>2011-01-23T10:08:03Z</time>
      </trkpt>
      <trkpt lat="45.40159" lon="5.64204">
        <ele>781</ele>
        <time>2011-01-23T10:08:06Z</time>
      </trkpt>
      <trkpt lat="45.40163" lon="5.64214">
        <ele>780</ele>
        <time>2011-01-23T10:08:12Z</time>
      </trkpt>
      <trkpt lat="45.40167" lon="5.64222">
        <ele>781</ele>
        <time>2011-01-23T10:08:18Z</time>
      </trkpt>
      <trkpt lat="45.40169" lon="5.64238">
        <ele>781</ele>
        <time>2011-01-23T10:08:26Z</time>
      </trkpt>
      <trkpt lat="45.40171" lon="5.64248">
        <ele>782</ele>
        <time>2011-01-23T10:08:30Z</time>
      </trkpt>
      <trkpt lat="45.40183" lon="5.64279">
        <ele>783</ele>
        <time>2011-01-23T10:08:45Z</time>
      </trkpt>
      <trkpt lat="45.40194" lon="5.64292">
        <ele>784</ele>
        <time>2011-01-23T10:08:54Z</time>
      </trkpt>
      <trkpt lat="45.40208" lon="5.64304">
        <ele>784</ele>
        <time>2011-01-23T10:09:03Z</time>
      </trkpt>
      <trkpt lat="45.40226" lon="5.64315">
        <ele>785</ele>
        <time>2011-01-23T10:09:13Z</time>
      </trkpt>
      <trkpt lat="45.40243" lon="5.64315">
        <ele>786</ele>
        <time>2011-01-23T10:09:22Z</time>
      </trkpt>
      <trkpt lat="45.40256" lon="5.64312">
        <ele>785</ele>
        <time>2011-01-23T10:09:28Z</time>
      </trkpt>
      <trkpt lat="45.40271" lon="5.64305">
        <ele>784</ele>
        <time>2011-01-23T10:09:35Z</time>
      </trkpt>
      <trkpt lat="45.40286" lon="5.6429">
        <ele>783</ele>
        <time>2011-01-23T10:09:42Z</time>
      </trkpt>
      <trkpt lat="45.40305" lon="5.64274">
        <ele>781</ele>
        <time>2011-01-23T10:09:48Z</time>
      </trkpt>
      <trkpt lat="45.4033" lon="5.64255">
        <ele>780</ele>
        <time>2011-01-23T10:09:55Z</time>
      </trkpt>
      <trkpt lat="45.40356" lon="5.64238">
        <ele>779</ele>
        <time>2011-01-23T10:10:04Z</time>
      </trkpt>
      <trkpt lat="45.40374" lon="5.64225">
        <ele>777</ele>
        <time>2011-01-23T10:10:12Z</time>
      </trkpt>
      <trkpt lat="45.4039" lon="5.64216">
        <ele>776</ele>
        <time>2011-01-23T10:10:19Z</time>
      </trkpt>
      <trkpt lat="45.404" lon="5.64216">
        <ele>774</ele>
        <time>2011-01-23T10:10:24Z</time>
      </trkpt>
      <trkpt lat="45.40419" lon="5.64218">
        <ele>771</ele>
        <time>2011-01-23T10:10:31Z</time>
      </trkpt>
      <trkpt lat="45.40442" lon="5.64219">
        <ele>768</ele>
        <time>2011-01-23T10:10:37Z</time>
      </trkpt>
      <trkpt lat="45.40446" lon="5.64217">
        <ele>767</ele>
        <time>2011-01-23T10:10:38Z</time>
      </trkpt>
      <trkpt lat="45.40457" lon="5.64211">
        <ele>766</ele>
        <time>2011-01-23T10:10:40Z</time>
      </trkpt>
      <trkpt lat="45.40469" lon="5.64205">
        <ele>765</ele>
        <time>2011-01-23T10:10:42Z</time>
      </trkpt>
      <trkpt lat="45.40509" lon="5.64194">
        <ele>763</ele>
        <time>2011-01-23T10:10:49Z</time>
      </trkpt>
      <trkpt lat="45.40527" lon="5.64184">
        <ele>761</ele>
        <time>2011-01-23T10:10:54Z</time>
      </trkpt>
      <trkpt lat="45.40562" lon="5.64168">
        <ele>754</ele>
        <time>2011-01-23T10:11:06Z</time>
      </trkpt>
      <trkpt lat="45.40567" lon="5.6417">
        <ele>754</ele>
        <time>2011-01-23T10:11:10Z</time>
      </trkpt>
      <trkpt lat="45.40576" lon="5.64173">
        <ele>756</ele>
        <time>2011-01-23T10:12:28Z</time>
      </trkpt>
      <trkpt lat="45.40581" lon="5.64176">
        <ele>757</ele>
        <time>2011-01-23T10:12:34Z</time>
      </trkpt>
      <trkpt lat="45.40601" lon="5.64177">
        <ele>760</ele>
        <time>2011-01-23T10:12:53Z</time>
      </trkpt>
      <trkpt lat="45.40603" lon="5.64178">
        <ele>760</ele>
        <time>2011-01-23T10:12:56Z</time>
      </trkpt>
      <trkpt lat="45.40612" lon="5.6418">
        <ele>760</ele>
        <time>2011-01-23T10:13:01Z</time>
      </trkpt>
      <trkpt lat="45.40627" lon="5.64184">
        <ele>760</ele>
        <time>2011-01-23T10:13:09Z</time>
      </trkpt>
      <trkpt lat="45.40645" lon="5.6419">
        <ele>761</ele>
        <time>2011-01-23T10:13:16Z</time>
      </trkpt>
      <trkpt lat="45.40658" lon="5.64198">
        <ele>762</ele>
        <time>2011-01-23T10:13:22Z</time>
      </trkpt>
      <trkpt lat="45.40669" lon="5.64207">
        <ele>763</ele>
        <time>2011-01-23T10:13:29Z</time>
      </trkpt>
      <trkpt lat="45.40685" lon="5.64217">
        <ele>765</ele>
        <time>2011-01-23T10:13:36Z</time>
      </trkpt>
      <trkpt lat="45.40703" lon="5.64232">
        <ele>766</ele>
        <time>2011-01-23T10:13:43Z</time>
      </trkpt>
      <trkpt lat="45.40718" lon="5.64241">
        <ele>768</ele>
        <time>2011-01-23T10:13:49Z</time>
      </trkpt>
      <trkpt lat="45.40733" lon="5.64249">
        <ele>770</ele>
        <time>2011-01-23T10:13:56Z</time>
      </trkpt>
      <trkpt lat="45.40749" lon="5.64261">
        <ele>773</ele>
        <time>2011-01-23T10:14:04Z</time>
      </trkpt>
      <trkpt lat="45.40764" lon="5.6427">
        <ele>774</ele>
        <time>2011-01-23T10:14:11Z</time>
      </trkpt>
      <trkpt lat="45.40774" lon="5.64276">
        <ele>774</ele>
        <time>2011-01-23T10:14:17Z</time>
      </trkpt>
      <trkpt lat="45.40787" lon="5.64292">
        <ele>775</ele>
        <time>2011-01-23T10:14:24Z</time>
      </trkpt>
      <trkpt lat="45.408" lon="5.64308">
        <ele>777</ele>
        <time>2011-01-23T10:14:32Z</time>
      </trkpt>
      <trkpt lat="45.40813" lon="5.64319">
        <ele>779</ele>
        <time>2011-01-23T10:14:39Z</time>
      </trkpt>
      <trkpt lat="45.40827" lon="5.64335">
        <ele>780</ele>
        <time>2011-01-23T10:14:47Z</time>
      </trkpt>
      <trkpt lat="45.40839" lon="5.64351">
        <ele>781</ele>
        <time>2011-01-23T10:14:55Z</time>
      </trkpt>
      <trkpt lat="45.40845" lon="5.64367">
        <ele>784</ele>
        <time>2011-01-23T10:15:04Z</time>
      </trkpt>
      <trkpt lat="45.40849" lon="5.64385">
        <ele>785</ele>
        <time>2011-01-23T10:15:11Z</time>
      </trkpt>
      <trkpt lat="45.4085" lon="5.64405">
        <ele>786</ele>
        <time>2011-01-23T10:15:20Z</time>
      </trkpt>
      <trkpt lat="45.4085" lon="5.64422">
        <ele>788</ele>
        <time>2011-01-23T10:15:27Z</time>
      </trkpt>
      <trkpt lat="45.40852" lon="5.64445">
        <ele>789</ele>
        <time>2011-01-23T10:15:36Z</time>
      </trkpt>
      <trkpt lat="45.40861" lon="5.64475">
        <ele>790</ele>
        <time>2011-01-23T10:15:50Z</time>
      </trkpt>
      <trkpt lat="45.40867" lon="5.64495">
        <ele>790</ele>
        <time>2011-01-23T10:15:57Z</time>
      </trkpt>
      <trkpt lat="45.40878" lon="5.64534">
        <ele>788</ele>
        <time>2011-01-23T10:16:06Z</time>
      </trkpt>
      <trkpt lat="45.4089" lon="5.64576">
        <ele>788</ele>
        <time>2011-01-23T10:16:15Z</time>
      </trkpt>
      <trkpt lat="45.40897" lon="5.64607">
        <ele>789</ele>
        <time>2011-01-23T10:16:22Z</time>
      </trkpt>
      <trkpt lat="45.40898" lon="5.64616">
        <ele>790</ele>
        <time>2011-01-23T10:16:24Z</time>
      </trkpt>
      <trkpt lat="45.40915" lon="5.64659">
        <ele>792</ele>
        <time>2011-01-23T10:16:37Z</time>
      </trkpt>
      <trkpt lat="45.40928" lon="5.64678">
        <ele>793</ele>
        <time>2011-01-23T10:16:45Z</time>
      </trkpt>
      <trkpt lat="45.40943" lon="5.64691">
        <ele>794</ele>
        <time>2011-01-23T10:16:53Z</time>
      </trkpt>
      <trkpt lat="45.4096" lon="5.64705">
        <ele>795</ele>
        <time>2011-01-23T10:17:01Z</time>
      </trkpt>
      <trkpt lat="45.40973" lon="5.64717">
        <ele>795</ele>
        <time>2011-01-23T10:17:08Z</time>
      </trkpt>
      <trkpt lat="45.40989" lon="5.6474">
        <ele>796</ele>
        <time>2011-01-23T10:17:17Z</time>
      </trkpt>
      <trkpt lat="45.41002" lon="5.64758">
        <ele>797</ele>
        <time>2011-01-23T10:17:25Z</time>
      </trkpt>
      <trkpt lat="45.41018" lon="5.64776">
        <ele>797</ele>
        <time>2011-01-23T10:17:33Z</time>
      </trkpt>
      <trkpt lat="45.41033" lon="5.64791">
        <ele>798</ele>
        <time>2011-01-23T10:17:41Z</time>
      </trkpt>
      <trkpt lat="45.41054" lon="5.64807">
        <ele>800</ele>
        <time>2011-01-23T10:18:18Z</time>
      </trkpt>
      <trkpt lat="45.4107" lon="5.64806">
        <ele>798</ele>
        <time>2011-01-23T10:18:24Z</time>
      </trkpt>
      <trkpt lat="45.41099" lon="5.64801">
        <ele>797</ele>
        <time>2011-01-23T10:18:32Z</time>
      </trkpt>
      <trkpt lat="45.41118" lon="5.64797">
        <ele>796</ele>
        <time>2011-01-23T10:18:39Z</time>
      </trkpt>
      <trkpt lat="45.41138" lon="5.64788">
        <ele>798</ele>
        <time>2011-01-23T10:18:46Z</time>
      </trkpt>
      <trkpt lat="45.41142" lon="5.6477">
        <ele>800</ele>
        <time>2011-01-23T10:18:52Z</time>
      </trkpt>
      <trkpt lat="45.41152" lon="5.6474">
        <ele>801</ele>
        <time>2011-01-23T10:19:04Z</time>
      </trkpt>
      <trkpt lat="45.41157" lon="5.64729">
        <ele>801</ele>
        <time>2011-01-23T10:19:17Z</time>
      </trkpt>
      <trkpt lat="45.41173" lon="5.64721">
        <ele>803</ele>
        <time>2011-01-23T10:20:28Z</time>
      </trkpt>
      <trkpt lat="45.4118" lon="5.64719">
        <ele>803</ele>
        <time>2011-01-23T10:20:35Z</time>
      </trkpt>
      <trkpt lat="45.41201" lon="5.64707">
        <ele>803</ele>
        <time>2011-01-23T10:21:14Z</time>
      </trkpt>
      <trkpt lat="45.41223" lon="5.64698">
        <ele>801</ele>
        <time>2011-01-23T10:21:21Z</time>
      </trkpt>
      <trkpt lat="45.4126" lon="5.64692">
        <ele>800</ele>
        <time>2011-01-23T10:21:29Z</time>
      </trkpt>
      <trkpt lat="45.41293" lon="5.64689">
        <ele>802</ele>
        <time>2011-01-23T10:21:37Z</time>
      </trkpt>
      <trkpt lat="45.41318" lon="5.64696">
        <ele>804</ele>
        <time>2011-01-23T10:21:45Z</time>
      </trkpt>
      <trkpt lat="45.41347" lon="5.64712">
        <ele>806</ele>
        <time>2011-01-23T10:21:57Z</time>
      </trkpt>
      <trkpt lat="45.41365" lon="5.64723">
        <ele>806</ele>
        <time>2011-01-23T10:22:04Z</time>
      </trkpt>
      <trkpt lat="45.41386" lon="5.64732">
        <ele>810</ele>
        <time>2011-01-23T10:22:16Z</time>
      </trkpt>
      <trkpt lat="45.41407" lon="5.64735">
        <ele>812</ele>
        <time>2011-01-23T10:22:29Z</time>
      </trkpt>
      <trkpt lat="45.41412" lon="5.64735">
        <ele>812</ele>
        <time>2011-01-23T10:22:32Z</time>
      </trkpt>
      <trkpt lat="45.4143" lon="5.64739">
        <ele>814</ele>
        <time>2011-01-23T10:22:40Z</time>
      </trkpt>
      <trkpt lat="45.41454" lon="5.64751">
        <ele>815</ele>
        <time>2011-01-23T10:22:51Z</time>
      </trkpt>
      <trkpt lat="45.41476" lon="5.64767">
        <ele>817</ele>
        <time>2011-01-23T10:23:01Z</time>
      </trkpt>
      <trkpt lat="45.41495" lon="5.64784">
        <ele>818</ele>
        <time>2011-01-23T10:23:11Z</time>
      </trkpt>
      <trkpt lat="45.41512" lon="5.64799">
        <ele>820</ele>
        <time>2011-01-23T10:23:20Z</time>
      </trkpt>
      <trkpt lat="45.41532" lon="5.64812">
        <ele>822</ele>
        <time>2011-01-23T10:23:33Z</time>
      </trkpt>
      <trkpt lat="45.41563" lon="5.64833">
        <ele>824</ele>
        <time>2011-01-23T10:23:51Z</time>
      </trkpt>
      <trkpt lat="45.41582" lon="5.64852">
        <ele>824</ele>
        <time>2011-01-23T10:24:00Z</time>
      </trkpt>
      <trkpt lat="45.41601" lon="5.64875">
        <ele>824</ele>
        <time>2011-01-23T10:24:09Z</time>
      </trkpt>
      <trkpt lat="45.41618" lon="5.64895">
        <ele>825</ele>
        <time>2011-01-23T10:24:17Z</time>
      </trkpt>
      <trkpt lat="45.41652" lon="5.64914">
        <ele>827</ele>
        <time>2011-01-23T10:24:34Z</time>
      </trkpt>
      <trkpt lat="45.41669" lon="5.64924">
        <ele>826</ele>
        <time>2011-01-23T10:24:42Z</time>
      </trkpt>
      <trkpt lat="45.41697" lon="5.64943">
        <ele>827</ele>
        <time>2011-01-23T10:24:53Z</time>
      </trkpt>
      <trkpt lat="45.41725" lon="5.64955">
        <ele>828</ele>
        <time>2011-01-23T10:25:03Z</time>
      </trkpt>
      <trkpt lat="45.41746" lon="5.64958">
        <ele>828</ele>
        <time>2011-01-23T10:25:12Z</time>
      </trkpt>
      <trkpt lat="45.41768" lon="5.64958">
        <ele>826</ele>
        <time>2011-01-23T10:25:19Z</time>
      </trkpt>
      <trkpt lat="45.41789" lon="5.64961">
        <ele>823</ele>
        <time>2011-01-23T10:25:25Z</time>
      </trkpt>
      <trkpt lat="45.41793" lon="5.64962">
        <ele>823</ele>
        <time>2011-01-23T10:25:26Z</time>
      </trkpt>
      <trkpt lat="45.4182" lon="5.64965">
        <ele>820</ele>
        <time>2011-01-23T10:25:33Z</time>
      </trkpt>
      <trkpt lat="45.41834" lon="5.64965">
        <ele>819</ele>
        <time>2011-01-23T10:25:39Z</time>
      </trkpt>
      <trkpt lat="45.41847" lon="5.64964">
        <ele>819</ele>
        <time>2011-01-23T10:25:46Z</time>
      </trkpt>
      <trkpt lat="45.41846" lon="5.64964">
        <ele>819</ele>
        <time>2011-01-23T10:26:16Z</time>
      </trkpt>
      <trkpt lat="45.41852" lon="5.64978">
        <ele>819</ele>
        <time>2011-01-23T10:26:21Z</time>
      </trkpt>
      <trkpt lat="45.41862" lon="5.64996">
        <ele>819</ele>
        <time>2011-01-23T10:26:28Z</time>
      </trkpt>
      <trkpt lat="45.41889" lon="5.65038">
        <ele>822</ele>
        <time>2011-01-23T10:26:51Z</time>
      </trkpt>
      <trkpt lat="45.4189" lon="5.65044">
        <ele>822</ele>
        <time>2011-01-23T10:26:55Z</time>
      </trkpt>
      <trkpt lat="45.41897" lon="5.65075">
        <ele>826</ele>
        <time>2011-01-23T10:27:08Z</time>
      </trkpt>
      <trkpt lat="45.419" lon="5.65092">
        <ele>828</ele>
        <time>2011-01-23T10:27:15Z</time>
      </trkpt>
      <trkpt lat="45.41904" lon="5.65108">
        <ele>829</ele>
        <time>2011-01-23T10:27:22Z</time>
      </trkpt>
      <trkpt lat="45.41913" lon="5.65124">
        <ele>832</ele>
        <time>2011-01-23T10:27:29Z</time>
      </trkpt>
      <trkpt lat="45.41922" lon="5.65136">
        <ele>833</ele>
        <time>2011-01-23T10:27:36Z</time>
      </trkpt>
      <trkpt lat="45.41929" lon="5.65143">
        <ele>836</ele>
        <time>2011-01-23T10:27:43Z</time>
      </trkpt>
      <trkpt lat="45.41937" lon="5.65148">
        <ele>837</ele>
        <time>2011-01-23T10:27:50Z</time>
      </trkpt>
      <trkpt lat="45.41966" lon="5.65155">
        <ele>842</ele>
        <time>2011-01-23T10:28:12Z</time>
      </trkpt>
      <trkpt lat="45.41968" lon="5.65155">
        <ele>842</ele>
        <time>2011-01-23T10:28:14Z</time>
      </trkpt>
      <trkpt lat="45.41977" lon="5.65154">
        <ele>843</ele>
        <time>2011-01-23T10:28:22Z</time>
      </trkpt>
      <trkpt lat="45.41999" lon="5.65154">
        <ele>844</ele>
        <time>2011-01-23T10:28:41Z</time>
      </trkpt>
      <trkpt lat="45.42011" lon="5.65155">
        <ele>844</ele>
        <time>2011-01-23T10:28:50Z</time>
      </trkpt>
      <trkpt lat="45.42021" lon="5.6516">
        <ele>845</ele>
        <time>2011-01-23T10:28:56Z</time>
      </trkpt>
      <trkpt lat="45.4204" lon="5.65171">
        <ele>846</ele>
        <time>2011-01-23T10:29:11Z</time>
      </trkpt>
      <trkpt lat="45.4205" lon="5.65184">
        <ele>847</ele>
        <time>2011-01-23T10:29:19Z</time>
      </trkpt>
      <trkpt lat="45.42057" lon="5.65195">
        <ele>848</ele>
        <time>2011-01-23T10:29:26Z</time>
      </trkpt>
      <trkpt lat="45.42059" lon="5.65201">
        <ele>848</ele>
        <time>2011-01-23T10:29:33Z</time>
      </trkpt>
      <trkpt lat="45.4207" lon="5.65223">
        <ele>848</ele>
        <time>2011-01-23T10:32:17Z</time>
      </trkpt>
      <trkpt lat="45.4208" lon="5.65245">
        <ele>850</ele>
        <time>2011-01-23T10:32:25Z</time>
      </trkpt>
      <trkpt lat="45.42086" lon="5.65266">
        <ele>850</ele>
        <time>2011-01-23T10:32:33Z</time>
      </trkpt>
      <trkpt lat="45.42091" lon="5.65291">
        <ele>850</ele>
        <time>2011-01-23T10:32:41Z</time>
      </trkpt>
      <trkpt lat="45.42099" lon="5.65311">
        <ele>851</ele>
        <time>2011-01-23T10:32:48Z</time>
      </trkpt>
      <trkpt lat="45.4211" lon="5.65333">
        <ele>852</ele>
        <time>2011-01-23T10:32:55Z</time>
      </trkpt>
      <trkpt lat="45.42125" lon="5.65347">
        <ele>850</ele>
        <time>2011-01-23T10:33:02Z</time>
      </trkpt>
      <trkpt lat="45.42144" lon="5.65362">
        <ele>847</ele>
        <time>2011-01-23T10:33:07Z</time>
      </trkpt>
      <trkpt lat="45.42171" lon="5.65388">
        <ele>846</ele>
        <time>2011-01-23T10:33:15Z</time>
      </trkpt>
      <trkpt lat="45.42176" lon="5.65399">
        <ele>846</ele>
        <time>2011-01-23T10:33:20Z</time>
      </trkpt>
      <trkpt lat="45.42179" lon="5.65409">
        <ele>847</ele>
        <time>2011-01-23T10:33:27Z</time>
      </trkpt>
      <trkpt lat="45.42182" lon="5.65421">
        <ele>848</ele>
        <time>2011-01-23T10:33:33Z</time>
      </trkpt>
      <trkpt lat="45.42184" lon="5.65441">
        <ele>850</ele>
        <time>2011-01-23T10:33:40Z</time>
      </trkpt>
      <trkpt lat="45.42182" lon="5.65452">
        <ele>852</ele>
        <time>2011-01-23T10:33:44Z</time>
      </trkpt>
      <trkpt lat="45.42174" lon="5.65473">
        <ele>855</ele>
        <time>2011-01-23T10:33:54Z</time>
      </trkpt>
      <trkpt lat="45.42169" lon="5.65489">
        <ele>857</ele>
        <time>2011-01-23T10:34:03Z</time>
      </trkpt>
      <trkpt lat="45.42166" lon="5.65501">
        <ele>858</ele>
        <time>2011-01-23T10:34:11Z</time>
      </trkpt>
      <trkpt lat="45.42166" lon="5.65505">
        <ele>858</ele>
        <time>2011-01-23T10:34:13Z</time>
      </trkpt>
      <trkpt lat="45.42165" lon="5.65522">
        <ele>860</ele>
        <time>2011-01-23T10:34:22Z</time>
      </trkpt>
      <trkpt lat="45.42163" lon="5.65528">
        <ele>860</ele>
        <time>2011-01-23T10:34:26Z</time>
      </trkpt>
      <trkpt lat="45.42163" lon="5.65544">
        <ele>859</ele>
        <time>2011-01-23T10:34:32Z</time>
      </trkpt>
      <trkpt lat="45.42169" lon="5.65563">
        <ele>859</ele>
        <time>2011-01-23T10:34:41Z</time>
      </trkpt>
      <trkpt lat="45.42175" lon="5.65577">
        <ele>859</ele>
        <time>2011-01-23T10:34:48Z</time>
      </trkpt>
      <trkpt lat="45.42185" lon="5.65587">
        <ele>859</ele>
        <time>2011-01-23T10:34:56Z</time>
      </trkpt>
      <trkpt lat="45.42197" lon="5.65602">
        <ele>860</ele>
        <time>2011-01-23T10:35:06Z</time>
      </trkpt>
      <trkpt lat="45.42197" lon="5.65613">
        <ele>860</ele>
        <time>2011-01-23T10:35:13Z</time>
      </trkpt>
      <trkpt lat="45.42194" lon="5.65628">
        <ele>860</ele>
        <time>2011-01-23T10:35:22Z</time>
      </trkpt>
      <trkpt lat="45.42188" lon="5.65653">
        <ele>859</ele>
        <time>2011-01-23T10:35:30Z</time>
      </trkpt>
      <trkpt lat="45.42184" lon="5.65683">
        <ele>858</ele>
        <time>2011-01-23T10:35:38Z</time>
      </trkpt>
      <trkpt lat="45.42188" lon="5.65711">
        <ele>857</ele>
        <time>2011-01-23T10:35:45Z</time>
      </trkpt>
      <trkpt lat="45.42191" lon="5.65741">
        <ele>856</ele>
        <time>2011-01-23T10:35:51Z</time>
      </trkpt>
      <trkpt lat="45.42191" lon="5.65756">
        <ele>856</ele>
        <time>2011-01-23T10:35:56Z</time>
      </trkpt>
      <trkpt lat="45.42192" lon="5.65781">
        <ele>856</ele>
        <time>2011-01-23T10:36:04Z</time>
      </trkpt>
      <trkpt lat="45.42194" lon="5.65807">
        <ele>857</ele>
        <time>2011-01-23T10:36:10Z</time>
      </trkpt>
      <trkpt lat="45.42193" lon="5.6583">
        <ele>858</ele>
        <time>2011-01-23T10:36:17Z</time>
      </trkpt>
      <trkpt lat="45.42193" lon="5.65853">
        <ele>858</ele>
        <time>2011-01-23T10:36:22Z</time>
      </trkpt>
      <trkpt lat="45.42208" lon="5.65882">
        <ele>859</ele>
        <time>2011-01-23T10:36:32Z</time>
      </trkpt>
      <trkpt lat="45.42215" lon="5.65903">
        <ele>860</ele>
        <time>2011-01-23T10:36:40Z</time>
      </trkpt>
      <trkpt lat="45.42211" lon="5.65923">
        <ele>860</ele>
        <time>2011-01-23T10:36:47Z</time>
      </trkpt>
      <trkpt lat="45.42202" lon="5.65937">
        <ele>859</ele>
        <time>2011-01-23T10:36:52Z</time>
      </trkpt>
      <trkpt lat="45.42187" lon="5.65943">
        <ele>857</ele>
        <time>2011-01-23T10:36:58Z</time>
      </trkpt>
      <trkpt lat="45.42181" lon="5.65946">
        <ele>857</ele>
        <time>2011-01-23T10:37:03Z</time>
      </trkpt>
      <trkpt lat="45.42183" lon="5.65952">
        <ele>857</ele>
        <time>2011-01-23T10:37:25Z</time>
      </trkpt>
      <trkpt lat="45.42186" lon="5.65956">
        <ele>858</ele>
        <time>2011-01-23T10:37:29Z</time>
      </trkpt>
      <trkpt lat="45.42197" lon="5.65965">
        <ele>858</ele>
        <time>2011-01-23T10:37:38Z</time>
      </trkpt>
      <trkpt lat="45.4221" lon="5.65976">
        <ele>859</ele>
        <time>2011-01-23T10:37:44Z</time>
      </trkpt>
      <trkpt lat="45.42222" lon="5.65991">
        <ele>859</ele>
        <time>2011-01-23T10:37:50Z</time>
      </trkpt>
      <trkpt lat="45.42238" lon="5.66006">
        <ele>860</ele>
        <time>2011-01-23T10:37:59Z</time>
      </trkpt>
      <trkpt lat="45.42252" lon="5.66017">
        <ele>862</ele>
        <time>2011-01-23T10:38:07Z</time>
      </trkpt>
      <trkpt lat="45.42275" lon="5.66039">
        <ele>863</ele>
        <time>2011-01-23T10:38:23Z</time>
      </trkpt>
      <trkpt lat="45.42303" lon="5.66067">
        <ele>866</ele>
        <time>2011-01-23T10:38:48Z</time>
      </trkpt>
      <trkpt lat="45.42323" lon="5.66084">
        <ele>868</ele>
        <time>2011-01-23T10:39:03Z</time>
      </trkpt>
      <trkpt lat="45.42345" lon="5.6611">
        <ele>869</ele>
        <time>2011-01-23T10:39:18Z</time>
      </trkpt>
      <trkpt lat="45.42359" lon="5.66119">
        <ele>869</ele>
        <time>2011-01-23T10:39:26Z</time>
      </trkpt>
      <trkpt lat="45.42372" lon="5.66126">
        <ele>869</ele>
        <time>2011-01-23T10:39:32Z</time>
      </trkpt>
      <trkpt lat="45.42392" lon="5.6614">
        <ele>870</ele>
        <time>2011-01-23T10:39:40Z</time>
      </trkpt>
      <trkpt lat="45.42406" lon="5.66146">
        <ele>871</ele>
        <time>2011-01-23T10:39:48Z</time>
      </trkpt>
      <trkpt lat="45.42424" lon="5.66155">
        <ele>872</ele>
        <time>2011-01-23T10:39:56Z</time>
      </trkpt>
      <trkpt lat="45.42442" lon="5.66167">
        <ele>872</ele>
        <time>2011-01-23T10:40:05Z</time>
      </trkpt>
      <trkpt lat="45.42445" lon="5.6617">
        <ele>872</ele>
        <time>2011-01-23T10:40:06Z</time>
      </trkpt>
      <trkpt lat="45.42462" lon="5.66186">
        <ele>872</ele>
        <time>2011-01-23T10:40:14Z</time>
      </trkpt>
      <trkpt lat="45.42479" lon="5.66206">
        <ele>874</ele>
        <time>2011-01-23T10:40:21Z</time>
      </trkpt>
      <trkpt lat="45.4249" lon="5.66222">
        <ele>874</ele>
        <time>2011-01-23T10:40:27Z</time>
      </trkpt>
      <trkpt lat="45.42502" lon="5.66241">
        <ele>875</ele>
        <time>2011-01-23T10:40:34Z</time>
      </trkpt>
      <trkpt lat="45.42511" lon="5.66264">
        <ele>876</ele>
        <time>2011-01-23T10:40:42Z</time>
      </trkpt>
      <trkpt lat="45.42522" lon="5.66302">
        <ele>880</ele>
        <time>2011-01-23T10:40:54Z</time>
      </trkpt>
      <trkpt lat="45.42526" lon="5.66321">
        <ele>881</ele>
        <time>2011-01-23T10:41:04Z</time>
      </trkpt>
      <trkpt lat="45.42533" lon="5.6634">
        <ele>883</ele>
        <time>2011-01-23T10:41:15Z</time>
      </trkpt>
      <trkpt lat="45.42539" lon="5.66345">
        <ele>883</ele>
        <time>2011-01-23T10:43:44Z</time>
      </trkpt>
      <trkpt lat="45.4255" lon="5.66328">
        <ele>884</ele>
        <time>2011-01-23T10:43:54Z</time>
      </trkpt>
      <trkpt lat="45.42558" lon="5.66311">
        <ele>886</ele>
        <time>2011-01-23T10:44:03Z</time>
      </trkpt>
      <trkpt lat="45.42558" lon="5.6631">
        <ele>886</ele>
        <time>2011-01-23T10:44:04Z</time>
      </trkpt>
      <trkpt lat="45.4256" lon="5.6631">
        <ele>886</ele>
        <time>2011-01-23T10:44:06Z</time>
      </trkpt>
      <trkpt lat="45.42571" lon="5.66305">
        <ele>887</ele>
        <time>2011-01-23T10:44:13Z</time>
      </trkpt>
      <trkpt lat="45.42575" lon="5.66305">
        <ele>887</ele>
        <time>2011-01-23T10:44:21Z</time>
      </trkpt>
      <trkpt lat="45.42581" lon="5.66306">
        <ele>887</ele>
        <time>2011-01-23T10:45:30Z</time>
      </trkpt>
      <trkpt lat="45.42589" lon="5.66316">
        <ele>887</ele>
        <time>2011-01-23T10:45:36Z</time>
      </trkpt>
      <trkpt lat="45.42609" lon="5.66343">
        <ele>885</ele>
        <time>2011-01-23T10:45:44Z</time>
      </trkpt>
      <trkpt lat="45.42634" lon="5.66384">
        <ele>882</ele>
        <time>2011-01-23T10:45:51Z</time>
      </trkpt>
      <trkpt lat="45.42659" lon="5.66422">
        <ele>882</ele>
        <time>2011-01-23T10:46:09Z</time>
      </trkpt>
      <trkpt lat="45.42673" lon="5.66441">
        <ele>882</ele>
        <time>2011-01-23T10:46:17Z</time>
      </trkpt>
      <trkpt lat="45.42688" lon="5.66459">
        <ele>882</ele>
        <time>2011-01-23T10:46:24Z</time>
      </trkpt>
      <trkpt lat="45.42702" lon="5.66483">
        <ele>883</ele>
        <time>2011-01-23T10:46:31Z</time>
      </trkpt>
      <trkpt lat="45.42709" lon="5.66505">
        <ele>883</ele>
        <time>2011-01-23T10:46:39Z</time>
      </trkpt>
      <trkpt lat="45.42713" lon="5.66537">
        <ele>882</ele>
        <time>2011-01-23T10:46:46Z</time>
      </trkpt>
      <trkpt lat="45.42719" lon="5.66576">
        <ele>883</ele>
        <time>2011-01-23T10:46:53Z</time>
      </trkpt>
      <trkpt lat="45.42736" lon="5.6661">
        <ele>883</ele>
        <time>2011-01-23T10:46:59Z</time>
      </trkpt>
      <trkpt lat="45.42753" lon="5.66645">
        <ele>882</ele>
        <time>2011-01-23T10:47:05Z</time>
      </trkpt>
      <trkpt lat="45.42762" lon="5.66659">
        <ele>882</ele>
        <time>2011-01-23T10:47:08Z</time>
      </trkpt>
      <trkpt lat="45.42783" lon="5.66668">
        <ele>882</ele>
        <time>2011-01-23T10:47:14Z</time>
      </trkpt>
      <trkpt lat="45.4279" lon="5.66695">
        <ele>880</ele>
        <time>2011-01-23T10:47:20Z</time>
      </trkpt>
      <trkpt lat="45.42792" lon="5.66702">
        <ele>878</ele>
        <time>2011-01-23T10:47:21Z</time>
      </trkpt>
      <trkpt lat="45.42798" lon="5.6672">
        <ele>877</ele>
        <time>2011-01-23T10:47:23Z</time>
      </trkpt>
      <trkpt lat="45.42815" lon="5.66766">
        <ele>875</ele>
        <time>2011-01-23T10:47:29Z</time>
      </trkpt>
      <trkpt lat="45.42828" lon="5.66794">
        <ele>878</ele>
        <time>2011-01-23T10:47:34Z</time>
      </trkpt>
      <trkpt lat="45.42841" lon="5.66819">
        <ele>878</ele>
        <time>2011-01-23T10:47:40Z</time>
      </trkpt>
      <trkpt lat="45.42857" lon="5.66854">
        <ele>878</ele>
        <time>2011-01-23T10:47:47Z</time>
      </trkpt>
      <trkpt lat="45.42871" lon="5.66872">
        <ele>876</ele>
        <time>2011-01-23T10:47:51Z</time>
      </trkpt>
      <trkpt lat="45.42883" lon="5.66896">
        <ele>871</ele>
        <time>2011-01-23T10:47:56Z</time>
      </trkpt>
      <trkpt lat="45.42888" lon="5.6693">
        <ele>866</ele>
        <time>2011-01-23T10:48:00Z</time>
      </trkpt>
      <trkpt lat="45.42898" lon="5.66968">
        <ele>861</ele>
        <time>2011-01-23T10:48:04Z</time>
      </trkpt>
      <trkpt lat="45.42903" lon="5.66978">
        <ele>861</ele>
        <time>2011-01-23T10:48:05Z</time>
      </trkpt>
      <trkpt lat="45.42907" lon="5.66988">
        <ele>861</ele>
        <time>2011-01-23T10:48:06Z</time>
      </trkpt>
      <trkpt lat="45.42938" lon="5.67039">
        <ele>862</ele>
        <time>2011-01-23T10:48:14Z</time>
      </trkpt>
      <trkpt lat="45.42948" lon="5.67066">
        <ele>863</ele>
        <time>2011-01-23T10:48:20Z</time>
      </trkpt>
      <trkpt lat="45.42965" lon="5.67093">
        <ele>864</ele>
        <time>2011-01-23T10:48:27Z</time>
      </trkpt>
      <trkpt lat="45.42992" lon="5.67116">
        <ele>862</ele>
        <time>2011-01-23T10:48:34Z</time>
      </trkpt>
      <trkpt lat="45.4301" lon="5.67143">
        <ele>863</ele>
        <time>2011-01-23T10:48:40Z</time>
      </trkpt>
      <trkpt lat="45.43034" lon="5.67177">
        <ele>862</ele>
        <time>2011-01-23T10:48:49Z</time>
      </trkpt>
      <trkpt lat="45.43036" lon="5.67182">
        <ele>862</ele>
        <time>2011-01-23T10:48:50Z</time>
      </trkpt>
      <trkpt lat="45.43039" lon="5.67222">
        <ele>863</ele>
        <time>2011-01-23T10:48:58Z</time>
      </trkpt>
      <trkpt lat="45.43051" lon="5.67242">
        <ele>864</ele>
        <time>2011-01-23T10:49:03Z</time>
      </trkpt>
      <trkpt lat="45.43068" lon="5.67278">
        <ele>864</ele>
        <time>2011-01-23T10:49:10Z</time>
      </trkpt>
      <trkpt lat="45.43079" lon="5.6732">
        <ele>865</ele>
        <time>2011-01-23T10:49:18Z</time>
      </trkpt>
      <trkpt lat="45.43091" lon="5.67357">
        <ele>867</ele>
        <time>2011-01-23T10:49:25Z</time>
      </trkpt>
      <trkpt lat="45.43106" lon="5.67408">
        <ele>871</ele>
        <time>2011-01-23T10:49:39Z</time>
      </trkpt>
      <trkpt lat="45.43112" lon="5.67433">
        <ele>872</ele>
        <time>2011-01-23T10:49:47Z</time>
      </trkpt>
      <trkpt lat="45.43115" lon="5.67483">
        <ele>874</ele>
        <time>2011-01-23T10:50:02Z</time>
      </trkpt>
      <trkpt lat="45.4312" lon="5.67513">
        <ele>875</ele>
        <time>2011-01-23T10:50:11Z</time>
      </trkpt>
      <trkpt lat="45.43124" lon="5.67538">
        <ele>875</ele>
        <time>2011-01-23T10:50:19Z</time>
      </trkpt>
      <trkpt lat="45.43134" lon="5.67576">
        <ele>876</ele>
        <time>2011-01-23T10:50:31Z</time>
      </trkpt>
      <trkpt lat="45.43142" lon="5.67602">
        <ele>877</ele>
        <time>2011-01-23T10:50:38Z</time>
      </trkpt>
      <trkpt lat="45.43151" lon="5.67622">
        <ele>878</ele>
        <time>2011-01-23T10:50:45Z</time>
      </trkpt>
      <trkpt lat="45.43163" lon="5.67645">
        <ele>880</ele>
        <time>2011-01-23T10:50:52Z</time>
      </trkpt>
      <trkpt lat="45.43166" lon="5.67652">
        <ele>882</ele>
        <time>2011-01-23T10:50:55Z</time>
      </trkpt>
      <trkpt lat="45.4318" lon="5.67682">
        <ele>883</ele>
        <time>2011-01-23T10:55:43Z</time>
      </trkpt>
      <trkpt lat="45.4318" lon="5.67685">
        <ele>882</ele>
        <time>2011-01-23T10:55:52Z</time>
      </trkpt>
      <trkpt lat="45.43182" lon="5.67704">
        <ele>881</ele>
        <time>2011-01-23T10:55:58Z</time>
      </trkpt>
      <trkpt lat="45.43186" lon="5.67731">
        <ele>881</ele>
        <time>2011-01-23T10:56:06Z</time>
      </trkpt>
      <trkpt lat="45.43198" lon="5.67754">
        <ele>881</ele>
        <time>2011-01-23T10:56:12Z</time>
      </trkpt>
      <trkpt lat="45.43216" lon="5.67768">
        <ele>879</ele>
        <time>2011-01-23T10:56:19Z</time>
      </trkpt>
      <trkpt lat="45.43241" lon="5.67784">
        <ele>877</ele>
        <time>2011-01-23T10:56:25Z</time>
      </trkpt>
      <trkpt lat="45.43245" lon="5.67786">
        <ele>877</ele>
        <time>2011-01-23T10:56:26Z</time>
      </trkpt>
      <trkpt lat="45.43272" lon="5.67798">
        <ele>878</ele>
        <time>2011-01-23T11:00:03Z</time>
      </trkpt>
      <trkpt lat="45.43308" lon="5.67813">
        <ele>878</ele>
        <time>2011-01-23T11:00:13Z</time>
      </trkpt>
      <trkpt lat="45.43312" lon="5.67805">
        <ele>878</ele>
        <time>2011-01-23T11:00:15Z</time>
      </trkpt>
      <trkpt lat="45.43332" lon="5.67788">
        <ele>877</ele>
        <time>2011-01-23T11:00:20Z</time>
      </trkpt>
      <trkpt lat="45.4334" lon="5.67787">
        <ele>877</ele>
        <time>2011-01-23T11:00:22Z</time>
      </trkpt>
      <trkpt lat="45.43371" lon="5.67791">
        <ele>877</ele>
        <time>2011-01-23T11:00:30Z</time>
      </trkpt>
      <trkpt lat="45.434" lon="5.67788">
        <ele>875</ele>
        <time>2011-01-23T11:00:38Z</time>
      </trkpt>
      <trkpt lat="45.43405" lon="5.67789">
        <ele>874</ele>
        <time>2011-01-23T11:00:39Z</time>
      </trkpt>
      <trkpt lat="45.43425" lon="5.6779">
        <ele>873</ele>
        <time>2011-01-23T11:00:43Z</time>
      </trkpt>
      <trkpt lat="45.43449" lon="5.67797">
        <ele>869</ele>
        <time>2011-01-23T11:00:48Z</time>
      </trkpt>
      <trkpt lat="45.43488" lon="5.67828">
        <ele>865</ele>
        <time>2011-01-23T11:00:55Z</time>
      </trkpt>
      <trkpt lat="45.43517" lon="5.67855">
        <ele>864</ele>
        <time>2011-01-23T11:01:01Z</time>
      </trkpt>
      <trkpt lat="45.43531" lon="5.67868">
        <ele>860</ele>
        <time>2011-01-23T11:01:05Z</time>
      </trkpt>
      <trkpt lat="45.43537" lon="5.67878">
        <ele>860</ele>
        <time>2011-01-23T11:01:07Z</time>
      </trkpt>
      <trkpt lat="45.43552" lon="5.67884">
        <ele>858</ele>
        <time>2011-01-23T11:01:11Z</time>
      </trkpt>
      <trkpt lat="45.43568" lon="5.67863">
        <ele>858</ele>
        <time>2011-01-23T11:01:18Z</time>
      </trkpt>
      <trkpt lat="45.43584" lon="5.67859">
        <ele>860</ele>
        <time>2011-01-23T11:01:25Z</time>
      </trkpt>
      <trkpt lat="45.43599" lon="5.67863">
        <ele>860</ele>
        <time>2011-01-23T11:01:32Z</time>
      </trkpt>
      <trkpt lat="45.43612" lon="5.67872">
        <ele>861</ele>
        <time>2011-01-23T11:01:38Z</time>
      </trkpt>
      <trkpt lat="45.43627" lon="5.67886">
        <ele>863</ele>
        <time>2011-01-23T11:01:45Z</time>
      </trkpt>
      <trkpt lat="45.43644" lon="5.67898">
        <ele>864</ele>
        <time>2011-01-23T11:01:54Z</time>
      </trkpt>
      <trkpt lat="45.4366" lon="5.67913">
        <ele>864</ele>
        <time>2011-01-23T11:02:02Z</time>
      </trkpt>
      <trkpt lat="45.43674" lon="5.67925">
        <ele>865</ele>
        <time>2011-01-23T11:02:08Z</time>
      </trkpt>
      <trkpt lat="45.43691" lon="5.67933">
        <ele>865</ele>
        <time>2011-01-23T11:02:16Z</time>
      </trkpt>
      <trkpt lat="45.43708" lon="5.6794">
        <ele>865</ele>
        <time>2011-01-23T11:02:23Z</time>
      </trkpt>
      <trkpt lat="45.43723" lon="5.6795">
        <ele>866</ele>
        <time>2011-01-23T11:02:30Z</time>
      </trkpt>
      <trkpt lat="45.43733" lon="5.67966">
        <ele>867</ele>
        <time>2011-01-23T11:02:36Z</time>
      </trkpt>
      <trkpt lat="45.43737" lon="5.67976">
        <ele>868</ele>
        <time>2011-01-23T11:02:39Z</time>
      </trkpt>
      <trkpt lat="45.43747" lon="5.67989">
        <ele>868</ele>
        <time>2011-01-23T11:02:46Z</time>
      </trkpt>
      <trkpt lat="45.43755" lon="5.67991">
        <ele>869</ele>
        <time>2011-01-23T11:03:57Z</time>
      </trkpt>
      <trkpt lat="45.43766" lon="5.68002">
        <ele>869</ele>
        <time>2011-01-23T11:04:04Z</time>
      </trkpt>
      <trkpt lat="45.43768" lon="5.68004">
        <ele>869</ele>
        <time>2011-01-23T11:04:05Z</time>
      </trkpt>
      <trkpt lat="45.43791" lon="5.68019">
        <ele>867</ele>
        <time>2011-01-23T11:04:12Z</time>
      </trkpt>
      <trkpt lat="45.43808" lon="5.6803">
        <ele>867</ele>
        <time>2011-01-23T11:04:17Z</time>
      </trkpt>
      <trkpt lat="45.43822" lon="5.68047">
        <ele>866</ele>
        <time>2011-01-23T11:04:22Z</time>
      </trkpt>
      <trkpt lat="45.43843" lon="5.6807">
        <ele>866</ele>
        <time>2011-01-23T11:04:28Z</time>
      </trkpt>
      <trkpt lat="45.43862" lon="5.68096">
        <ele>867</ele>
        <time>2011-01-23T11:04:34Z</time>
      </trkpt>
      <trkpt lat="45.43879" lon="5.68138">
        <ele>868</ele>
        <time>2011-01-23T11:04:42Z</time>
      </trkpt>
      <trkpt lat="45.43879" lon="5.6816">
        <ele>866</ele>
        <time>2011-01-23T11:04:46Z</time>
      </trkpt>
      <trkpt lat="45.43873" lon="5.68197">
        <ele>862</ele>
        <time>2011-01-23T11:04:50Z</time>
      </trkpt>
      <trkpt lat="45.43862" lon="5.68235">
        <ele>861</ele>
        <time>2011-01-23T11:04:54Z</time>
      </trkpt>
      <trkpt lat="45.43852" lon="5.68277">
        <ele>856</ele>
        <time>2011-01-23T11:04:59Z</time>
      </trkpt>
      <trkpt lat="45.4384" lon="5.68336">
        <ele>852</ele>
        <time>2011-01-23T11:05:05Z</time>
      </trkpt>
      <trkpt lat="45.43844" lon="5.68374">
        <ele>847</ele>
        <time>2011-01-23T11:05:09Z</time>
      </trkpt>
      <trkpt lat="45.43847" lon="5.68384">
        <ele>846</ele>
        <time>2011-01-23T11:05:10Z</time>
      </trkpt>
      <trkpt lat="45.43859" lon="5.68436">
        <ele>842</ele>
        <time>2011-01-23T11:05:15Z</time>
      </trkpt>
      <trkpt lat="45.43865" lon="5.68466">
        <ele>840</ele>
        <time>2011-01-23T11:05:18Z</time>
      </trkpt>
      <trkpt lat="45.43869" lon="5.68486">
        <ele>840</ele>
        <time>2011-01-23T11:05:20Z</time>
      </trkpt>
      <trkpt lat="45.43875" lon="5.68506">
        <ele>839</ele>
        <time>2011-01-23T11:05:22Z</time>
      </trkpt>
      <trkpt lat="45.43873" lon="5.68535">
        <ele>839</ele>
        <time>2011-01-23T11:05:27Z</time>
      </trkpt>
      <trkpt lat="45.43861" lon="5.68537">
        <ele>839</ele>
        <time>2011-01-23T11:05:31Z</time>
      </trkpt>
      <trkpt lat="45.43851" lon="5.68536">
        <ele>839</ele>
        <time>2011-01-23T11:05:35Z</time>
      </trkpt>
      <trkpt lat="45.4385" lon="5.68535">
        <ele>839</ele>
        <time>2011-01-23T11:05:39Z</time>
      </trkpt>
      <trkpt lat="45.43851" lon="5.68538">
        <ele>839</ele>
        <time>2011-01-23T11:07:32Z</time>
      </trkpt>
      <trkpt lat="45.43855" lon="5.68548">
        <ele>838</ele>
        <time>2011-01-23T11:07:36Z</time>
      </trkpt>
      <trkpt lat="45.43881" lon="5.68584">
        <ele>836</ele>
        <time>2011-01-23T11:07:44Z</time>
      </trkpt>
      <trkpt lat="45.43905" lon="5.68618">
        <ele>833</ele>
        <time>2011-01-23T11:07:50Z</time>
      </trkpt>
      <trkpt lat="45.4391" lon="5.68624">
        <ele>833</ele>
        <time>2011-01-23T11:07:51Z</time>
      </trkpt>
      <trkpt lat="45.43939" lon="5.68665">
        <ele>830</ele>
        <time>2011-01-23T11:07:57Z</time>
      </trkpt>
      <trkpt lat="45.43982" lon="5.68724">
        <ele>826</ele>
        <time>2011-01-23T11:08:05Z</time>
      </trkpt>
      <trkpt lat="45.43992" lon="5.6874">
        <ele>826</ele>
        <time>2011-01-23T11:08:07Z</time>
      </trkpt>
      <trkpt lat="45.44003" lon="5.68768">
        <ele>824</ele>
        <time>2011-01-23T11:08:10Z</time>
      </trkpt>
      <trkpt lat="45.44004" lon="5.6881">
        <ele>824</ele>
        <time>2011-01-23T11:08:14Z</time>
      </trkpt>
      <trkpt lat="45.43987" lon="5.68847">
        <ele>825</ele>
        <time>2011-01-23T11:08:18Z</time>
      </trkpt>
      <trkpt lat="45.4397" lon="5.68861">
        <ele>824</ele>
        <time>2011-01-23T11:08:21Z</time>
      </trkpt>
      <trkpt lat="45.43906" lon="5.68894">
        <ele>823</ele>
        <time>2011-01-23T11:08:31Z</time>
      </trkpt>
      <trkpt lat="45.43875" lon="5.68907">
        <ele>824</ele>
        <time>2011-01-23T11:08:38Z</time>
      </trkpt>
      <trkpt lat="45.43853" lon="5.6893">
        <ele>822</ele>
        <time>2011-01-23T11:09:03Z</time>
      </trkpt>
      <trkpt lat="45.4385" lon="5.68938">
        <ele>822</ele>
        <time>2011-01-23T11:09:05Z</time>
      </trkpt>
      <trkpt lat="45.43841" lon="5.68997">
        <ele>817</ele>
        <time>2011-01-23T11:09:12Z</time>
      </trkpt>
      <trkpt lat="45.43834" lon="5.69075">
        <ele>814</ele>
        <time>2011-01-23T11:09:20Z</time>
      </trkpt>
      <trkpt lat="45.4383" lon="5.69119">
        <ele>811</ele>
        <time>2011-01-23T11:09:24Z</time>
      </trkpt>
      <trkpt lat="45.43822" lon="5.69187">
        <ele>808</ele>
        <time>2011-01-23T11:09:30Z</time>
      </trkpt>
      <trkpt lat="45.43813" lon="5.69277">
        <ele>807</ele>
        <time>2011-01-23T11:09:38Z</time>
      </trkpt>
      <trkpt lat="45.43813" lon="5.69299">
        <ele>808</ele>
        <time>2011-01-23T11:09:42Z</time>
      </trkpt>
      <trkpt lat="45.43806" lon="5.69304">
        <ele>808</ele>
        <time>2011-01-23T11:09:48Z</time>
      </trkpt>
      <trkpt lat="45.43801" lon="5.69304">
        <ele>808</ele>
        <time>2011-01-23T11:09:50Z</time>
      </trkpt>
      <trkpt lat="45.43767" lon="5.69301">
        <ele>807</ele>
        <time>2011-01-23T11:10:15Z</time>
      </trkpt>
      <trkpt lat="45.43767" lon="5.69301">
        <ele>808</ele>
        <time>2011-01-23T11:10:25Z</time>
      </trkpt>
      <trkpt lat="45.43741" lon="5.69313">
        <ele>807</ele>
        <time>2011-01-23T11:11:10Z</time>
      </trkpt>
      <trkpt lat="45.43721" lon="5.6933">
        <ele>806</ele>
        <time>2011-01-23T11:11:18Z</time>
      </trkpt>
      <trkpt lat="45.43701" lon="5.69338">
        <ele>806</ele>
        <time>2011-01-23T11:11:25Z</time>
      </trkpt>
      <trkpt lat="45.43686" lon="5.69345">
        <ele>806</ele>
        <time>2011-01-23T11:11:32Z</time>
      </trkpt>
      <trkpt lat="45.43669" lon="5.69349">
        <ele>806</ele>
        <time>2011-01-23T11:11:39Z</time>
      </trkpt>
      <trkpt lat="45.43652" lon="5.69349">
        <ele>805</ele>
        <time>2011-01-23T11:11:46Z</time>
      </trkpt>
      <trkpt lat="45.43637" lon="5.69353">
        <ele>806</ele>
        <time>2011-01-23T11:11:54Z</time>
      </trkpt>
      <trkpt lat="45.43613" lon="5.69364">
        <ele>808</ele>
        <time>2011-01-23T11:12:09Z</time>
      </trkpt>
      <trkpt lat="45.43596" lon="5.69372">
        <ele>806</ele>
        <time>2011-01-23T11:12:17Z</time>
      </trkpt>
      <trkpt lat="45.4359" lon="5.69374">
        <ele>805</ele>
        <time>2011-01-23T11:12:19Z</time>
      </trkpt>
      <trkpt lat="45.43569" lon="5.69386">
        <ele>798</ele>
        <time>2011-01-23T11:12:27Z</time>
      </trkpt>
      <trkpt lat="45.43563" lon="5.6939">
        <ele>798</ele>
        <time>2011-01-23T11:12:29Z</time>
      </trkpt>
      <trkpt lat="45.43558" lon="5.69393">
        <ele>798</ele>
        <time>2011-01-23T11:12:31Z</time>
      </trkpt>
      <trkpt lat="45.43544" lon="5.6939">
        <ele>798</ele>
        <time>2011-01-23T11:12:39Z</time>
      </trkpt>
      <trkpt lat="45.43529" lon="5.69381">
        <ele>798</ele>
        <time>2011-01-23T11:14:30Z</time>
      </trkpt>
      <trkpt lat="45.4352" lon="5.69369">
        <ele>798</ele>
        <time>2011-01-23T11:14:36Z</time>
      </trkpt>
      <trkpt lat="45.43521" lon="5.69356">
        <ele>799</ele>
        <time>2011-01-23T11:14:40Z</time>
      </trkpt>
      <trkpt lat="45.43501" lon="5.69326">
        <ele>800</ele>
        <time>2011-01-23T11:14:51Z</time>
      </trkpt>
      <trkpt lat="45.43476" lon="5.69312">
        <ele>802</ele>
        <time>2011-01-23T11:14:59Z</time>
      </trkpt>
      <trkpt lat="45.43454" lon="5.69297">
        <ele>802</ele>
        <time>2011-01-23T11:15:06Z</time>
      </trkpt>
      <trkpt lat="45.4344" lon="5.69279">
        <ele>804</ele>
        <time>2011-01-23T11:15:12Z</time>
      </trkpt>
      <trkpt lat="45.43427" lon="5.69266">
        <ele>805</ele>
        <time>2011-01-23T11:15:18Z</time>
      </trkpt>
      <trkpt lat="45.43423" lon="5.69263">
        <ele>805</ele>
        <time>2011-01-23T11:15:20Z</time>
      </trkpt>
      <trkpt lat="45.43417" lon="5.69258">
        <ele>806</ele>
        <time>2011-01-23T11:15:24Z</time>
      </trkpt>
      <trkpt lat="45.43402" lon="5.6924">
        <ele>806</ele>
        <time>2011-01-23T11:15:32Z</time>
      </trkpt>
      <trkpt lat="45.43378" lon="5.69254">
        <ele>805</ele>
        <time>2011-01-23T11:15:47Z</time>
      </trkpt>
      <trkpt lat="45.43378" lon="5.69257">
        <ele>806</ele>
        <time>2011-01-23T11:18:32Z</time>
      </trkpt>
      <trkpt lat="45.43373" lon="5.69276">
        <ele>805</ele>
        <time>2011-01-23T11:18:39Z</time>
      </trkpt>
      <trkpt lat="45.43366" lon="5.69306">
        <ele>805</ele>
        <time>2011-01-23T11:18:46Z</time>
      </trkpt>
      <trkpt lat="45.43361" lon="5.69328">
        <ele>802</ele>
        <time>2011-01-23T11:18:50Z</time>
      </trkpt>
      <trkpt lat="45.4336" lon="5.69333">
        <ele>802</ele>
        <time>2011-01-23T11:18:51Z</time>
      </trkpt>
      <trkpt lat="45.43353" lon="5.69366">
        <ele>802</ele>
        <time>2011-01-23T11:19:40Z</time>
      </trkpt>
      <trkpt lat="45.43353" lon="5.69366">
        <ele>802</ele>
        <time>2011-01-23T11:19:47Z</time>
      </trkpt>
      <trkpt lat="45.43353" lon="5.69367">
        <ele>802</ele>
        <time>2011-01-23T11:19:58Z</time>
      </trkpt>
      <trkpt lat="45.43348" lon="5.69375">
        <ele>802</ele>
        <time>2011-01-23T11:20:03Z</time>
      </trkpt>
      <trkpt lat="45.43321" lon="5.69379">
        <ele>802</ele>
        <time>2011-01-23T11:20:12Z</time>
      </trkpt>
      <trkpt lat="45.43298" lon="5.69371">
        <ele>801</ele>
        <time>2011-01-23T11:20:17Z</time>
      </trkpt>
      <trkpt lat="45.43264" lon="5.69367">
        <ele>801</ele>
        <time>2011-01-23T11:20:23Z</time>
      </trkpt>
      <trkpt lat="45.43258" lon="5.69366">
        <ele>800</ele>
        <time>2011-01-23T11:20:24Z</time>
      </trkpt>
      <trkpt lat="45.4324" lon="5.69365">
        <ele>799</ele>
        <time>2011-01-23T11:20:27Z</time>
      </trkpt>
      <trkpt lat="45.4321" lon="5.69356">
        <ele>802</ele>
        <time>2011-01-23T11:20:34Z</time>
      </trkpt>
      <trkpt lat="45.43185" lon="5.69356">
        <ele>801</ele>
        <time>2011-01-23T11:20:42Z</time>
      </trkpt>
      <trkpt lat="45.4316" lon="5.69354">
        <ele>800</ele>
        <time>2011-01-23T11:20:47Z</time>
      </trkpt>
      <trkpt lat="45.4314" lon="5.69352">
        <ele>800</ele>
        <time>2011-01-23T11:20:51Z</time>
      </trkpt>
      <trkpt lat="45.43107" lon="5.69353">
        <ele>798</ele>
        <time>2011-01-23T11:20:57Z</time>
      </trkpt>
      <trkpt lat="45.43082" lon="5.69351">
        <ele>796</ele>
        <time>2011-01-23T11:21:01Z</time>
      </trkpt>
      <trkpt lat="45.43043" lon="5.6934">
        <ele>793</ele>
        <time>2011-01-23T11:21:07Z</time>
      </trkpt>
      <trkpt lat="45.43037" lon="5.69339">
        <ele>793</ele>
        <time>2011-01-23T11:21:08Z</time>
      </trkpt>
      <trkpt lat="45.43025" lon="5.69334">
        <ele>793</ele>
        <time>2011-01-23T11:21:10Z</time>
      </trkpt>
      <trkpt lat="45.43004" lon="5.69321">
        <ele>790</ele>
        <time>2011-01-23T11:21:14Z</time>
      </trkpt>
      <trkpt lat="45.42993" lon="5.69315">
        <ele>790</ele>
        <time>2011-01-23T11:21:16Z</time>
      </trkpt>
      <trkpt lat="45.42969" lon="5.69303">
        <ele>786</ele>
        <time>2011-01-23T11:21:20Z</time>
      </trkpt>
      <trkpt lat="45.42944" lon="5.69292">
        <ele>785</ele>
        <time>2011-01-23T11:21:24Z</time>
      </trkpt>
      <trkpt lat="45.42926" lon="5.6927">
        <ele>783</ele>
        <time>2011-01-23T11:21:29Z</time>
      </trkpt>
      <trkpt lat="45.42902" lon="5.69258">
        <ele>779</ele>
        <time>2011-01-23T11:21:34Z</time>
      </trkpt>
      <trkpt lat="45.4289" lon="5.69255">
        <ele>778</ele>
        <time>2011-01-23T11:21:36Z</time>
      </trkpt>
      <trkpt lat="45.4287" lon="5.69253">
        <ele>775</ele>
        <time>2011-01-23T11:21:39Z</time>
      </trkpt>
      <trkpt lat="45.4285" lon="5.6925">
        <ele>774</ele>
        <time>2011-01-23T11:21:42Z</time>
      </trkpt>
      <trkpt lat="45.4283" lon="5.69232">
        <ele>773</ele>
        <time>2011-01-23T11:21:46Z</time>
      </trkpt>
      <trkpt lat="45.42817" lon="5.69214">
        <ele>771</ele>
        <time>2011-01-23T11:21:49Z</time>
      </trkpt>
      <trkpt lat="45.42797" lon="5.69196">
        <ele>769</ele>
        <time>2011-01-23T11:21:53Z</time>
      </trkpt>
      <trkpt lat="45.42787" lon="5.6919">
        <ele>768</ele>
        <time>2011-01-23T11:21:55Z</time>
      </trkpt>
      <trkpt lat="45.42772" lon="5.69183">
        <ele>767</ele>
        <time>2011-01-23T11:21:59Z</time>
      </trkpt>
      <trkpt lat="45.42753" lon="5.69173">
        <ele>763</ele>
        <time>2011-01-23T11:22:03Z</time>
      </trkpt>
      <trkpt lat="45.4274" lon="5.69167">
        <ele>760</ele>
        <time>2011-01-23T11:22:05Z</time>
      </trkpt>
      <trkpt lat="45.42719" lon="5.69137">
        <ele>759</ele>
        <time>2011-01-23T11:22:10Z</time>
      </trkpt>
      <trkpt lat="45.42718" lon="5.69131">
        <ele>759</ele>
        <time>2011-01-23T11:22:11Z</time>
      </trkpt>
      <trkpt lat="45.4272" lon="5.69102">
        <ele>760</ele>
        <time>2011-01-23T11:22:17Z</time>
      </trkpt>
      <trkpt lat="45.42713" lon="5.6907">
        <ele>759</ele>
        <time>2011-01-23T11:22:23Z</time>
      </trkpt>
      <trkpt lat="45.42698" lon="5.69037">
        <ele>758</ele>
        <time>2011-01-23T11:22:30Z</time>
      </trkpt>
      <trkpt lat="45.42683" lon="5.69007">
        <ele>757</ele>
        <time>2011-01-23T11:22:37Z</time>
      </trkpt>
      <trkpt lat="45.42667" lon="5.68994">
        <ele>757</ele>
        <time>2011-01-23T11:22:43Z</time>
      </trkpt>
      <trkpt lat="45.42653" lon="5.69011">
        <ele>757</ele>
        <time>2011-01-23T11:22:58Z</time>
      </trkpt>
      <trkpt lat="45.4265" lon="5.69011">
        <ele>758</ele>
        <time>2011-01-23T11:25:54Z</time>
      </trkpt>
      <trkpt lat="45.42644" lon="5.68995">
        <ele>757</ele>
        <time>2011-01-23T11:26:00Z</time>
      </trkpt>
      <trkpt lat="45.4264" lon="5.68987">
        <ele>757</ele>
        <time>2011-01-23T11:26:02Z</time>
      </trkpt>
      <trkpt lat="45.4262" lon="5.68957">
        <ele>756</ele>
        <time>2011-01-23T11:26:09Z</time>
      </trkpt>
      <trkpt lat="45.42598" lon="5.68928">
        <ele>755</ele>
        <time>2011-01-23T11:26:16Z</time>
      </trkpt>
      <trkpt lat="45.42579" lon="5.68891">
        <ele>755</ele>
        <time>2011-01-23T11:26:23Z</time>
      </trkpt>
      <trkpt lat="45.42554" lon="5.6885">
        <ele>754</ele>
        <time>2011-01-23T11:26:30Z</time>
      </trkpt>
      <trkpt lat="45.42535" lon="5.68825">
        <ele>754</ele>
        <time>2011-01-23T11:26:35Z</time>
      </trkpt>
      <trkpt lat="45.42502" lon="5.68774">
        <ele>751</ele>
        <time>2011-01-23T11:26:43Z</time>
      </trkpt>
      <trkpt lat="45.42466" lon="5.68715">
        <ele>749</ele>
        <time>2011-01-23T11:26:51Z</time>
      </trkpt>
      <trkpt lat="45.42461" lon="5.68708">
        <ele>748</ele>
        <time>2011-01-23T11:26:52Z</time>
      </trkpt>
      <trkpt lat="45.42448" lon="5.68696">
        <ele>748</ele>
        <time>2011-01-23T11:26:54Z</time>
      </trkpt>
      <trkpt lat="45.42421" lon="5.68676">
        <ele>744</ele>
        <time>2011-01-23T11:26:58Z</time>
      </trkpt>
      <trkpt lat="45.42388" lon="5.68664">
        <ele>741</ele>
        <time>2011-01-23T11:27:02Z</time>
      </trkpt>
      <trkpt lat="45.42347" lon="5.68645">
        <ele>737</ele>
        <time>2011-01-23T11:27:07Z</time>
      </trkpt>
      <trkpt lat="45.42313" lon="5.68636">
        <ele>738</ele>
        <time>2011-01-23T11:27:11Z</time>
      </trkpt>
      <trkpt lat="45.42268" lon="5.68637">
        <ele>736</ele>
        <time>2011-01-23T11:27:17Z</time>
      </trkpt>
      <trkpt lat="45.42245" lon="5.68635">
        <ele>735</ele>
        <time>2011-01-23T11:27:20Z</time>
      </trkpt>
      <trkpt lat="45.42226" lon="5.6863">
        <ele>736</ele>
        <time>2011-01-23T11:27:23Z</time>
      </trkpt>
      <trkpt lat="45.42213" lon="5.68624">
        <ele>736</ele>
        <time>2011-01-23T11:27:25Z</time>
      </trkpt>
      <trkpt lat="45.42187" lon="5.68595">
        <ele>736</ele>
        <time>2011-01-23T11:27:30Z</time>
      </trkpt>
      <trkpt lat="45.42178" lon="5.6858">
        <ele>738</ele>
        <time>2011-01-23T11:27:32Z</time>
      </trkpt>
      <trkpt lat="45.42172" lon="5.68556">
        <ele>738</ele>
        <time>2011-01-23T11:27:35Z</time>
      </trkpt>
      <trkpt lat="45.4217" lon="5.68541">
        <ele>738</ele>
        <time>2011-01-23T11:27:37Z</time>
      </trkpt>
      <trkpt lat="45.42171" lon="5.68507">
        <ele>738</ele>
        <time>2011-01-23T11:27:41Z</time>
      </trkpt>
      <trkpt lat="45.42179" lon="5.6846">
        <ele>740</ele>
        <time>2011-01-23T11:27:47Z</time>
      </trkpt>
      <trkpt lat="45.42181" lon="5.68438">
        <ele>742</ele>
        <time>2011-01-23T11:27:51Z</time>
      </trkpt>
      <trkpt lat="45.42183" lon="5.68415">
        <ele>743</ele>
        <time>2011-01-23T11:27:58Z</time>
      </trkpt>
      <trkpt lat="45.42178" lon="5.684">
        <ele>743</ele>
        <time>2011-01-23T11:28:05Z</time>
      </trkpt>
      <trkpt lat="45.42173" lon="5.68378">
        <ele>743</ele>
        <time>2011-01-23T11:28:12Z</time>
      </trkpt>
      <trkpt lat="45.42156" lon="5.68351">
        <ele>742</ele>
        <time>2011-01-23T11:28:21Z</time>
      </trkpt>
      <trkpt lat="45.42141" lon="5.68333">
        <ele>738</ele>
        <time>2011-01-23T11:28:25Z</time>
      </trkpt>
      <trkpt lat="45.42124" lon="5.68308">
        <ele>736</ele>
        <time>2011-01-23T11:28:29Z</time>
      </trkpt>
      <trkpt lat="45.42112" lon="5.68273">
        <ele>737</ele>
        <time>2011-01-23T11:28:32Z</time>
      </trkpt>
      <trkpt lat="45.42093" lon="5.68244">
        <ele>736</ele>
        <time>2011-01-23T11:28:36Z</time>
      </trkpt>
      <trkpt lat="45.42071" lon="5.68228">
        <ele>735</ele>
        <time>2011-01-23T11:28:40Z</time>
      </trkpt>
      <trkpt lat="45.42053" lon="5.68224">
        <ele>733</ele>
        <time>2011-01-23T11:28:43Z</time>
      </trkpt>
      <trkpt lat="45.4203" lon="5.68201">
        <ele>728</ele>
        <time>2011-01-23T11:28:49Z</time>
      </trkpt>
      <trkpt lat="45.42019" lon="5.68171">
        <ele>727</ele>
        <time>2011-01-23T11:28:54Z</time>
      </trkpt>
      <trkpt lat="45.42018" lon="5.68148">
        <ele>727</ele>
        <time>2011-01-23T11:28:58Z</time>
      </trkpt>
      <trkpt lat="45.42004" lon="5.68117">
        <ele>724</ele>
        <time>2011-01-23T11:29:05Z</time>
      </trkpt>
      <trkpt lat="45.41983" lon="5.681">
        <ele>721</ele>
        <time>2011-01-23T11:29:12Z</time>
      </trkpt>
      <trkpt lat="45.41967" lon="5.68095">
        <ele>720</ele>
        <time>2011-01-23T11:29:17Z</time>
      </trkpt>
      <trkpt lat="45.41949" lon="5.68089">
        <ele>718</ele>
        <time>2011-01-23T11:29:24Z</time>
      </trkpt>
      <trkpt lat="45.41937" lon="5.6808">
        <ele>715</ele>
        <time>2011-01-23T11:29:28Z</time>
      </trkpt>
      <trkpt lat="45.41911" lon="5.68055">
        <ele>712</ele>
        <time>2011-01-23T11:29:36Z</time>
      </trkpt>
      <trkpt lat="45.41882" lon="5.68036">
        <ele>708</ele>
        <time>2011-01-23T11:29:42Z</time>
      </trkpt>
      <trkpt lat="45.41868" lon="5.68016">
        <ele>707</ele>
        <time>2011-01-23T11:29:46Z</time>
      </trkpt>
      <trkpt lat="45.41861" lon="5.67982">
        <ele>704</ele>
        <time>2011-01-23T11:29:52Z</time>
      </trkpt>
      <trkpt lat="45.41855" lon="5.6796">
        <ele>703</ele>
        <time>2011-01-23T11:29:54Z</time>
      </trkpt>
      <trkpt lat="45.41844" lon="5.67936">
        <ele>704</ele>
        <time>2011-01-23T11:29:57Z</time>
      </trkpt>
      <trkpt lat="45.4182" lon="5.67924">
        <ele>700</ele>
        <time>2011-01-23T11:30:04Z</time>
      </trkpt>
      <trkpt lat="45.41796" lon="5.67891">
        <ele>699</ele>
        <time>2011-01-23T11:30:12Z</time>
      </trkpt>
      <trkpt lat="45.41791" lon="5.67885">
        <ele>698</ele>
        <time>2011-01-23T11:30:14Z</time>
      </trkpt>
      <trkpt lat="45.41783" lon="5.67875">
        <ele>696</ele>
        <time>2011-01-23T11:30:18Z</time>
      </trkpt>
      <trkpt lat="45.41767" lon="5.67859">
        <ele>693</ele>
        <time>2011-01-23T11:30:23Z</time>
      </trkpt>
      <trkpt lat="45.41748" lon="5.67858">
        <ele>689</ele>
        <time>2011-01-23T11:30:28Z</time>
      </trkpt>
      <trkpt lat="45.41737" lon="5.67865">
        <ele>688</ele>
        <time>2011-01-23T11:30:31Z</time>
      </trkpt>
      <trkpt lat="45.41721" lon="5.67862">
        <ele>684</ele>
        <time>2011-01-23T11:30:36Z</time>
      </trkpt>
      <trkpt lat="45.4169" lon="5.67854">
        <ele>676</ele>
        <time>2011-01-23T11:31:21Z</time>
      </trkpt>
      <trkpt lat="45.41687" lon="5.67852">
        <ele>675</ele>
        <time>2011-01-23T11:31:23Z</time>
      </trkpt>
      <trkpt lat="45.41677" lon="5.6784">
        <ele>673</ele>
        <time>2011-01-23T11:31:28Z</time>
      </trkpt>
      <trkpt lat="45.4165" lon="5.67825">
        <ele>667</ele>
        <time>2011-01-23T11:31:41Z</time>
      </trkpt>
      <trkpt lat="45.41632" lon="5.67809">
        <ele>663</ele>
        <time>2011-01-23T11:31:48Z</time>
      </trkpt>
      <trkpt lat="45.4163" lon="5.67808">
        <ele>663</ele>
        <time>2011-01-23T11:31:49Z</time>
      </trkpt>
      <trkpt lat="45.41613" lon="5.67806">
        <ele>659</ele>
        <time>2011-01-23T11:31:55Z</time>
      </trkpt>
      <trkpt lat="45.41598" lon="5.67806">
        <ele>656</ele>
        <time>2011-01-23T11:32:01Z</time>
      </trkpt>
      <trkpt lat="45.41597" lon="5.67806">
        <ele>655</ele>
        <time>2011-01-23T11:32:02Z</time>
      </trkpt>
      <trkpt lat="45.41585" lon="5.67811">
        <ele>653</ele>
        <time>2011-01-23T11:32:08Z</time>
      </trkpt>
      <trkpt lat="45.41575" lon="5.67826">
        <ele>649</ele>
        <time>2011-01-23T11:32:51Z</time>
      </trkpt>
      <trkpt lat="45.41565" lon="5.67852">
        <ele>645</ele>
        <time>2011-01-23T11:33:41Z</time>
      </trkpt>
      <trkpt lat="45.41561" lon="5.67893">
        <ele>638</ele>
        <time>2011-01-23T11:33:53Z</time>
      </trkpt>
      <trkpt lat="45.41551" lon="5.67898">
        <ele>635</ele>
        <time>2011-01-23T11:33:59Z</time>
      </trkpt>
      <trkpt lat="45.41547" lon="5.67898">
        <ele>635</ele>
        <time>2011-01-23T11:34:03Z</time>
      </trkpt>
      <trkpt lat="45.41535" lon="5.67892">
        <ele>631</ele>
        <time>2011-01-23T11:34:17Z</time>
      </trkpt>
      <trkpt lat="45.41533" lon="5.67908">
        <ele>627</ele>
        <time>2011-01-23T11:34:26Z</time>
      </trkpt>
      <trkpt lat="45.41535" lon="5.67929">
        <ele>625</ele>
        <time>2011-01-23T11:34:35Z</time>
      </trkpt>
      <trkpt lat="45.41535" lon="5.67948">
        <ele>621</ele>
        <time>2011-01-23T11:34:41Z</time>
      </trkpt>
      <trkpt lat="45.41529" lon="5.67972">
        <ele>618</ele>
        <time>2011-01-23T11:34:46Z</time>
      </trkpt>
      <trkpt lat="45.41536" lon="5.68007">
        <ele>615</ele>
        <time>2011-01-23T11:34:52Z</time>
      </trkpt>
      <trkpt lat="45.41555" lon="5.68052">
        <ele>612</ele>
        <time>2011-01-23T11:34:59Z</time>
      </trkpt>
      <trkpt lat="45.41566" lon="5.68067">
        <ele>612</ele>
        <time>2011-01-23T11:35:02Z</time>
      </trkpt>
      <trkpt lat="45.41575" lon="5.6808">
        <ele>611</ele>
        <time>2011-01-23T11:35:05Z</time>
      </trkpt>
      <trkpt lat="45.41582" lon="5.68127">
        <ele>610</ele>
        <time>2011-01-23T11:35:12Z</time>
      </trkpt>
      <trkpt lat="45.41578" lon="5.68163">
        <ele>610</ele>
        <time>2011-01-23T11:35:18Z</time>
      </trkpt>
      <trkpt lat="45.41552" lon="5.68191">
        <ele>611</ele>
        <time>2011-01-23T11:35:28Z</time>
      </trkpt>
      <trkpt lat="45.41548" lon="5.68204">
        <ele>609</ele>
        <time>2011-01-23T11:35:31Z</time>
      </trkpt>
      <trkpt lat="45.41541" lon="5.68245">
        <ele>605</ele>
        <time>2011-01-23T11:35:37Z</time>
      </trkpt>
      <trkpt lat="45.41536" lon="5.68268">
        <ele>602</ele>
        <time>2011-01-23T11:35:41Z</time>
      </trkpt>
      <trkpt lat="45.41537" lon="5.68315">
        <ele>599</ele>
        <time>2011-01-23T11:35:47Z</time>
      </trkpt>
      <trkpt lat="45.41536" lon="5.68361">
        <ele>598</ele>
        <time>2011-01-23T11:35:53Z</time>
      </trkpt>
      <trkpt lat="45.41538" lon="5.68385">
        <ele>597</ele>
        <time>2011-01-23T11:35:57Z</time>
      </trkpt>
      <trkpt lat="45.41534" lon="5.6841">
        <ele>594</ele>
        <time>2011-01-23T11:36:02Z</time>
      </trkpt>
      <trkpt lat="45.41532" lon="5.6846">
        <ele>593</ele>
        <time>2011-01-23T11:36:10Z</time>
      </trkpt>
      <trkpt lat="45.41533" lon="5.68494">
        <ele>589</ele>
        <time>2011-01-23T11:36:16Z</time>
      </trkpt>
      <trkpt lat="45.4154" lon="5.68518">
        <ele>590</ele>
        <time>2011-01-23T11:36:21Z</time>
      </trkpt>
      <trkpt lat="45.41546" lon="5.68539">
        <ele>590</ele>
        <time>2011-01-23T11:38:35Z</time>
      </trkpt>
      <trkpt lat="45.41557" lon="5.68556">
        <ele>590</ele>
        <time>2011-01-23T11:38:43Z</time>
      </trkpt>
      <trkpt lat="45.41567" lon="5.68575">
        <ele>590</ele>
        <time>2011-01-23T11:38:49Z</time>
      </trkpt>
      <trkpt lat="45.41568" lon="5.68592">
        <ele>588</ele>
        <time>2011-01-23T11:38:52Z</time>
      </trkpt>
      <trkpt lat="45.41561" lon="5.68629">
        <ele>589</ele>
        <time>2011-01-23T11:39:00Z</time>
      </trkpt>
      <trkpt lat="45.41554" lon="5.68666">
        <ele>588</ele>
        <time>2011-01-23T11:39:09Z</time>
      </trkpt>
      <trkpt lat="45.41546" lon="5.68704">
        <ele>588</ele>
        <time>2011-01-23T11:39:18Z</time>
      </trkpt>
      <trkpt lat="45.41533" lon="5.6874">
        <ele>588</ele>
        <time>2011-01-23T11:39:26Z</time>
      </trkpt>
      <trkpt lat="45.41516" lon="5.68768">
        <ele>589</ele>
        <time>2011-01-23T11:39:34Z</time>
      </trkpt>
      <trkpt lat="45.41494" lon="5.68798">
        <ele>589</ele>
        <time>2011-01-23T11:39:42Z</time>
      </trkpt>
      <trkpt lat="45.41479" lon="5.68826">
        <ele>591</ele>
        <time>2011-01-23T11:39:54Z</time>
      </trkpt>
      <trkpt lat="45.41474" lon="5.68832">
        <ele>591</ele>
        <time>2011-01-23T11:40:50Z</time>
      </trkpt>
      <trkpt lat="45.41465" lon="5.68852">
        <ele>590</ele>
        <time>2011-01-23T11:40:56Z</time>
      </trkpt>
      <trkpt lat="45.41453" lon="5.68885">
        <ele>591</ele>
        <time>2011-01-23T11:41:04Z</time>
      </trkpt>
      <trkpt lat="45.41439" lon="5.68916">
        <ele>592</ele>
        <time>2011-01-23T11:41:12Z</time>
      </trkpt>
      <trkpt lat="45.41424" lon="5.68945">
        <ele>592</ele>
        <time>2011-01-23T11:41:20Z</time>
      </trkpt>
      <trkpt lat="45.41412" lon="5.68989">
        <ele>591</ele>
        <time>2011-01-23T11:41:29Z</time>
      </trkpt>
      <trkpt lat="45.41402" lon="5.6902">
        <ele>591</ele>
        <time>2011-01-23T11:41:35Z</time>
      </trkpt>
      <trkpt lat="45.41394" lon="5.69057">
        <ele>591</ele>
        <time>2011-01-23T11:41:43Z</time>
      </trkpt>
      <trkpt lat="45.41385" lon="5.69094">
        <ele>591</ele>
        <time>2011-01-23T11:41:53Z</time>
      </trkpt>
      <trkpt lat="45.41377" lon="5.69126">
        <ele>591</ele>
        <time>2011-01-23T11:42:02Z</time>
      </trkpt>
      <trkpt lat="45.41371" lon="5.69135">
        <ele>597</ele>
        <time>2011-01-23T12:50:54Z</time>
      </trkpt>
      <trkpt lat="45.41372" lon="5.69133">
        <ele>597</ele>
        <time>2011-01-23T12:51:11Z</time>
      </trkpt>
      <trkpt lat="45.41365" lon="5.69109">
        <ele>596</ele>
        <time>2011-01-23T12:51:19Z</time>
      </trkpt>
      <trkpt lat="45.41354" lon="5.69072">
        <ele>595</ele>
        <time>2011-01-23T12:51:26Z</time>
      </trkpt>
      <trkpt lat="45.41329" lon="5.68998">
        <ele>593</ele>
        <time>2011-01-23T12:51:38Z</time>
      </trkpt>
      <trkpt lat="45.41307" lon="5.68917">
        <ele>592</ele>
        <time>2011-01-23T12:51:49Z</time>
      </trkpt>
      <trkpt lat="45.41293" lon="5.6885">
        <ele>591</ele>
        <time>2011-01-23T12:51:58Z</time>
      </trkpt>
      <trkpt lat="45.41285" lon="5.6878">
        <ele>591</ele>
        <time>2011-01-23T12:52:07Z</time>
      </trkpt>
      <trkpt lat="45.41283" lon="5.6872">
        <ele>590</ele>
        <time>2011-01-23T12:52:15Z</time>
      </trkpt>
      <trkpt lat="45.41289" lon="5.68665">
        <ele>590</ele>
        <time>2011-01-23T12:52:23Z</time>
      </trkpt>
      <trkpt lat="45.41275" lon="5.68627">
        <ele>594</ele>
        <time>2011-01-23T13:05:01Z</time>
      </trkpt>
      <trkpt lat="45.4127" lon="5.6861">
        <ele>595</ele>
        <time>2011-01-23T13:05:07Z</time>
      </trkpt>
      <trkpt lat="45.4127" lon="5.68607">
        <ele>596</ele>
        <time>2011-01-23T13:05:08Z</time>
      </trkpt>
      <trkpt lat="45.41267" lon="5.6858">
        <ele>598</ele>
        <time>2011-01-23T13:05:18Z</time>
      </trkpt>
      <trkpt lat="45.4127" lon="5.68537">
        <ele>601</ele>
        <time>2011-01-23T13:05:35Z</time>
      </trkpt>
      <trkpt lat="45.41268" lon="5.68517">
        <ele>602</ele>
        <time>2011-01-23T13:05:43Z</time>
      </trkpt>
      <trkpt lat="45.41269" lon="5.68495">
        <ele>604</ele>
        <time>2011-01-23T13:05:52Z</time>
      </trkpt>
      <trkpt lat="45.41266" lon="5.68471">
        <ele>604</ele>
        <time>2011-01-23T13:05:59Z</time>
      </trkpt>
      <trkpt lat="45.41263" lon="5.68446">
        <ele>603</ele>
        <time>2011-01-23T13:06:05Z</time>
      </trkpt>
      <trkpt lat="45.41255" lon="5.68412">
        <ele>604</ele>
        <time>2011-01-23T13:06:13Z</time>
      </trkpt>
      <trkpt lat="45.41248" lon="5.68375">
        <ele>603</ele>
        <time>2011-01-23T13:06:21Z</time>
      </trkpt>
      <trkpt lat="45.4124" lon="5.68332">
        <ele>603</ele>
        <time>2011-01-23T13:06:29Z</time>
      </trkpt>
      <trkpt lat="45.41242" lon="5.68304">
        <ele>605</ele>
        <time>2011-01-23T13:06:35Z</time>
      </trkpt>
      <trkpt lat="45.41248" lon="5.68277">
        <ele>607</ele>
        <time>2011-01-23T13:06:42Z</time>
      </trkpt>
      <trkpt lat="45.41254" lon="5.68251">
        <ele>608</ele>
        <time>2011-01-23T13:06:48Z</time>
      </trkpt>
      <trkpt lat="45.41254" lon="5.68247">
        <ele>609</ele>
        <time>2011-01-23T13:06:49Z</time>
      </trkpt>
      <trkpt lat="45.41243" lon="5.68223">
        <ele>610</ele>
        <time>2011-01-23T13:06:55Z</time>
      </trkpt>
      <trkpt lat="45.4122" lon="5.68213">
        <ele>611</ele>
        <time>2011-01-23T13:07:02Z</time>
      </trkpt>
      <trkpt lat="45.41204" lon="5.68195">
        <ele>611</ele>
        <time>2011-01-23T13:07:09Z</time>
      </trkpt>
      <trkpt lat="45.41202" lon="5.68191">
        <ele>610</ele>
        <time>2011-01-23T13:07:10Z</time>
      </trkpt>
      <trkpt lat="45.41188" lon="5.68168">
        <ele>607</ele>
        <time>2011-01-23T13:07:14Z</time>
      </trkpt>
      <trkpt lat="45.41165" lon="5.6813">
        <ele>604</ele>
        <time>2011-01-23T13:07:19Z</time>
      </trkpt>
      <trkpt lat="45.4116" lon="5.68124">
        <ele>604</ele>
        <time>2011-01-23T13:07:20Z</time>
      </trkpt>
      <trkpt lat="45.41147" lon="5.68108">
        <ele>606</ele>
        <time>2011-01-23T13:07:23Z</time>
      </trkpt>
      <trkpt lat="45.4113" lon="5.68075">
        <ele>610</ele>
        <time>2011-01-23T13:07:30Z</time>
      </trkpt>
      <trkpt lat="45.4112" lon="5.68035">
        <ele>610</ele>
        <time>2011-01-23T13:07:38Z</time>
      </trkpt>
      <trkpt lat="45.41111" lon="5.68001">
        <ele>612</ele>
        <time>2011-01-23T13:07:45Z</time>
      </trkpt>
      <trkpt lat="45.411" lon="5.67982">
        <ele>612</ele>
        <time>2011-01-23T13:07:53Z</time>
      </trkpt>
      <trkpt lat="45.41085" lon="5.67967">
        <ele>612</ele>
        <time>2011-01-23T13:07:59Z</time>
      </trkpt>
      <trkpt lat="45.41069" lon="5.67947">
        <ele>612</ele>
        <time>2011-01-23T13:08:05Z</time>
      </trkpt>
      <trkpt lat="45.41064" lon="5.67935">
        <ele>612</ele>
        <time>2011-01-23T13:08:08Z</time>
      </trkpt>
      <trkpt lat="45.41048" lon="5.67945">
        <ele>614</ele>
        <time>2011-01-23T13:08:15Z</time>
      </trkpt>
      <trkpt lat="45.41029" lon="5.67967">
        <ele>617</ele>
        <time>2011-01-23T13:08:25Z</time>
      </trkpt>
      <trkpt lat="45.41014" lon="5.67972">
        <ele>619</ele>
        <time>2011-01-23T13:08:32Z</time>
      </trkpt>
      <trkpt lat="45.40998" lon="5.67991">
        <ele>621</ele>
        <time>2011-01-23T13:08:40Z</time>
      </trkpt>
      <trkpt lat="45.40996" lon="5.68013">
        <ele>623</ele>
        <time>2011-01-23T13:08:47Z</time>
      </trkpt>
      <trkpt lat="45.40994" lon="5.68031">
        <ele>623</ele>
        <time>2011-01-23T13:08:53Z</time>
      </trkpt>
      <trkpt lat="45.4099" lon="5.68071">
        <ele>623</ele>
        <time>2011-01-23T13:09:09Z</time>
      </trkpt>
      <trkpt lat="45.40989" lon="5.68098">
        <ele>619</ele>
        <time>2011-01-23T13:18:07Z</time>
      </trkpt>
      <trkpt lat="45.40981" lon="5.68128">
        <ele>616</ele>
        <time>2011-01-23T13:18:13Z</time>
      </trkpt>
      <trkpt lat="45.4098" lon="5.68134">
        <ele>616</ele>
        <time>2011-01-23T13:18:14Z</time>
      </trkpt>
      <trkpt lat="45.40976" lon="5.68155">
        <ele>614</ele>
        <time>2011-01-23T13:18:17Z</time>
      </trkpt>
      <trkpt lat="45.40971" lon="5.68171">
        <ele>612</ele>
        <time>2011-01-23T13:18:19Z</time>
      </trkpt>
      <trkpt lat="45.40956" lon="5.68195">
        <ele>608</ele>
        <time>2011-01-23T13:18:22Z</time>
      </trkpt>
      <trkpt lat="45.40946" lon="5.68213">
        <ele>607</ele>
        <time>2011-01-23T13:18:24Z</time>
      </trkpt>
      <trkpt lat="45.40921" lon="5.68263">
        <ele>607</ele>
        <time>2011-01-23T13:18:30Z</time>
      </trkpt>
      <trkpt lat="45.40906" lon="5.68295">
        <ele>609</ele>
        <time>2011-01-23T13:18:36Z</time>
      </trkpt>
      <trkpt lat="45.40892" lon="5.68329">
        <ele>609</ele>
        <time>2011-01-23T13:18:45Z</time>
      </trkpt>
      <trkpt lat="45.40873" lon="5.68364">
        <ele>608</ele>
        <time>2011-01-23T13:18:53Z</time>
      </trkpt>
      <trkpt lat="45.4086" lon="5.68387">
        <ele>609</ele>
        <time>2011-01-23T13:19:00Z</time>
      </trkpt>
      <trkpt lat="45.40844" lon="5.6841">
        <ele>608</ele>
        <time>2011-01-23T13:19:07Z</time>
      </trkpt>
      <trkpt lat="45.40816" lon="5.68453">
        <ele>607</ele>
        <time>2011-01-23T13:19:16Z</time>
      </trkpt>
      <trkpt lat="45.40788" lon="5.68491">
        <ele>608</ele>
        <time>2011-01-23T13:19:25Z</time>
      </trkpt>
      <trkpt lat="45.4076" lon="5.68518">
        <ele>609</ele>
        <time>2011-01-23T13:19:34Z</time>
      </trkpt>
      <trkpt lat="45.40737" lon="5.6854">
        <ele>610</ele>
        <time>2011-01-23T13:19:43Z</time>
      </trkpt>
      <trkpt lat="45.40727" lon="5.68536">
        <ele>610</ele>
        <time>2011-01-23T13:19:47Z</time>
      </trkpt>
      <trkpt lat="45.40724" lon="5.68528">
        <ele>610</ele>
        <time>2011-01-23T13:19:49Z</time>
      </trkpt>
      <trkpt lat="45.40714" lon="5.68488">
        <ele>609</ele>
        <time>2011-01-23T13:19:57Z</time>
      </trkpt>
      <trkpt lat="45.40701" lon="5.68458">
        <ele>608</ele>
        <time>2011-01-23T13:20:03Z</time>
      </trkpt>
      <trkpt lat="45.40694" lon="5.68444">
        <ele>607</ele>
        <time>2011-01-23T13:20:06Z</time>
      </trkpt>
      <trkpt lat="45.40681" lon="5.6843">
        <ele>606</ele>
        <time>2011-01-23T13:20:09Z</time>
      </trkpt>
      <trkpt lat="45.40653" lon="5.68405">
        <ele>606</ele>
        <time>2011-01-23T13:20:14Z</time>
      </trkpt>
      <trkpt lat="45.40617" lon="5.68385">
        <ele>606</ele>
        <time>2011-01-23T13:20:21Z</time>
      </trkpt>
      <trkpt lat="45.40603" lon="5.68374">
        <ele>606</ele>
        <time>2011-01-23T13:20:24Z</time>
      </trkpt>
      <trkpt lat="45.40576" lon="5.68353">
        <ele>605</ele>
        <time>2011-01-23T13:20:30Z</time>
      </trkpt>
      <trkpt lat="45.40562" lon="5.68348">
        <ele>606</ele>
        <time>2011-01-23T13:20:33Z</time>
      </trkpt>
      <trkpt lat="45.40529" lon="5.68334">
        <ele>605</ele>
        <time>2011-01-23T13:20:40Z</time>
      </trkpt>
      <trkpt lat="45.40507" lon="5.68328">
        <ele>605</ele>
        <time>2011-01-23T13:20:45Z</time>
      </trkpt>
      <trkpt lat="45.40489" lon="5.68321">
        <ele>605</ele>
        <time>2011-01-23T13:20:49Z</time>
      </trkpt>
      <trkpt lat="45.40471" lon="5.68307">
        <ele>604</ele>
        <time>2011-01-23T13:20:54Z</time>
      </trkpt>
      <trkpt lat="45.40457" lon="5.68294">
        <ele>604</ele>
        <time>2011-01-23T13:20:57Z</time>
      </trkpt>
      <trkpt lat="45.40442" lon="5.68279">
        <ele>602</ele>
        <time>2011-01-23T13:21:00Z</time>
      </trkpt>
      <trkpt lat="45.40387" lon="5.68242">
        <ele>600</ele>
        <time>2011-01-23T13:21:09Z</time>
      </trkpt>
      <trkpt lat="45.40357" lon="5.6823">
        <ele>599</ele>
        <time>2011-01-23T13:21:14Z</time>
      </trkpt>
      <trkpt lat="45.40324" lon="5.68225">
        <ele>599</ele>
        <time>2011-01-23T13:21:21Z</time>
      </trkpt>
      <trkpt lat="45.4032" lon="5.68224">
        <ele>599</ele>
        <time>2011-01-23T13:21:22Z</time>
      </trkpt>
      <trkpt lat="45.40306" lon="5.6822">
        <ele>598</ele>
        <time>2011-01-23T13:21:25Z</time>
      </trkpt>
      <trkpt lat="45.4028" lon="5.68202">
        <ele>597</ele>
        <time>2011-01-23T13:21:31Z</time>
      </trkpt>
      <trkpt lat="45.40273" lon="5.68196">
        <ele>597</ele>
        <time>2011-01-23T13:21:32Z</time>
      </trkpt>
      <trkpt lat="45.40264" lon="5.6819">
        <ele>596</ele>
        <time>2011-01-23T13:21:34Z</time>
      </trkpt>
      <trkpt lat="45.40235" lon="5.68167">
        <ele>593</ele>
        <time>2011-01-23T13:21:40Z</time>
      </trkpt>
      <trkpt lat="45.40203" lon="5.68144">
        <ele>588</ele>
        <time>2011-01-23T13:21:46Z</time>
      </trkpt>
      <trkpt lat="45.40185" lon="5.68135">
        <ele>585</ele>
        <time>2011-01-23T13:21:49Z</time>
      </trkpt>
      <trkpt lat="45.4014" lon="5.68126">
        <ele>580</ele>
        <time>2011-01-23T13:21:55Z</time>
      </trkpt>
      <trkpt lat="45.40124" lon="5.68121">
        <ele>579</ele>
        <time>2011-01-23T13:21:57Z</time>
      </trkpt>
      <trkpt lat="45.40086" lon="5.68098">
        <ele>578</ele>
        <time>2011-01-23T13:22:03Z</time>
      </trkpt>
      <trkpt lat="45.40079" lon="5.68095">
        <ele>578</ele>
        <time>2011-01-23T13:22:04Z</time>
      </trkpt>
      <trkpt lat="45.40052" lon="5.68075">
        <ele>577</ele>
        <time>2011-01-23T13:22:09Z</time>
      </trkpt>
      <trkpt lat="45.40032" lon="5.68067">
        <ele>578</ele>
        <time>2011-01-23T13:22:13Z</time>
      </trkpt>
      <trkpt lat="45.40016" lon="5.68059">
        <ele>578</ele>
        <time>2011-01-23T13:22:17Z</time>
      </trkpt>
      <trkpt lat="45.4" lon="5.68026">
        <ele>578</ele>
        <time>2011-01-23T13:22:30Z</time>
      </trkpt>
      <trkpt lat="45.39987" lon="5.68006">
        <ele>578</ele>
        <time>2011-01-23T13:22:39Z</time>
      </trkpt>
      <trkpt lat="45.39976" lon="5.67987">
        <ele>579</ele>
        <time>2011-01-23T13:22:45Z</time>
      </trkpt>
      <trkpt lat="45.39961" lon="5.67967">
        <ele>578</ele>
        <time>2011-01-23T13:22:52Z</time>
      </trkpt>
      <trkpt lat="45.39943" lon="5.67945">
        <ele>579</ele>
        <time>2011-01-23T13:22:58Z</time>
      </trkpt>
      <trkpt lat="45.39933" lon="5.6793">
        <ele>580</ele>
        <time>2011-01-23T13:23:03Z</time>
      </trkpt>
      <trkpt lat="45.39926" lon="5.67922">
        <ele>580</ele>
        <time>2011-01-23T13:23:19Z</time>
      </trkpt>
      <trkpt lat="45.39917" lon="5.67911">
        <ele>580</ele>
        <time>2011-01-23T13:23:28Z</time>
      </trkpt>
      <trkpt lat="45.39896" lon="5.67896">
        <ele>578</ele>
        <time>2011-01-23T13:23:36Z</time>
      </trkpt>
      <trkpt lat="45.39873" lon="5.67876">
        <ele>577</ele>
        <time>2011-01-23T13:25:14Z</time>
      </trkpt>
      <trkpt lat="45.39859" lon="5.67862">
        <ele>574</ele>
        <time>2011-01-23T13:25:19Z</time>
      </trkpt>
      <trkpt lat="45.39848" lon="5.67844">
        <ele>574</ele>
        <time>2011-01-23T13:25:23Z</time>
      </trkpt>
      <trkpt lat="45.39823" lon="5.67784">
        <ele>573</ele>
        <time>2011-01-23T13:25:31Z</time>
      </trkpt>
      <trkpt lat="45.39813" lon="5.67763">
        <ele>572</ele>
        <time>2011-01-23T13:25:34Z</time>
      </trkpt>
      <trkpt lat="45.39788" lon="5.67725">
        <ele>570</ele>
        <time>2011-01-23T13:25:40Z</time>
      </trkpt>
      <trkpt lat="45.39766" lon="5.67691">
        <ele>570</ele>
        <time>2011-01-23T13:25:45Z</time>
      </trkpt>
      <trkpt lat="45.39747" lon="5.67658">
        <ele>570</ele>
        <time>2011-01-23T13:25:49Z</time>
      </trkpt>
      <trkpt lat="45.39723" lon="5.67613">
        <ele>571</ele>
        <time>2011-01-23T13:25:56Z</time>
      </trkpt>
      <trkpt lat="45.39711" lon="5.67586">
        <ele>573</ele>
        <time>2011-01-23T13:26:01Z</time>
      </trkpt>
      <trkpt lat="45.3969" lon="5.6757">
        <ele>574</ele>
        <time>2011-01-23T13:26:07Z</time>
      </trkpt>
      <trkpt lat="45.39674" lon="5.67558">
        <ele>573</ele>
        <time>2011-01-23T13:26:33Z</time>
      </trkpt>
      <trkpt lat="45.39652" lon="5.67545">
        <ele>572</ele>
        <time>2011-01-23T13:26:41Z</time>
      </trkpt>
      <trkpt lat="45.39634" lon="5.6753">
        <ele>568</ele>
        <time>2011-01-23T13:26:46Z</time>
      </trkpt>
      <trkpt lat="45.39627" lon="5.67518">
        <ele>567</ele>
        <time>2011-01-23T13:26:48Z</time>
      </trkpt>
      <trkpt lat="45.39613" lon="5.67486">
        <ele>567</ele>
        <time>2011-01-23T13:26:54Z</time>
      </trkpt>
      <trkpt lat="45.39586" lon="5.6746">
        <ele>569</ele>
        <time>2011-01-23T13:28:58Z</time>
      </trkpt>
      <trkpt lat="45.39575" lon="5.67451">
        <ele>571</ele>
        <time>2011-01-23T13:29:05Z</time>
      </trkpt>
      <trkpt lat="45.39559" lon="5.67445">
        <ele>571</ele>
        <time>2011-01-23T13:29:12Z</time>
      </trkpt>
      <trkpt lat="45.39546" lon="5.67437">
        <ele>574</ele>
        <time>2011-01-23T13:29:18Z</time>
      </trkpt>
      <trkpt lat="45.39536" lon="5.67441">
        <ele>575</ele>
        <time>2011-01-23T13:29:23Z</time>
      </trkpt>
      <trkpt lat="45.39526" lon="5.67451">
        <ele>574</ele>
        <time>2011-01-23T13:29:29Z</time>
      </trkpt>
      <trkpt lat="45.39512" lon="5.67467">
        <ele>570</ele>
        <time>2011-01-23T13:29:33Z</time>
      </trkpt>
      <trkpt lat="45.39493" lon="5.67494">
        <ele>573</ele>
        <time>2011-01-23T13:29:43Z</time>
      </trkpt>
      <trkpt lat="45.39491" lon="5.67501">
        <ele>573</ele>
        <time>2011-01-23T13:30:46Z</time>
      </trkpt>
      <trkpt lat="45.39483" lon="5.67522">
        <ele>573</ele>
        <time>2011-01-23T13:30:55Z</time>
      </trkpt>
      <trkpt lat="45.39485" lon="5.6754">
        <ele>573</ele>
        <time>2011-01-23T13:31:01Z</time>
      </trkpt>
      <trkpt lat="45.39499" lon="5.67563">
        <ele>573</ele>
        <time>2011-01-23T13:31:09Z</time>
      </trkpt>
      <trkpt lat="45.3952" lon="5.67582">
        <ele>573</ele>
        <time>2011-01-23T13:31:43Z</time>
      </trkpt>
      <trkpt lat="45.39534" lon="5.676">
        <ele>572</ele>
        <time>2011-01-23T13:31:50Z</time>
      </trkpt>
      <trkpt lat="45.39546" lon="5.67636">
        <ele>574</ele>
        <time>2011-01-23T13:32:04Z</time>
      </trkpt>
      <trkpt lat="45.39554" lon="5.67653">
        <ele>576</ele>
        <time>2011-01-23T13:32:11Z</time>
      </trkpt>
      <trkpt lat="45.39557" lon="5.67659">
        <ele>577</ele>
        <time>2011-01-23T13:32:14Z</time>
      </trkpt>
      <trkpt lat="45.39561" lon="5.67672">
        <ele>579</ele>
        <time>2011-01-23T13:32:20Z</time>
      </trkpt>
      <trkpt lat="45.39562" lon="5.6769">
        <ele>582</ele>
        <time>2011-01-23T13:32:29Z</time>
      </trkpt>
      <trkpt lat="45.39561" lon="5.67714">
        <ele>585</ele>
        <time>2011-01-23T13:32:46Z</time>
      </trkpt>
      <trkpt lat="45.3956" lon="5.67719">
        <ele>585</ele>
        <time>2011-01-23T13:32:49Z</time>
      </trkpt>
      <trkpt lat="45.39561" lon="5.67728">
        <ele>586</ele>
        <time>2011-01-23T13:32:54Z</time>
      </trkpt>
      <trkpt lat="45.39562" lon="5.67774">
        <ele>591</ele>
        <time>2011-01-23T13:33:56Z</time>
      </trkpt>
      <trkpt lat="45.39557" lon="5.67783">
        <ele>595</ele>
        <time>2011-01-23T13:34:26Z</time>
      </trkpt>
      <trkpt lat="45.39549" lon="5.67754">
        <ele>600</ele>
        <time>2011-01-23T13:34:57Z</time>
      </trkpt>
      <trkpt lat="45.39543" lon="5.67742">
        <ele>601</ele>
        <time>2011-01-23T13:35:08Z</time>
      </trkpt>
      <trkpt lat="45.3954" lon="5.67733">
        <ele>603</ele>
        <time>2011-01-23T13:35:18Z</time>
      </trkpt>
      <trkpt lat="45.39536" lon="5.6772">
        <ele>604</ele>
        <time>2011-01-23T13:35:37Z</time>
      </trkpt>
      <trkpt lat="45.39527" lon="5.67694">
        <ele>609</ele>
        <time>2011-01-23T13:36:04Z</time>
      </trkpt>
      <trkpt lat="45.39516" lon="5.67692">
        <ele>612</ele>
        <time>2011-01-23T13:36:22Z</time>
      </trkpt>
      <trkpt lat="45.39516" lon="5.67694">
        <ele>612</ele>
        <time>2011-01-23T13:36:24Z</time>
      </trkpt>
      <trkpt lat="45.39516" lon="5.67721">
        <ele>615</ele>
        <time>2011-01-23T13:36:52Z</time>
      </trkpt>
      <trkpt lat="45.39515" lon="5.67754">
        <ele>618</ele>
        <time>2011-01-23T13:37:15Z</time>
      </trkpt>
      <trkpt lat="45.39518" lon="5.67778">
        <ele>618</ele>
        <time>2011-01-23T13:37:31Z</time>
      </trkpt>
      <trkpt lat="45.39523" lon="5.67799">
        <ele>618</ele>
        <time>2011-01-23T13:37:38Z</time>
      </trkpt>
      <trkpt lat="45.39531" lon="5.67824">
        <ele>618</ele>
        <time>2011-01-23T13:37:46Z</time>
      </trkpt>
      <trkpt lat="45.39532" lon="5.67852">
        <ele>618</ele>
        <time>2011-01-23T13:37:54Z</time>
      </trkpt>
      <trkpt lat="45.39527" lon="5.67868">
        <ele>619</ele>
        <time>2011-01-23T13:38:01Z</time>
      </trkpt>
      <trkpt lat="45.39521" lon="5.67887">
        <ele>619</ele>
        <time>2011-01-23T13:38:07Z</time>
      </trkpt>
      <trkpt lat="45.39518" lon="5.67905">
        <ele>619</ele>
        <time>2011-01-23T13:38:12Z</time>
      </trkpt>
      <trkpt lat="45.39522" lon="5.67931">
        <ele>619</ele>
        <time>2011-01-23T13:38:18Z</time>
      </trkpt>
      <trkpt lat="45.3953" lon="5.6796">
        <ele>618</ele>
        <time>2011-01-23T13:38:25Z</time>
      </trkpt>
      <trkpt lat="45.39535" lon="5.67982">
        <ele>618</ele>
        <time>2011-01-23T13:38:30Z</time>
      </trkpt>
      <trkpt lat="45.39543" lon="5.68001">
        <ele>617</ele>
        <time>2011-01-23T13:38:34Z</time>
      </trkpt>
      <trkpt lat="45.3956" lon="5.68026">
        <ele>615</ele>
        <time>2011-01-23T13:38:40Z</time>
      </trkpt>
      <trkpt lat="45.39566" lon="5.68059">
        <ele>614</ele>
        <time>2011-01-23T13:38:45Z</time>
      </trkpt>
      <trkpt lat="45.39563" lon="5.68112">
        <ele>615</ele>
        <time>2011-01-23T13:38:54Z</time>
      </trkpt>
      <trkpt lat="45.39552" lon="5.68115">
        <ele>616</ele>
        <time>2011-01-23T13:39:42Z</time>
      </trkpt>
      <trkpt lat="45.3954" lon="5.68103">
        <ele>616</ele>
        <time>2011-01-23T13:39:49Z</time>
      </trkpt>
      <trkpt lat="45.39539" lon="5.68101">
        <ele>616</ele>
        <time>2011-01-23T13:39:50Z</time>
      </trkpt>
      <trkpt lat="45.3952" lon="5.68085">
        <ele>616</ele>
        <time>2011-01-23T13:39:58Z</time>
      </trkpt>
      <trkpt lat="45.39516" lon="5.68081">
        <ele>616</ele>
        <time>2011-01-23T13:40:01Z</time>
      </trkpt>
      <trkpt lat="45.39507" lon="5.68072">
        <ele>617</ele>
        <time>2011-01-23T13:40:06Z</time>
      </trkpt>
      <trkpt lat="45.39483" lon="5.68055">
        <ele>619</ele>
        <time>2011-01-23T13:40:19Z</time>
      </trkpt>
      <trkpt lat="45.39471" lon="5.68042">
        <ele>619</ele>
        <time>2011-01-23T13:40:25Z</time>
      </trkpt>
      <trkpt lat="45.39454" lon="5.68028">
        <ele>622</ele>
        <time>2011-01-23T13:40:38Z</time>
      </trkpt>
      <trkpt lat="45.39441" lon="5.68018">
        <ele>622</ele>
        <time>2011-01-23T13:40:46Z</time>
      </trkpt>
      <trkpt lat="45.39418" lon="5.68">
        <ele>623</ele>
        <time>2011-01-23T13:40:59Z</time>
      </trkpt>
      <trkpt lat="45.39406" lon="5.67991">
        <ele>623</ele>
        <time>2011-01-23T13:41:06Z</time>
      </trkpt>
      <trkpt lat="45.39393" lon="5.6798">
        <ele>624</ele>
        <time>2011-01-23T13:41:13Z</time>
      </trkpt>
      <trkpt lat="45.39384" lon="5.67969">
        <ele>624</ele>
        <time>2011-01-23T13:41:18Z</time>
      </trkpt>
      <trkpt lat="45.39356" lon="5.67962">
        <ele>626</ele>
        <time>2011-01-23T13:41:34Z</time>
      </trkpt>
      <trkpt lat="45.39345" lon="5.67958">
        <ele>628</ele>
        <time>2011-01-23T13:41:42Z</time>
      </trkpt>
      <trkpt lat="45.39338" lon="5.6796">
        <ele>629</ele>
        <time>2011-01-23T13:41:47Z</time>
      </trkpt>
      <trkpt lat="45.39326" lon="5.67953">
        <ele>632</ele>
        <time>2011-01-23T13:41:55Z</time>
      </trkpt>
      <trkpt lat="45.39315" lon="5.67933">
        <ele>633</ele>
        <time>2011-01-23T13:42:09Z</time>
      </trkpt>
      <trkpt lat="45.39305" lon="5.67924">
        <ele>633</ele>
        <time>2011-01-23T13:42:17Z</time>
      </trkpt>
      <trkpt lat="45.39296" lon="5.67913">
        <ele>634</ele>
        <time>2011-01-23T13:42:24Z</time>
      </trkpt>
      <trkpt lat="45.39291" lon="5.67908">
        <ele>634</ele>
        <time>2011-01-23T13:42:28Z</time>
      </trkpt>
      <trkpt lat="45.39286" lon="5.67901">
        <ele>634</ele>
        <time>2011-01-23T13:42:32Z</time>
      </trkpt>
      <trkpt lat="45.39277" lon="5.67888">
        <ele>635</ele>
        <time>2011-01-23T13:42:41Z</time>
      </trkpt>
      <trkpt lat="45.39269" lon="5.67871">
        <ele>636</ele>
        <time>2011-01-23T13:42:49Z</time>
      </trkpt>
      <trkpt lat="45.39261" lon="5.67849">
        <ele>638</ele>
        <time>2011-01-23T13:42:59Z</time>
      </trkpt>
      <trkpt lat="45.3926" lon="5.67832">
        <ele>639</ele>
        <time>2011-01-23T13:43:06Z</time>
      </trkpt>
      <trkpt lat="45.39236" lon="5.67788">
        <ele>641</ele>
        <time>2011-01-23T13:43:39Z</time>
      </trkpt>
      <trkpt lat="45.39226" lon="5.67775">
        <ele>643</ele>
        <time>2011-01-23T13:43:48Z</time>
      </trkpt>
      <trkpt lat="45.39213" lon="5.67743">
        <ele>649</ele>
        <time>2011-01-23T13:44:12Z</time>
      </trkpt>
      <trkpt lat="45.39213" lon="5.67723">
        <ele>650</ele>
        <time>2011-01-23T13:44:23Z</time>
      </trkpt>
      <trkpt lat="45.3921" lon="5.67708">
        <ele>649</ele>
        <time>2011-01-23T13:44:32Z</time>
      </trkpt>
      <trkpt lat="45.39201" lon="5.67687">
        <ele>648</ele>
        <time>2011-01-23T13:44:40Z</time>
      </trkpt>
      <trkpt lat="45.39191" lon="5.67669">
        <ele>645</ele>
        <time>2011-01-23T13:44:45Z</time>
      </trkpt>
      <trkpt lat="45.39189" lon="5.67667">
        <ele>645</ele>
        <time>2011-01-23T13:44:46Z</time>
      </trkpt>
      <trkpt lat="45.39181" lon="5.67648">
        <ele>646</ele>
        <time>2011-01-23T13:44:51Z</time>
      </trkpt>
      <trkpt lat="45.39171" lon="5.67635">
        <ele>645</ele>
        <time>2011-01-23T13:45:04Z</time>
      </trkpt>
      <trkpt lat="45.39156" lon="5.67643">
        <ele>645</ele>
        <time>2011-01-23T13:47:46Z</time>
      </trkpt>
      <trkpt lat="45.39147" lon="5.67634">
        <ele>645</ele>
        <time>2011-01-23T13:47:54Z</time>
      </trkpt>
      <trkpt lat="45.39143" lon="5.67623">
        <ele>645</ele>
        <time>2011-01-23T13:48:01Z</time>
      </trkpt>
      <trkpt lat="45.39139" lon="5.67599">
        <ele>646</ele>
        <time>2011-01-23T13:48:12Z</time>
      </trkpt>
      <trkpt lat="45.39133" lon="5.67578">
        <ele>647</ele>
        <time>2011-01-23T13:48:24Z</time>
      </trkpt>
      <trkpt lat="45.39127" lon="5.67557">
        <ele>650</ele>
        <time>2011-01-23T13:48:39Z</time>
      </trkpt>
      <trkpt lat="45.39121" lon="5.67547">
        <ele>651</ele>
        <time>2011-01-23T13:48:46Z</time>
      </trkpt>
      <trkpt lat="45.39109" lon="5.6754">
        <ele>652</ele>
        <time>2011-01-23T13:49:02Z</time>
      </trkpt>
      <trkpt lat="45.39099" lon="5.67535">
        <ele>652</ele>
        <time>2011-01-23T13:49:07Z</time>
      </trkpt>
      <trkpt lat="45.39084" lon="5.6753">
        <ele>652</ele>
        <time>2011-01-23T13:49:15Z</time>
      </trkpt>
      <trkpt lat="45.39067" lon="5.67532">
        <ele>654</ele>
        <time>2011-01-23T13:49:27Z</time>
      </trkpt>
      <trkpt lat="45.39064" lon="5.67537">
        <ele>655</ele>
        <time>2011-01-23T13:49:30Z</time>
      </trkpt>
      <trkpt lat="45.39059" lon="5.67552">
        <ele>656</ele>
        <time>2011-01-23T13:49:38Z</time>
      </trkpt>
      <trkpt lat="45.39051" lon="5.67569">
        <ele>657</ele>
        <time>2011-01-23T13:49:49Z</time>
      </trkpt>
      <trkpt lat="45.39039" lon="5.67566">
        <ele>658</ele>
        <time>2011-01-23T13:49:57Z</time>
      </trkpt>
      <trkpt lat="45.3903" lon="5.67558">
        <ele>658</ele>
        <time>2011-01-23T13:50:04Z</time>
      </trkpt>
      <trkpt lat="45.39026" lon="5.67548">
        <ele>659</ele>
        <time>2011-01-23T13:50:11Z</time>
      </trkpt>
      <trkpt lat="45.39021" lon="5.67537">
        <ele>660</ele>
        <time>2011-01-23T13:50:17Z</time>
      </trkpt>
      <trkpt lat="45.39012" lon="5.67529">
        <ele>661</ele>
        <time>2011-01-23T13:50:27Z</time>
      </trkpt>
      <trkpt lat="45.39008" lon="5.67519">
        <ele>661</ele>
        <time>2011-01-23T13:50:32Z</time>
      </trkpt>
      <trkpt lat="45.38998" lon="5.67512">
        <ele>662</ele>
        <time>2011-01-23T13:50:40Z</time>
      </trkpt>
      <trkpt lat="45.38986" lon="5.67508">
        <ele>664</ele>
        <time>2011-01-23T13:50:47Z</time>
      </trkpt>
      <trkpt lat="45.38975" lon="5.67502">
        <ele>665</ele>
        <time>2011-01-23T13:50:56Z</time>
      </trkpt>
      <trkpt lat="45.38964" lon="5.675">
        <ele>667</ele>
        <time>2011-01-23T13:51:06Z</time>
      </trkpt>
      <trkpt lat="45.38952" lon="5.67494">
        <ele>668</ele>
        <time>2011-01-23T13:51:14Z</time>
      </trkpt>
      <trkpt lat="45.38944" lon="5.67491">
        <ele>668</ele>
        <time>2011-01-23T13:51:22Z</time>
      </trkpt>
      <trkpt lat="45.38926" lon="5.67486">
        <ele>668</ele>
        <time>2011-01-23T13:51:30Z</time>
      </trkpt>
      <trkpt lat="45.38904" lon="5.67472">
        <ele>667</ele>
        <time>2011-01-23T13:51:39Z</time>
      </trkpt>
      <trkpt lat="45.38892" lon="5.67456">
        <ele>667</ele>
        <time>2011-01-23T13:51:45Z</time>
      </trkpt>
      <trkpt lat="45.38889" lon="5.67452">
        <ele>668</ele>
        <time>2011-01-23T13:51:47Z</time>
      </trkpt>
      <trkpt lat="45.38877" lon="5.67435">
        <ele>668</ele>
        <time>2011-01-23T13:51:54Z</time>
      </trkpt>
      <trkpt lat="45.38875" lon="5.67433">
        <ele>668</ele>
        <time>2011-01-23T13:51:55Z</time>
      </trkpt>
      <trkpt lat="45.38861" lon="5.67419">
        <ele>669</ele>
        <time>2011-01-23T13:52:03Z</time>
      </trkpt>
      <trkpt lat="45.38854" lon="5.67402">
        <ele>668</ele>
        <time>2011-01-23T13:52:08Z</time>
      </trkpt>
      <trkpt lat="45.38841" lon="5.67376">
        <ele>665</ele>
        <time>2011-01-23T13:52:13Z</time>
      </trkpt>
      <trkpt lat="45.38832" lon="5.67343">
        <ele>666</ele>
        <time>2011-01-23T13:52:19Z</time>
      </trkpt>
      <trkpt lat="45.38827" lon="5.67326">
        <ele>666</ele>
        <time>2011-01-23T13:52:25Z</time>
      </trkpt>
      <trkpt lat="45.38825" lon="5.67323">
        <ele>665</ele>
        <time>2011-01-23T13:52:41Z</time>
      </trkpt>
      <trkpt lat="45.38824" lon="5.67322">
        <ele>666</ele>
        <time>2011-01-23T13:56:30Z</time>
      </trkpt>
      <trkpt lat="45.3882" lon="5.67317">
        <ele>666</ele>
        <time>2011-01-23T13:56:39Z</time>
      </trkpt>
      <trkpt lat="45.38815" lon="5.67311">
        <ele>667</ele>
        <time>2011-01-23T13:56:47Z</time>
      </trkpt>
      <trkpt lat="45.38813" lon="5.67309">
        <ele>667</ele>
        <time>2011-01-23T13:56:50Z</time>
      </trkpt>
      <trkpt lat="45.38808" lon="5.673">
        <ele>668</ele>
        <time>2011-01-23T13:56:58Z</time>
      </trkpt>
      <trkpt lat="45.38807" lon="5.673">
        <ele>668</ele>
        <time>2011-01-23T13:56:59Z</time>
      </trkpt>
      <trkpt lat="45.38803" lon="5.67293">
        <ele>668</ele>
        <time>2011-01-23T13:57:08Z</time>
      </trkpt>
      <trkpt lat="45.38804" lon="5.67292">
        <ele>668</ele>
        <time>2011-01-23T13:57:21Z</time>
      </trkpt>
      <trkpt lat="45.38803" lon="5.67289">
        <ele>668</ele>
        <time>2011-01-23T13:57:29Z</time>
      </trkpt>
      <trkpt lat="45.38803" lon="5.67286">
        <ele>668</ele>
        <time>2011-01-23T13:57:37Z</time>
      </trkpt>
      <trkpt lat="45.38799" lon="5.67284">
        <ele>668</ele>
        <time>2011-01-23T13:57:44Z</time>
      </trkpt>
      <trkpt lat="45.38795" lon="5.67286">
        <ele>668</ele>
        <time>2011-01-23T13:57:52Z</time>
      </trkpt>
      <trkpt lat="45.38793" lon="5.67284">
        <ele>668</ele>
        <time>2011-01-23T13:57:59Z</time>
      </trkpt>
      <trkpt lat="45.38777" lon="5.67278">
        <ele>665</ele>
        <time>2011-01-23T13:58:06Z</time>
      </trkpt>
      <trkpt lat="45.38764" lon="5.67279">
        <ele>663</ele>
        <time>2011-01-23T13:58:12Z</time>
      </trkpt>
      <trkpt lat="45.38762" lon="5.67278">
        <ele>662</ele>
        <time>2011-01-23T14:00:54Z</time>
      </trkpt>
      <trkpt lat="45.38754" lon="5.67256">
        <ele>660</ele>
        <time>2011-01-23T14:01:01Z</time>
      </trkpt>
      <trkpt lat="45.38758" lon="5.67241">
        <ele>659</ele>
        <time>2011-01-23T14:01:05Z</time>
      </trkpt>
      <trkpt lat="45.38758" lon="5.67238">
        <ele>659</ele>
        <time>2011-01-23T14:01:06Z</time>
      </trkpt>
      <trkpt lat="45.3876" lon="5.67222">
        <ele>655</ele>
        <time>2011-01-23T14:01:11Z</time>
      </trkpt>
      <trkpt lat="45.38755" lon="5.67204">
        <ele>651</ele>
        <time>2011-01-23T14:01:15Z</time>
      </trkpt>
      <trkpt lat="45.38749" lon="5.67187">
        <ele>651</ele>
        <time>2011-01-23T14:01:20Z</time>
      </trkpt>
      <trkpt lat="45.38749" lon="5.67184">
        <ele>651</ele>
        <time>2011-01-23T14:02:55Z</time>
      </trkpt>
      <trkpt lat="45.3875" lon="5.67161">
        <ele>648</ele>
        <time>2011-01-23T14:03:02Z</time>
      </trkpt>
      <trkpt lat="45.38751" lon="5.67149">
        <ele>647</ele>
        <time>2011-01-23T14:03:04Z</time>
      </trkpt>
      <trkpt lat="45.38758" lon="5.67137">
        <ele>647</ele>
        <time>2011-01-23T14:03:08Z</time>
      </trkpt>
      <trkpt lat="45.3876" lon="5.67136">
        <ele>647</ele>
        <time>2011-01-23T14:03:09Z</time>
      </trkpt>
      <trkpt lat="45.38772" lon="5.67133">
        <ele>646</ele>
        <time>2011-01-23T14:03:15Z</time>
      </trkpt>
      <trkpt lat="45.38788" lon="5.6713">
        <ele>646</ele>
        <time>2011-01-23T14:03:20Z</time>
      </trkpt>
      <trkpt lat="45.38799" lon="5.67131">
        <ele>647</ele>
        <time>2011-01-23T14:03:26Z</time>
      </trkpt>
      <trkpt lat="45.38811" lon="5.67129">
        <ele>648</ele>
        <time>2011-01-23T14:03:33Z</time>
      </trkpt>
      <trkpt lat="45.38827" lon="5.67131">
        <ele>648</ele>
        <time>2011-01-23T14:03:39Z</time>
      </trkpt>
      <trkpt lat="45.38843" lon="5.67133">
        <ele>647</ele>
        <time>2011-01-23T14:03:46Z</time>
      </trkpt>
      <trkpt lat="45.38854" lon="5.67131">
        <ele>647</ele>
        <time>2011-01-23T14:03:53Z</time>
      </trkpt>
      <trkpt lat="45.38858" lon="5.67131">
        <ele>648</ele>
        <time>2011-01-23T14:03:57Z</time>
      </trkpt>
      <trkpt lat="45.38861" lon="5.67119">
        <ele>648</ele>
        <time>2011-01-23T14:04:04Z</time>
      </trkpt>
      <trkpt lat="45.38867" lon="5.6711">
        <ele>650</ele>
        <time>2011-01-23T14:04:10Z</time>
      </trkpt>
      <trkpt lat="45.38874" lon="5.67097">
        <ele>650</ele>
        <time>2011-01-23T14:04:19Z</time>
      </trkpt>
      <trkpt lat="45.38876" lon="5.67087">
        <ele>648</ele>
        <time>2011-01-23T14:04:22Z</time>
      </trkpt>
      <trkpt lat="45.3888" lon="5.67071">
        <ele>645</ele>
        <time>2011-01-23T14:04:26Z</time>
      </trkpt>
      <trkpt lat="45.38884" lon="5.67051">
        <ele>643</ele>
        <time>2011-01-23T14:04:28Z</time>
      </trkpt>
      <trkpt lat="45.389" lon="5.67015">
        <ele>644</ele>
        <time>2011-01-23T14:04:35Z</time>
      </trkpt>
      <trkpt lat="45.38904" lon="5.67005">
        <ele>641</ele>
        <time>2011-01-23T14:04:42Z</time>
      </trkpt>
      <trkpt lat="45.38906" lon="5.67002">
        <ele>639</ele>
        <time>2011-01-23T14:04:46Z</time>
      </trkpt>
      <trkpt lat="45.38909" lon="5.66996">
        <ele>638</ele>
        <time>2011-01-23T14:04:50Z</time>
      </trkpt>
      <trkpt lat="45.38914" lon="5.66982">
        <ele>633</ele>
        <time>2011-01-23T14:04:56Z</time>
      </trkpt>
      <trkpt lat="45.38911" lon="5.66974">
        <ele>632</ele>
        <time>2011-01-23T14:04:59Z</time>
      </trkpt>
      <trkpt lat="45.38907" lon="5.66962">
        <ele>628</ele>
        <time>2011-01-23T14:05:03Z</time>
      </trkpt>
      <trkpt lat="45.38901" lon="5.66947">
        <ele>626</ele>
        <time>2011-01-23T14:05:09Z</time>
      </trkpt>
      <trkpt lat="45.389" lon="5.66945">
        <ele>621</ele>
        <time>2011-01-23T14:05:36Z</time>
      </trkpt>
      <trkpt lat="45.389" lon="5.66945">
        <ele>621</ele>
        <time>2011-01-23T14:05:37Z</time>
      </trkpt>
      <trkpt lat="45.389" lon="5.66945">
        <ele>630</ele>
        <time>2011-01-23T14:05:38Z</time>
      </trkpt>
      <trkpt lat="45.389" lon="5.66945">
        <ele>628</ele>
        <time>2011-01-23T14:05:39Z</time>
      </trkpt>
      <trkpt lat="45.389" lon="5.66945">
        <ele>626</ele>
        <time>2011-01-23T14:05:41Z</time>
      </trkpt>
      <trkpt lat="45.38901" lon="5.66945">
        <ele>626</ele>
        <time>2011-01-23T14:09:08Z</time>
      </trkpt>
      <trkpt lat="45.38908" lon="5.66937">
        <ele>624</ele>
        <time>2011-01-23T14:09:16Z</time>
      </trkpt>
      <trkpt lat="45.38912" lon="5.66934">
        <ele>623</ele>
        <time>2011-01-23T14:09:20Z</time>
      </trkpt>
      <trkpt lat="45.38922" lon="5.66926">
        <ele>620</ele>
        <time>2011-01-23T14:09:27Z</time>
      </trkpt>
      <trkpt lat="45.38928" lon="5.66917">
        <ele>617</ele>
        <time>2011-01-23T14:09:31Z</time>
      </trkpt>
      <trkpt lat="45.3893" lon="5.66912">
        <ele>615</ele>
        <time>2011-01-23T14:09:33Z</time>
      </trkpt>
      <trkpt lat="45.38933" lon="5.66904">
        <ele>612</ele>
        <time>2011-01-23T14:09:38Z</time>
      </trkpt>
      <trkpt lat="45.38929" lon="5.66892">
        <ele>608</ele>
        <time>2011-01-23T14:09:42Z</time>
      </trkpt>
      <trkpt lat="45.38926" lon="5.66886">
        <ele>607</ele>
        <time>2011-01-23T14:09:45Z</time>
      </trkpt>
      <trkpt lat="45.3892" lon="5.66873">
        <ele>603</ele>
        <time>2011-01-23T14:09:49Z</time>
      </trkpt>
      <trkpt lat="45.38918" lon="5.66869">
        <ele>603</ele>
        <time>2011-01-23T14:09:50Z</time>
      </trkpt>
      <trkpt lat="45.38905" lon="5.66857">
        <ele>599</ele>
        <time>2011-01-23T14:09:56Z</time>
      </trkpt>
      <trkpt lat="45.38898" lon="5.66849">
        <ele>597</ele>
        <time>2011-01-23T14:10:00Z</time>
      </trkpt>
      <trkpt lat="45.38892" lon="5.66842">
        <ele>593</ele>
        <time>2011-01-23T14:10:03Z</time>
      </trkpt>
      <trkpt lat="45.38884" lon="5.66824">
        <ele>589</ele>
        <time>2011-01-23T14:10:08Z</time>
      </trkpt>
      <trkpt lat="45.38877" lon="5.66816">
        <ele>587</ele>
        <time>2011-01-23T14:10:11Z</time>
      </trkpt>
      <trkpt lat="45.38871" lon="5.66808">
        <ele>585</ele>
        <time>2011-01-23T14:10:14Z</time>
      </trkpt>
      <trkpt lat="45.38861" lon="5.66798">
        <ele>583</ele>
        <time>2011-01-23T14:10:16Z</time>
      </trkpt>
      <trkpt lat="45.38853" lon="5.66793">
        <ele>582</ele>
        <time>2011-01-23T14:10:18Z</time>
      </trkpt>
      <trkpt lat="45.38837" lon="5.66781">
        <ele>581</ele>
        <time>2011-01-23T14:10:21Z</time>
      </trkpt>
      <trkpt lat="45.38831" lon="5.66777">
        <ele>581</ele>
        <time>2011-01-23T14:10:22Z</time>
      </trkpt>
      <trkpt lat="45.38821" lon="5.66772">
        <ele>581</ele>
        <time>2011-01-23T14:10:24Z</time>
      </trkpt>
      <trkpt lat="45.38799" lon="5.66765">
        <ele>577</ele>
        <time>2011-01-23T14:10:29Z</time>
      </trkpt>
      <trkpt lat="45.38796" lon="5.66761">
        <ele>576</ele>
        <time>2011-01-23T14:10:30Z</time>
      </trkpt>
      <trkpt lat="45.38782" lon="5.66749">
        <ele>576</ele>
        <time>2011-01-23T14:10:33Z</time>
      </trkpt>
      <trkpt lat="45.38774" lon="5.66745">
        <ele>575</ele>
        <time>2011-01-23T14:10:35Z</time>
      </trkpt>
      <trkpt lat="45.3876" lon="5.66732">
        <ele>571</ele>
        <time>2011-01-23T14:10:38Z</time>
      </trkpt>
      <trkpt lat="45.38734" lon="5.66721">
        <ele>567</ele>
        <time>2011-01-23T14:10:44Z</time>
      </trkpt>
      <trkpt lat="45.3872" lon="5.66721">
        <ele>566</ele>
        <time>2011-01-23T14:10:49Z</time>
      </trkpt>
      <trkpt lat="45.38704" lon="5.66708">
        <ele>563</ele>
        <time>2011-01-23T14:10:54Z</time>
      </trkpt>
      <trkpt lat="45.38694" lon="5.667">
        <ele>562</ele>
        <time>2011-01-23T14:10:58Z</time>
      </trkpt>
      <trkpt lat="45.38681" lon="5.66696">
        <ele>559</ele>
        <time>2011-01-23T14:11:03Z</time>
      </trkpt>
      <trkpt lat="45.38676" lon="5.66692">
        <ele>555</ele>
        <time>2011-01-23T14:11:06Z</time>
      </trkpt>
      <trkpt lat="45.3867" lon="5.66686">
        <ele>554</ele>
        <time>2011-01-23T14:11:08Z</time>
      </trkpt>
      <trkpt lat="45.38659" lon="5.66672">
        <ele>550</ele>
        <time>2011-01-23T14:11:12Z</time>
      </trkpt>
      <trkpt lat="45.38646" lon="5.66657">
        <ele>546</ele>
        <time>2011-01-23T14:11:16Z</time>
      </trkpt>
      <trkpt lat="45.38639" lon="5.66652">
        <ele>545</ele>
        <time>2011-01-23T14:11:18Z</time>
      </trkpt>
      <trkpt lat="45.38628" lon="5.66644">
        <ele>541</ele>
        <time>2011-01-23T14:11:21Z</time>
      </trkpt>
      <trkpt lat="45.38619" lon="5.66634">
        <ele>538</ele>
        <time>2011-01-23T14:11:24Z</time>
      </trkpt>
      <trkpt lat="45.38611" lon="5.66626">
        <ele>535</ele>
        <time>2011-01-23T14:11:27Z</time>
      </trkpt>
      <trkpt lat="45.38609" lon="5.66622">
        <ele>535</ele>
        <time>2011-01-23T14:11:28Z</time>
      </trkpt>
      <trkpt lat="45.386" lon="5.66609">
        <ele>531</ele>
        <time>2011-01-23T14:11:31Z</time>
      </trkpt>
      <trkpt lat="45.3859" lon="5.66591">
        <ele>527</ele>
        <time>2011-01-23T14:11:35Z</time>
      </trkpt>
      <trkpt lat="45.3858" lon="5.6658">
        <ele>524</ele>
        <time>2011-01-23T14:11:38Z</time>
      </trkpt>
      <trkpt lat="45.38561" lon="5.66565">
        <ele>520</ele>
        <time>2011-01-23T14:11:43Z</time>
      </trkpt>
      <trkpt lat="45.38554" lon="5.66558">
        <ele>517</ele>
        <time>2011-01-23T14:11:46Z</time>
      </trkpt>
      <trkpt lat="45.38547" lon="5.66546">
        <ele>513</ele>
        <time>2011-01-23T14:11:50Z</time>
      </trkpt>
      <trkpt lat="45.38538" lon="5.66537">
        <ele>510</ele>
        <time>2011-01-23T14:11:54Z</time>
      </trkpt>
      <trkpt lat="45.3853" lon="5.66529">
        <ele>506</ele>
        <time>2011-01-23T14:11:57Z</time>
      </trkpt>
      <trkpt lat="45.38524" lon="5.66516">
        <ele>503</ele>
        <time>2011-01-23T14:12:00Z</time>
      </trkpt>
      <trkpt lat="45.38515" lon="5.66502">
        <ele>500</ele>
        <time>2011-01-23T14:12:03Z</time>
      </trkpt>
      <trkpt lat="45.38506" lon="5.66485">
        <ele>496</ele>
        <time>2011-01-23T14:12:07Z</time>
      </trkpt>
      <trkpt lat="45.385" lon="5.66473">
        <ele>493</ele>
        <time>2011-01-23T14:12:10Z</time>
      </trkpt>
      <trkpt lat="45.38493" lon="5.66459">
        <ele>488</ele>
        <time>2011-01-23T14:12:13Z</time>
      </trkpt>
      <trkpt lat="45.38485" lon="5.66435">
        <ele>483</ele>
        <time>2011-01-23T14:12:17Z</time>
      </trkpt>
      <trkpt lat="45.38481" lon="5.66428">
        <ele>482</ele>
        <time>2011-01-23T14:12:18Z</time>
      </trkpt>
      <trkpt lat="45.38472" lon="5.66395">
        <ele>479</ele>
        <time>2011-01-23T14:12:22Z</time>
      </trkpt>
      <trkpt lat="45.38471" lon="5.66384">
        <ele>477</ele>
        <time>2011-01-23T14:12:24Z</time>
      </trkpt>
      <trkpt lat="45.38461" lon="5.66361">
        <ele>473</ele>
        <time>2011-01-23T14:12:28Z</time>
      </trkpt>
      <trkpt lat="45.38471" lon="5.66338">
        <ele>469</ele>
        <time>2011-01-23T14:12:34Z</time>
      </trkpt>
      <trkpt lat="45.3848" lon="5.66322">
        <ele>465</ele>
        <time>2011-01-23T14:12:39Z</time>
      </trkpt>
      <trkpt lat="45.38482" lon="5.66316">
        <ele>464</ele>
        <time>2011-01-23T14:12:41Z</time>
      </trkpt>
      <trkpt lat="45.38487" lon="5.66313">
        <ele>464</ele>
        <time>2011-01-23T14:12:48Z</time>
      </trkpt>
      <trkpt lat="45.38487" lon="5.66317">
        <ele>467</ele>
        <time>2011-01-23T14:18:56Z</time>
      </trkpt>
      <trkpt lat="45.38487" lon="5.66314">
        <ele>467</ele>
        <time>2011-01-23T14:19:03Z</time>
      </trkpt>
      <trkpt lat="45.38495" lon="5.66304">
        <ele>464</ele>
        <time>2011-01-23T14:19:07Z</time>
      </trkpt>
      <trkpt lat="45.38511" lon="5.66286">
        <ele>460</ele>
        <time>2011-01-23T14:19:11Z</time>
      </trkpt>
      <trkpt lat="45.38533" lon="5.66253">
        <ele>454</ele>
        <time>2011-01-23T14:19:15Z</time>
      </trkpt>
      <trkpt lat="45.38539" lon="5.66244">
        <ele>453</ele>
        <time>2011-01-23T14:19:16Z</time>
      </trkpt>
      <trkpt lat="45.3855" lon="5.66223">
        <ele>452</ele>
        <time>2011-01-23T14:19:18Z</time>
      </trkpt>
      <trkpt lat="45.38556" lon="5.66182">
        <ele>452</ele>
        <time>2011-01-23T14:19:22Z</time>
      </trkpt>
      <trkpt lat="45.38554" lon="5.66158">
        <ele>450</ele>
        <time>2011-01-23T14:19:25Z</time>
      </trkpt>
      <trkpt lat="45.38555" lon="5.66135">
        <ele>448</ele>
        <time>2011-01-23T14:19:28Z</time>
      </trkpt>
      <trkpt lat="45.38564" lon="5.66114">
        <ele>446</ele>
        <time>2011-01-23T14:19:31Z</time>
      </trkpt>
      <trkpt lat="45.38583" lon="5.66063">
        <ele>444</ele>
        <time>2011-01-23T14:19:37Z</time>
      </trkpt>
      <trkpt lat="45.38575" lon="5.66038">
        <ele>443</ele>
        <time>2011-01-23T14:19:40Z</time>
      </trkpt>
      <trkpt lat="45.38562" lon="5.66008">
        <ele>444</ele>
        <time>2011-01-23T14:19:44Z</time>
      </trkpt>
      <trkpt lat="45.38551" lon="5.65984">
        <ele>445</ele>
        <time>2011-01-23T14:19:49Z</time>
      </trkpt>
      <trkpt lat="45.38542" lon="5.65952">
        <ele>444</ele>
        <time>2011-01-23T14:19:58Z</time>
      </trkpt>
      <trkpt lat="45.38541" lon="5.65946">
        <ele>445</ele>
        <time>2011-01-23T14:20:03Z</time>
      </trkpt>
      <trkpt lat="45.38538" lon="5.65938">
        <ele>445</ele>
        <time>2011-01-23T14:20:45Z</time>
      </trkpt>
      <trkpt lat="45.38532" lon="5.65917">
        <ele>444</ele>
        <time>2011-01-23T14:20:52Z</time>
      </trkpt>
      <trkpt lat="45.38523" lon="5.65876">
        <ele>444</ele>
        <time>2011-01-23T14:21:01Z</time>
      </trkpt>
      <trkpt lat="45.38511" lon="5.65832">
        <ele>444</ele>
        <time>2011-01-23T14:21:10Z</time>
      </trkpt>
      <trkpt lat="45.38491" lon="5.65792">
        <ele>444</ele>
        <time>2011-01-23T14:21:19Z</time>
      </trkpt>
      <trkpt lat="45.38467" lon="5.65751">
        <ele>444</ele>
        <time>2011-01-23T14:21:29Z</time>
      </trkpt>
      <trkpt lat="45.38446" lon="5.65714">
        <ele>445</ele>
        <time>2011-01-23T14:21:37Z</time>
      </trkpt>
      <trkpt lat="45.38413" lon="5.65656">
        <ele>445</ele>
        <time>2011-01-23T14:21:49Z</time>
      </trkpt>
      <trkpt lat="45.38396" lon="5.65623">
        <ele>445</ele>
        <time>2011-01-23T14:21:57Z</time>
      </trkpt>
      <trkpt lat="45.38385" lon="5.656">
        <ele>446</ele>
        <time>2011-01-23T14:22:04Z</time>
      </trkpt>
      <trkpt lat="45.38369" lon="5.65567">
        <ele>445</ele>
        <time>2011-01-23T14:22:12Z</time>
      </trkpt>
      <trkpt lat="45.38361" lon="5.65534">
        <ele>445</ele>
        <time>2011-01-23T14:22:20Z</time>
      </trkpt>
      <trkpt lat="45.38358" lon="5.65484">
        <ele>446</ele>
        <time>2011-01-23T14:22:30Z</time>
      </trkpt>
      <trkpt lat="45.38353" lon="5.65431">
        <ele>446</ele>
        <time>2011-01-23T14:22:40Z</time>
      </trkpt>
      <trkpt lat="45.3835" lon="5.65403">
        <ele>447</ele>
        <time>2011-01-23T14:22:45Z</time>
      </trkpt>
      <trkpt lat="45.3834" lon="5.6537">
        <ele>448</ele>
        <time>2011-01-23T14:22:51Z</time>
      </trkpt>
      <trkpt lat="45.38311" lon="5.65327">
        <ele>447</ele>
        <time>2011-01-23T14:23:00Z</time>
      </trkpt>
      <trkpt lat="45.38273" lon="5.65283">
        <ele>447</ele>
        <time>2011-01-23T14:23:10Z</time>
      </trkpt>
      <trkpt lat="45.38256" lon="5.6526">
        <ele>447</ele>
        <time>2011-01-23T14:23:16Z</time>
      </trkpt>
      <trkpt lat="45.38229" lon="5.65221">
        <ele>447</ele>
        <time>2011-01-23T14:23:25Z</time>
      </trkpt>
      <trkpt lat="45.38203" lon="5.65182">
        <ele>448</ele>
        <time>2011-01-23T14:23:35Z</time>
      </trkpt>
      <trkpt lat="45.38195" lon="5.6517">
        <ele>448</ele>
        <time>2011-01-23T14:23:41Z</time>
      </trkpt>
      <trkpt lat="45.38187" lon="5.6516">
        <ele>448</ele>
        <time>2011-01-23T14:23:47Z</time>
      </trkpt>
      <trkpt lat="45.38179" lon="5.65146">
        <ele>449</ele>
        <time>2011-01-23T14:23:51Z</time>
      </trkpt>
      <trkpt lat="45.38159" lon="5.65115">
        <ele>449</ele>
        <time>2011-01-23T14:24:00Z</time>
      </trkpt>
      <trkpt lat="45.38134" lon="5.65075">
        <ele>449</ele>
        <time>2011-01-23T14:24:10Z</time>
      </trkpt>
      <trkpt lat="45.38129" lon="5.65066">
        <ele>449</ele>
        <time>2011-01-23T14:24:12Z</time>
      </trkpt>
      <trkpt lat="45.38118" lon="5.65049">
        <ele>449</ele>
        <time>2011-01-23T14:24:16Z</time>
      </trkpt>
      <trkpt lat="45.38089" lon="5.65004">
        <ele>449</ele>
        <time>2011-01-23T14:24:26Z</time>
      </trkpt>
      <trkpt lat="45.38063" lon="5.64968">
        <ele>450</ele>
        <time>2011-01-23T14:24:35Z</time>
      </trkpt>
      <trkpt lat="45.38043" lon="5.64945">
        <ele>450</ele>
        <time>2011-01-23T14:24:42Z</time>
      </trkpt>
      <trkpt lat="45.38017" lon="5.64924">
        <ele>449</ele>
        <time>2011-01-23T14:24:50Z</time>
      </trkpt>
      <trkpt lat="45.37988" lon="5.64901">
        <ele>449</ele>
        <time>2011-01-23T14:24:58Z</time>
      </trkpt>
      <trkpt lat="45.3796" lon="5.64871">
        <ele>449</ele>
        <time>2011-01-23T14:25:06Z</time>
      </trkpt>
      <trkpt lat="45.37941" lon="5.64845">
        <ele>450</ele>
        <time>2011-01-23T14:25:13Z</time>
      </trkpt>
      <trkpt lat="45.37921" lon="5.6481">
        <ele>449</ele>
        <time>2011-01-23T14:25:20Z</time>
      </trkpt>
      <trkpt lat="45.37895" lon="5.64778">
        <ele>449</ele>
        <time>2011-01-23T14:25:29Z</time>
      </trkpt>
      <trkpt lat="45.37872" lon="5.64751">
        <ele>449</ele>
        <time>2011-01-23T14:25:36Z</time>
      </trkpt>
      <trkpt lat="45.37866" lon="5.64742">
        <ele>449</ele>
        <time>2011-01-23T14:25:38Z</time>
      </trkpt>
      <trkpt lat="45.3786" lon="5.64733">
        <ele>448</ele>
        <time>2011-01-23T14:25:40Z</time>
      </trkpt>
      <trkpt lat="45.37841" lon="5.64702">
        <ele>448</ele>
        <time>2011-01-23T14:25:47Z</time>
      </trkpt>
      <trkpt lat="45.37826" lon="5.64679">
        <ele>449</ele>
        <time>2011-01-23T14:25:53Z</time>
      </trkpt>
      <trkpt lat="45.37824" lon="5.64675">
        <ele>449</ele>
        <time>2011-01-23T14:25:54Z</time>
      </trkpt>
      <trkpt lat="45.37831" lon="5.64653">
        <ele>448</ele>
        <time>2011-01-23T14:25:58Z</time>
      </trkpt>
      <trkpt lat="45.37852" lon="5.64612">
        <ele>448</ele>
        <time>2011-01-23T14:26:07Z</time>
      </trkpt>
      <trkpt lat="45.37859" lon="5.64598">
        <ele>448</ele>
        <time>2011-01-23T14:26:10Z</time>
      </trkpt>
      <trkpt lat="45.37887" lon="5.6458">
        <ele>448</ele>
        <time>2011-01-23T14:26:21Z</time>
      </trkpt>
    </trkseg>
  </trk>
</gpx>